<?xml version="1.0" encoding="UTF-8" standalone="no" ?>
<gpx xmlns="http://www.topografix.com/GPX/1/1" xmlns:xsi="http://www.w3.org/2001/XMLSchema-instance" xsi:schemaLocation="http://www.topografix.com/GPX/1/1 http://www.topografix.com/GPX/1/1/gpx.xsd" version="1.1" creator="VisuGPX - https://www.visugpx.com">
  <metadata>
    <name>Matapaños desde San Julián de Banzo</name>
    <desc><![CDATA[https://subircumbres.com/2026/01/17/matapanos-1532m-desde-san-julian-de-banzo/]]></desc>
  </metadata>
  <trk>
    <name><![CDATA[2026-01-11 13:36:14]]></name>
    <trkseg>
      <trkpt lat="42.23863" lon="-0.3462">
        <ele>775.84</ele>
        <time>2026-01-11T07:56:57Z</time>
      </trkpt>
      <trkpt lat="42.23863" lon="-0.34619">
        <ele>775.23</ele>
        <time>2026-01-11T07:57:17Z</time>
      </trkpt>
      <trkpt lat="42.23865" lon="-0.3462">
        <ele>775.73</ele>
        <time>2026-01-11T07:57:26Z</time>
      </trkpt>
      <trkpt lat="42.23867" lon="-0.34621">
        <ele>775.74</ele>
        <time>2026-01-11T07:57:28Z</time>
      </trkpt>
      <trkpt lat="42.23875" lon="-0.34622">
        <ele>776.13</ele>
        <time>2026-01-11T07:57:44Z</time>
      </trkpt>
      <trkpt lat="42.23876" lon="-0.34623">
        <ele>774.76</ele>
        <time>2026-01-11T07:57:59Z</time>
      </trkpt>
      <trkpt lat="42.23895" lon="-0.34617">
        <ele>771.85</ele>
        <time>2026-01-11T07:58:14Z</time>
      </trkpt>
      <trkpt lat="42.23898" lon="-0.34609">
        <ele>771.08</ele>
        <time>2026-01-11T07:58:18Z</time>
      </trkpt>
      <trkpt lat="42.23905" lon="-0.34572">
        <ele>770.74</ele>
        <time>2026-01-11T07:58:35Z</time>
      </trkpt>
      <trkpt lat="42.23918" lon="-0.34532">
        <ele>772.14</ele>
        <time>2026-01-11T07:58:55Z</time>
      </trkpt>
      <trkpt lat="42.2394" lon="-0.34505">
        <ele>772.83</ele>
        <time>2026-01-11T07:59:13Z</time>
      </trkpt>
      <trkpt lat="42.2397" lon="-0.34481">
        <ele>774.65</ele>
        <time>2026-01-11T07:59:33Z</time>
      </trkpt>
      <trkpt lat="42.23994" lon="-0.34444">
        <ele>775.68</ele>
        <time>2026-01-11T07:59:54Z</time>
      </trkpt>
      <trkpt lat="42.24022" lon="-0.34404">
        <ele>775.18</ele>
        <time>2026-01-11T08:00:17Z</time>
      </trkpt>
      <trkpt lat="42.24053" lon="-0.34382">
        <ele>773.54</ele>
        <time>2026-01-11T08:00:36Z</time>
      </trkpt>
      <trkpt lat="42.24076" lon="-0.3436">
        <ele>773.09</ele>
        <time>2026-01-11T08:00:52Z</time>
      </trkpt>
      <trkpt lat="42.24101" lon="-0.34332">
        <ele>775.37</ele>
        <time>2026-01-11T08:01:11Z</time>
      </trkpt>
      <trkpt lat="42.24132" lon="-0.34331">
        <ele>775.49</ele>
        <time>2026-01-11T08:01:29Z</time>
      </trkpt>
      <trkpt lat="42.24159" lon="-0.34323">
        <ele>774.21</ele>
        <time>2026-01-11T08:01:44Z</time>
      </trkpt>
      <trkpt lat="42.24176" lon="-0.34298">
        <ele>772.02</ele>
        <time>2026-01-11T08:01:59Z</time>
      </trkpt>
      <trkpt lat="42.24188" lon="-0.34273">
        <ele>768.89</ele>
        <time>2026-01-11T08:02:12Z</time>
      </trkpt>
      <trkpt lat="42.24195" lon="-0.34239">
        <ele>765.83</ele>
        <time>2026-01-11T08:02:27Z</time>
      </trkpt>
      <trkpt lat="42.24211" lon="-0.34199">
        <ele>764.56</ele>
        <time>2026-01-11T08:02:46Z</time>
      </trkpt>
      <trkpt lat="42.24223" lon="-0.34179">
        <ele>763.61</ele>
        <time>2026-01-11T08:02:57Z</time>
      </trkpt>
      <trkpt lat="42.24229" lon="-0.34167">
        <ele>762.52</ele>
        <time>2026-01-11T08:03:04Z</time>
      </trkpt>
      <trkpt lat="42.24251" lon="-0.34165">
        <ele>759.94</ele>
        <time>2026-01-11T08:03:18Z</time>
      </trkpt>
      <trkpt lat="42.24265" lon="-0.34163">
        <ele>759.93</ele>
        <time>2026-01-11T08:03:26Z</time>
      </trkpt>
      <trkpt lat="42.24282" lon="-0.3415">
        <ele>758.96</ele>
        <time>2026-01-11T08:03:38Z</time>
      </trkpt>
      <trkpt lat="42.24294" lon="-0.34136">
        <ele>758.42</ele>
        <time>2026-01-11T08:03:49Z</time>
      </trkpt>
      <trkpt lat="42.24302" lon="-0.34134">
        <ele>756.77</ele>
        <time>2026-01-11T08:04:03Z</time>
      </trkpt>
      <trkpt lat="42.24306" lon="-0.3413">
        <ele>756.03</ele>
        <time>2026-01-11T08:04:07Z</time>
      </trkpt>
      <trkpt lat="42.24323" lon="-0.34107">
        <ele>756.56</ele>
        <time>2026-01-11T08:04:24Z</time>
      </trkpt>
      <trkpt lat="42.24325" lon="-0.34092">
        <ele>758.99</ele>
        <time>2026-01-11T08:04:33Z</time>
      </trkpt>
      <trkpt lat="42.24326" lon="-0.34087">
        <ele>759.89</ele>
        <time>2026-01-11T08:04:37Z</time>
      </trkpt>
      <trkpt lat="42.24326" lon="-0.34084">
        <ele>760.24</ele>
        <time>2026-01-11T08:04:39Z</time>
      </trkpt>
      <trkpt lat="42.24324" lon="-0.34081">
        <ele>761.67</ele>
        <time>2026-01-11T08:04:42Z</time>
      </trkpt>
      <trkpt lat="42.24324" lon="-0.3408">
        <ele>762.56</ele>
        <time>2026-01-11T08:04:43Z</time>
      </trkpt>
      <trkpt lat="42.24327" lon="-0.34065">
        <ele>765.11</ele>
        <time>2026-01-11T08:04:53Z</time>
      </trkpt>
      <trkpt lat="42.24327" lon="-0.34064">
        <ele>765.34</ele>
        <time>2026-01-11T08:04:54Z</time>
      </trkpt>
      <trkpt lat="42.24323" lon="-0.34048">
        <ele>768.43</ele>
        <time>2026-01-11T08:05:06Z</time>
      </trkpt>
      <trkpt lat="42.24321" lon="-0.34029">
        <ele>771.49</ele>
        <time>2026-01-11T08:05:18Z</time>
      </trkpt>
      <trkpt lat="42.24319" lon="-0.34022">
        <ele>771.59</ele>
        <time>2026-01-11T08:05:22Z</time>
      </trkpt>
      <trkpt lat="42.24317" lon="-0.34">
        <ele>775.1</ele>
        <time>2026-01-11T08:05:36Z</time>
      </trkpt>
      <trkpt lat="42.24318" lon="-0.33983">
        <ele>778.49</ele>
        <time>2026-01-11T08:05:50Z</time>
      </trkpt>
      <trkpt lat="42.2433" lon="-0.33964">
        <ele>781.64</ele>
        <time>2026-01-11T08:06:04Z</time>
      </trkpt>
      <trkpt lat="42.24336" lon="-0.33956">
        <ele>782.34</ele>
        <time>2026-01-11T08:06:11Z</time>
      </trkpt>
      <trkpt lat="42.24352" lon="-0.33939">
        <ele>782.56</ele>
        <time>2026-01-11T08:06:25Z</time>
      </trkpt>
      <trkpt lat="42.24368" lon="-0.3392">
        <ele>782.23</ele>
        <time>2026-01-11T08:06:40Z</time>
      </trkpt>
      <trkpt lat="42.24386" lon="-0.33892">
        <ele>780.59</ele>
        <time>2026-01-11T08:06:58Z</time>
      </trkpt>
      <trkpt lat="42.2441" lon="-0.33877">
        <ele>778.4</ele>
        <time>2026-01-11T08:07:14Z</time>
      </trkpt>
      <trkpt lat="42.24429" lon="-0.33875">
        <ele>775.93</ele>
        <time>2026-01-11T08:07:27Z</time>
      </trkpt>
      <trkpt lat="42.24437" lon="-0.33879">
        <ele>774.06</ele>
        <time>2026-01-11T08:07:34Z</time>
      </trkpt>
      <trkpt lat="42.24443" lon="-0.33877">
        <ele>772.82</ele>
        <time>2026-01-11T08:07:38Z</time>
      </trkpt>
      <trkpt lat="42.24463" lon="-0.33874">
        <ele>774.18</ele>
        <time>2026-01-11T08:07:54Z</time>
      </trkpt>
      <trkpt lat="42.24478" lon="-0.33871">
        <ele>775.16</ele>
        <time>2026-01-11T08:08:05Z</time>
      </trkpt>
      <trkpt lat="42.24487" lon="-0.33873">
        <ele>774.91</ele>
        <time>2026-01-11T08:08:10Z</time>
      </trkpt>
      <trkpt lat="42.24492" lon="-0.33883">
        <ele>775.32</ele>
        <time>2026-01-11T08:08:16Z</time>
      </trkpt>
      <trkpt lat="42.245" lon="-0.33893">
        <ele>776.21</ele>
        <time>2026-01-11T08:08:25Z</time>
      </trkpt>
      <trkpt lat="42.2451" lon="-0.339">
        <ele>776.81</ele>
        <time>2026-01-11T08:08:36Z</time>
      </trkpt>
      <trkpt lat="42.24514" lon="-0.339">
        <ele>775</ele>
        <time>2026-01-11T08:09:09Z</time>
      </trkpt>
      <trkpt lat="42.24517" lon="-0.339">
        <ele>775.78</ele>
        <time>2026-01-11T08:09:26Z</time>
      </trkpt>
      <trkpt lat="42.24523" lon="-0.33897">
        <ele>776.69</ele>
        <time>2026-01-11T08:09:31Z</time>
      </trkpt>
      <trkpt lat="42.24545" lon="-0.33893">
        <ele>777.28</ele>
        <time>2026-01-11T08:09:46Z</time>
      </trkpt>
      <trkpt lat="42.24549" lon="-0.33895">
        <ele>776.63</ele>
        <time>2026-01-11T08:10:14Z</time>
      </trkpt>
      <trkpt lat="42.24551" lon="-0.33898">
        <ele>777.11</ele>
        <time>2026-01-11T08:10:45Z</time>
      </trkpt>
      <trkpt lat="42.24553" lon="-0.33897">
        <ele>777.63</ele>
        <time>2026-01-11T08:11:07Z</time>
      </trkpt>
      <trkpt lat="42.24556" lon="-0.33896">
        <ele>776.97</ele>
        <time>2026-01-11T08:11:09Z</time>
      </trkpt>
      <trkpt lat="42.24563" lon="-0.33891">
        <ele>777.47</ele>
        <time>2026-01-11T08:11:14Z</time>
      </trkpt>
      <trkpt lat="42.24574" lon="-0.33879">
        <ele>778.17</ele>
        <time>2026-01-11T08:11:23Z</time>
      </trkpt>
      <trkpt lat="42.24578" lon="-0.33875">
        <ele>779.03</ele>
        <time>2026-01-11T08:11:40Z</time>
      </trkpt>
      <trkpt lat="42.24578" lon="-0.33874">
        <ele>777.85</ele>
        <time>2026-01-11T08:11:42Z</time>
      </trkpt>
      <trkpt lat="42.24585" lon="-0.33869">
        <ele>778.15</ele>
        <time>2026-01-11T08:11:48Z</time>
      </trkpt>
      <trkpt lat="42.24599" lon="-0.33861">
        <ele>778.76</ele>
        <time>2026-01-11T08:12:00Z</time>
      </trkpt>
      <trkpt lat="42.24609" lon="-0.33875">
        <ele>779.23</ele>
        <time>2026-01-11T08:12:11Z</time>
      </trkpt>
      <trkpt lat="42.24617" lon="-0.33884">
        <ele>779.67</ele>
        <time>2026-01-11T08:12:18Z</time>
      </trkpt>
      <trkpt lat="42.24625" lon="-0.33896">
        <ele>779.83</ele>
        <time>2026-01-11T08:12:30Z</time>
      </trkpt>
      <trkpt lat="42.24632" lon="-0.33901">
        <ele>779.72</ele>
        <time>2026-01-11T08:12:35Z</time>
      </trkpt>
      <trkpt lat="42.24638" lon="-0.33907">
        <ele>780.22</ele>
        <time>2026-01-11T08:12:41Z</time>
      </trkpt>
      <trkpt lat="42.2464" lon="-0.3391">
        <ele>780.91</ele>
        <time>2026-01-11T08:12:44Z</time>
      </trkpt>
      <trkpt lat="42.24653" lon="-0.33913">
        <ele>781.78</ele>
        <time>2026-01-11T08:12:56Z</time>
      </trkpt>
      <trkpt lat="42.24655" lon="-0.33912">
        <ele>781.76</ele>
        <time>2026-01-11T08:12:58Z</time>
      </trkpt>
      <trkpt lat="42.24677" lon="-0.33894">
        <ele>782.09</ele>
        <time>2026-01-11T08:13:13Z</time>
      </trkpt>
      <trkpt lat="42.24692" lon="-0.33887">
        <ele>782.16</ele>
        <time>2026-01-11T08:13:23Z</time>
      </trkpt>
      <trkpt lat="42.24714" lon="-0.3387">
        <ele>782.42</ele>
        <time>2026-01-11T08:13:37Z</time>
      </trkpt>
      <trkpt lat="42.24721" lon="-0.33852">
        <ele>783.15</ele>
        <time>2026-01-11T08:13:48Z</time>
      </trkpt>
      <trkpt lat="42.24727" lon="-0.33829">
        <ele>783.23</ele>
        <time>2026-01-11T08:14:00Z</time>
      </trkpt>
      <trkpt lat="42.24734" lon="-0.33816">
        <ele>783.97</ele>
        <time>2026-01-11T08:14:08Z</time>
      </trkpt>
      <trkpt lat="42.24741" lon="-0.33794">
        <ele>785.55</ele>
        <time>2026-01-11T08:14:21Z</time>
      </trkpt>
      <trkpt lat="42.24742" lon="-0.33785">
        <ele>785.51</ele>
        <time>2026-01-11T08:14:26Z</time>
      </trkpt>
      <trkpt lat="42.24752" lon="-0.3376">
        <ele>785.77</ele>
        <time>2026-01-11T08:14:41Z</time>
      </trkpt>
      <trkpt lat="42.24749" lon="-0.33733">
        <ele>787.49</ele>
        <time>2026-01-11T08:14:55Z</time>
      </trkpt>
      <trkpt lat="42.24751" lon="-0.33711">
        <ele>788.54</ele>
        <time>2026-01-11T08:15:07Z</time>
      </trkpt>
      <trkpt lat="42.24755" lon="-0.33682">
        <ele>788.59</ele>
        <time>2026-01-11T08:15:22Z</time>
      </trkpt>
      <trkpt lat="42.24756" lon="-0.33667">
        <ele>789.07</ele>
        <time>2026-01-11T08:15:29Z</time>
      </trkpt>
      <trkpt lat="42.24757" lon="-0.33647">
        <ele>789.54</ele>
        <time>2026-01-11T08:15:39Z</time>
      </trkpt>
      <trkpt lat="42.24771" lon="-0.33627">
        <ele>790.08</ele>
        <time>2026-01-11T08:15:53Z</time>
      </trkpt>
      <trkpt lat="42.24779" lon="-0.33625">
        <ele>791.3</ele>
        <time>2026-01-11T08:16:00Z</time>
      </trkpt>
      <trkpt lat="42.24783" lon="-0.33625">
        <ele>791.02</ele>
        <time>2026-01-11T08:16:03Z</time>
      </trkpt>
      <trkpt lat="42.24787" lon="-0.33627">
        <ele>790.77</ele>
        <time>2026-01-11T08:16:20Z</time>
      </trkpt>
      <trkpt lat="42.2479" lon="-0.33626">
        <ele>791.31</ele>
        <time>2026-01-11T08:16:47Z</time>
      </trkpt>
      <trkpt lat="42.24787" lon="-0.33625">
        <ele>791.17</ele>
        <time>2026-01-11T08:17:18Z</time>
      </trkpt>
      <trkpt lat="42.24791" lon="-0.33623">
        <ele>794.42</ele>
        <time>2026-01-11T08:17:38Z</time>
      </trkpt>
      <trkpt lat="42.24791" lon="-0.33623">
        <ele>791.21</ele>
        <time>2026-01-11T08:17:40Z</time>
      </trkpt>
      <trkpt lat="42.24796" lon="-0.33623">
        <ele>791.18</ele>
        <time>2026-01-11T08:17:55Z</time>
      </trkpt>
      <trkpt lat="42.24813" lon="-0.33625">
        <ele>791.71</ele>
        <time>2026-01-11T08:18:06Z</time>
      </trkpt>
      <trkpt lat="42.24817" lon="-0.33627">
        <ele>791.84</ele>
        <time>2026-01-11T08:18:10Z</time>
      </trkpt>
      <trkpt lat="42.24827" lon="-0.33629">
        <ele>792.31</ele>
        <time>2026-01-11T08:18:20Z</time>
      </trkpt>
      <trkpt lat="42.24839" lon="-0.33632">
        <ele>792.95</ele>
        <time>2026-01-11T08:18:31Z</time>
      </trkpt>
      <trkpt lat="42.24844" lon="-0.33634">
        <ele>793.49</ele>
        <time>2026-01-11T08:18:35Z</time>
      </trkpt>
      <trkpt lat="42.24857" lon="-0.33636">
        <ele>792.86</ele>
        <time>2026-01-11T08:18:43Z</time>
      </trkpt>
      <trkpt lat="42.24862" lon="-0.33649">
        <ele>793.9</ele>
        <time>2026-01-11T08:18:53Z</time>
      </trkpt>
      <trkpt lat="42.24866" lon="-0.33652">
        <ele>794.33</ele>
        <time>2026-01-11T08:18:56Z</time>
      </trkpt>
      <trkpt lat="42.24868" lon="-0.33661">
        <ele>794.72</ele>
        <time>2026-01-11T08:19:00Z</time>
      </trkpt>
      <trkpt lat="42.24868" lon="-0.33663">
        <ele>794.27</ele>
        <time>2026-01-11T08:19:02Z</time>
      </trkpt>
      <trkpt lat="42.24869" lon="-0.3367">
        <ele>795.49</ele>
        <time>2026-01-11T08:19:06Z</time>
      </trkpt>
      <trkpt lat="42.24878" lon="-0.33691">
        <ele>795.53</ele>
        <time>2026-01-11T08:19:17Z</time>
      </trkpt>
      <trkpt lat="42.24881" lon="-0.337">
        <ele>796.12</ele>
        <time>2026-01-11T08:19:26Z</time>
      </trkpt>
      <trkpt lat="42.24885" lon="-0.33704">
        <ele>796.28</ele>
        <time>2026-01-11T08:19:33Z</time>
      </trkpt>
      <trkpt lat="42.24888" lon="-0.33705">
        <ele>796.33</ele>
        <time>2026-01-11T08:19:35Z</time>
      </trkpt>
      <trkpt lat="42.24893" lon="-0.33705">
        <ele>796.97</ele>
        <time>2026-01-11T08:19:38Z</time>
      </trkpt>
      <trkpt lat="42.24905" lon="-0.33706">
        <ele>796.63</ele>
        <time>2026-01-11T08:19:42Z</time>
      </trkpt>
      <trkpt lat="42.24923" lon="-0.33704">
        <ele>797.55</ele>
        <time>2026-01-11T08:19:52Z</time>
      </trkpt>
      <trkpt lat="42.24927" lon="-0.33695">
        <ele>797.17</ele>
        <time>2026-01-11T08:19:57Z</time>
      </trkpt>
      <trkpt lat="42.24939" lon="-0.33696">
        <ele>798.46</ele>
        <time>2026-01-11T08:20:06Z</time>
      </trkpt>
      <trkpt lat="42.24947" lon="-0.33703">
        <ele>797.67</ele>
        <time>2026-01-11T08:20:28Z</time>
      </trkpt>
      <trkpt lat="42.24945" lon="-0.33698">
        <ele>797.2</ele>
        <time>2026-01-11T08:20:51Z</time>
      </trkpt>
      <trkpt lat="42.24946" lon="-0.33697">
        <ele>797.22</ele>
        <time>2026-01-11T08:20:53Z</time>
      </trkpt>
      <trkpt lat="42.24947" lon="-0.33693">
        <ele>798.27</ele>
        <time>2026-01-11T08:20:55Z</time>
      </trkpt>
      <trkpt lat="42.24949" lon="-0.33662">
        <ele>799.95</ele>
        <time>2026-01-11T08:21:16Z</time>
      </trkpt>
      <trkpt lat="42.24945" lon="-0.33653">
        <ele>800.49</ele>
        <time>2026-01-11T08:21:19Z</time>
      </trkpt>
      <trkpt lat="42.24935" lon="-0.33619">
        <ele>802.6</ele>
        <time>2026-01-11T08:21:37Z</time>
      </trkpt>
      <trkpt lat="42.24932" lon="-0.33609">
        <ele>803.37</ele>
        <time>2026-01-11T08:21:44Z</time>
      </trkpt>
      <trkpt lat="42.24927" lon="-0.33601">
        <ele>803.85</ele>
        <time>2026-01-11T08:21:49Z</time>
      </trkpt>
      <trkpt lat="42.24916" lon="-0.33588">
        <ele>806.16</ele>
        <time>2026-01-11T08:22:02Z</time>
      </trkpt>
      <trkpt lat="42.24921" lon="-0.33566">
        <ele>809.34</ele>
        <time>2026-01-11T08:22:15Z</time>
      </trkpt>
      <trkpt lat="42.24922" lon="-0.33551">
        <ele>812.3</ele>
        <time>2026-01-11T08:22:25Z</time>
      </trkpt>
      <trkpt lat="42.24923" lon="-0.33545">
        <ele>812.37</ele>
        <time>2026-01-11T08:22:28Z</time>
      </trkpt>
      <trkpt lat="42.24924" lon="-0.3353">
        <ele>812.26</ele>
        <time>2026-01-11T08:22:35Z</time>
      </trkpt>
      <trkpt lat="42.24935" lon="-0.33514">
        <ele>813.91</ele>
        <time>2026-01-11T08:22:48Z</time>
      </trkpt>
      <trkpt lat="42.24941" lon="-0.33511">
        <ele>814.98</ele>
        <time>2026-01-11T08:22:58Z</time>
      </trkpt>
      <trkpt lat="42.24952" lon="-0.33509">
        <ele>816.29</ele>
        <time>2026-01-11T08:23:06Z</time>
      </trkpt>
      <trkpt lat="42.24965" lon="-0.33504">
        <ele>819.34</ele>
        <time>2026-01-11T08:23:17Z</time>
      </trkpt>
      <trkpt lat="42.24973" lon="-0.33499">
        <ele>820.51</ele>
        <time>2026-01-11T08:23:23Z</time>
      </trkpt>
      <trkpt lat="42.24981" lon="-0.33493">
        <ele>820.86</ele>
        <time>2026-01-11T08:23:30Z</time>
      </trkpt>
      <trkpt lat="42.24985" lon="-0.33488">
        <ele>821.15</ele>
        <time>2026-01-11T08:23:33Z</time>
      </trkpt>
      <trkpt lat="42.24988" lon="-0.33483">
        <ele>821.27</ele>
        <time>2026-01-11T08:23:36Z</time>
      </trkpt>
      <trkpt lat="42.25001" lon="-0.33468">
        <ele>821.27</ele>
        <time>2026-01-11T08:23:45Z</time>
      </trkpt>
      <trkpt lat="42.25007" lon="-0.33458">
        <ele>822.37</ele>
        <time>2026-01-11T08:23:52Z</time>
      </trkpt>
      <trkpt lat="42.25016" lon="-0.33451">
        <ele>823.75</ele>
        <time>2026-01-11T08:24:01Z</time>
      </trkpt>
      <trkpt lat="42.25035" lon="-0.33453">
        <ele>827.51</ele>
        <time>2026-01-11T08:24:18Z</time>
      </trkpt>
      <trkpt lat="42.25061" lon="-0.33461">
        <ele>828.95</ele>
        <time>2026-01-11T08:24:39Z</time>
      </trkpt>
      <trkpt lat="42.25062" lon="-0.33461">
        <ele>829.13</ele>
        <time>2026-01-11T08:24:40Z</time>
      </trkpt>
      <trkpt lat="42.25082" lon="-0.33459">
        <ele>831.55</ele>
        <time>2026-01-11T08:24:58Z</time>
      </trkpt>
      <trkpt lat="42.251" lon="-0.33454">
        <ele>832.48</ele>
        <time>2026-01-11T08:25:09Z</time>
      </trkpt>
      <trkpt lat="42.25105" lon="-0.3345">
        <ele>833.37</ele>
        <time>2026-01-11T08:25:12Z</time>
      </trkpt>
      <trkpt lat="42.25122" lon="-0.33425">
        <ele>835.41</ele>
        <time>2026-01-11T08:25:28Z</time>
      </trkpt>
      <trkpt lat="42.25128" lon="-0.33408">
        <ele>838.39</ele>
        <time>2026-01-11T08:25:43Z</time>
      </trkpt>
      <trkpt lat="42.25138" lon="-0.33397">
        <ele>841.54</ele>
        <time>2026-01-11T08:25:58Z</time>
      </trkpt>
      <trkpt lat="42.25157" lon="-0.33386">
        <ele>845.04</ele>
        <time>2026-01-11T08:26:15Z</time>
      </trkpt>
      <trkpt lat="42.25173" lon="-0.33367">
        <ele>848.43</ele>
        <time>2026-01-11T08:26:33Z</time>
      </trkpt>
      <trkpt lat="42.25174" lon="-0.33366">
        <ele>848.61</ele>
        <time>2026-01-11T08:26:34Z</time>
      </trkpt>
      <trkpt lat="42.25176" lon="-0.33359">
        <ele>850.03</ele>
        <time>2026-01-11T08:26:39Z</time>
      </trkpt>
      <trkpt lat="42.25175" lon="-0.33357">
        <ele>849.52</ele>
        <time>2026-01-11T08:27:05Z</time>
      </trkpt>
      <trkpt lat="42.25175" lon="-0.3335">
        <ele>848.49</ele>
        <time>2026-01-11T08:27:37Z</time>
      </trkpt>
      <trkpt lat="42.25189" lon="-0.33339">
        <ele>849.21</ele>
        <time>2026-01-11T08:27:49Z</time>
      </trkpt>
      <trkpt lat="42.25195" lon="-0.33328">
        <ele>850.68</ele>
        <time>2026-01-11T08:28:06Z</time>
      </trkpt>
      <trkpt lat="42.25201" lon="-0.33313">
        <ele>851.26</ele>
        <time>2026-01-11T08:28:20Z</time>
      </trkpt>
      <trkpt lat="42.25202" lon="-0.3331">
        <ele>851.83</ele>
        <time>2026-01-11T08:28:23Z</time>
      </trkpt>
      <trkpt lat="42.25194" lon="-0.33296">
        <ele>854.99</ele>
        <time>2026-01-11T08:28:42Z</time>
      </trkpt>
      <trkpt lat="42.25193" lon="-0.33295">
        <ele>854.76</ele>
        <time>2026-01-11T08:28:43Z</time>
      </trkpt>
      <trkpt lat="42.25192" lon="-0.33289">
        <ele>857.55</ele>
        <time>2026-01-11T08:28:50Z</time>
      </trkpt>
      <trkpt lat="42.25197" lon="-0.33278">
        <ele>861.06</ele>
        <time>2026-01-11T08:29:00Z</time>
      </trkpt>
      <trkpt lat="42.25204" lon="-0.33266">
        <ele>862.87</ele>
        <time>2026-01-11T08:29:14Z</time>
      </trkpt>
      <trkpt lat="42.25201" lon="-0.33266">
        <ele>864.17</ele>
        <time>2026-01-11T08:29:17Z</time>
      </trkpt>
      <trkpt lat="42.25202" lon="-0.33258">
        <ele>865.93</ele>
        <time>2026-01-11T08:29:24Z</time>
      </trkpt>
      <trkpt lat="42.25208" lon="-0.33248">
        <ele>867.66</ele>
        <time>2026-01-11T08:29:36Z</time>
      </trkpt>
      <trkpt lat="42.25205" lon="-0.33229">
        <ele>871.34</ele>
        <time>2026-01-11T08:29:53Z</time>
      </trkpt>
      <trkpt lat="42.252" lon="-0.33212">
        <ele>874.54</ele>
        <time>2026-01-11T08:30:08Z</time>
      </trkpt>
      <trkpt lat="42.25202" lon="-0.33204">
        <ele>875.56</ele>
        <time>2026-01-11T08:30:13Z</time>
      </trkpt>
      <trkpt lat="42.25203" lon="-0.33186">
        <ele>877.26</ele>
        <time>2026-01-11T08:30:25Z</time>
      </trkpt>
      <trkpt lat="42.25205" lon="-0.3318">
        <ele>878.73</ele>
        <time>2026-01-11T08:30:29Z</time>
      </trkpt>
      <trkpt lat="42.25208" lon="-0.33164">
        <ele>879.62</ele>
        <time>2026-01-11T08:30:39Z</time>
      </trkpt>
      <trkpt lat="42.25215" lon="-0.33161">
        <ele>879.06</ele>
        <time>2026-01-11T08:30:53Z</time>
      </trkpt>
      <trkpt lat="42.25219" lon="-0.33158">
        <ele>878.92</ele>
        <time>2026-01-11T08:31:05Z</time>
      </trkpt>
      <trkpt lat="42.25225" lon="-0.33142">
        <ele>878.26</ele>
        <time>2026-01-11T08:31:16Z</time>
      </trkpt>
      <trkpt lat="42.25232" lon="-0.33135">
        <ele>880.92</ele>
        <time>2026-01-11T08:31:30Z</time>
      </trkpt>
      <trkpt lat="42.25241" lon="-0.33123">
        <ele>882.73</ele>
        <time>2026-01-11T08:31:42Z</time>
      </trkpt>
      <trkpt lat="42.25257" lon="-0.33111">
        <ele>885.4</ele>
        <time>2026-01-11T08:32:01Z</time>
      </trkpt>
      <trkpt lat="42.25259" lon="-0.33108">
        <ele>885.33</ele>
        <time>2026-01-11T08:32:24Z</time>
      </trkpt>
      <trkpt lat="42.25259" lon="-0.33107">
        <ele>885.17</ele>
        <time>2026-01-11T08:32:50Z</time>
      </trkpt>
      <trkpt lat="42.25259" lon="-0.33106">
        <ele>885.95</ele>
        <time>2026-01-11T08:33:18Z</time>
      </trkpt>
      <trkpt lat="42.2526" lon="-0.33109">
        <ele>884.34</ele>
        <time>2026-01-11T08:33:33Z</time>
      </trkpt>
      <trkpt lat="42.25261" lon="-0.33111">
        <ele>884.45</ele>
        <time>2026-01-11T08:33:35Z</time>
      </trkpt>
      <trkpt lat="42.25268" lon="-0.33113">
        <ele>887.79</ele>
        <time>2026-01-11T08:33:46Z</time>
      </trkpt>
      <trkpt lat="42.25272" lon="-0.33112">
        <ele>889.73</ele>
        <time>2026-01-11T08:34:06Z</time>
      </trkpt>
      <trkpt lat="42.25282" lon="-0.33111">
        <ele>892.9</ele>
        <time>2026-01-11T08:34:20Z</time>
      </trkpt>
      <trkpt lat="42.25287" lon="-0.33112">
        <ele>896.06</ele>
        <time>2026-01-11T08:34:29Z</time>
      </trkpt>
      <trkpt lat="42.25295" lon="-0.33114">
        <ele>898.74</ele>
        <time>2026-01-11T08:34:39Z</time>
      </trkpt>
      <trkpt lat="42.25299" lon="-0.33113">
        <ele>898.4</ele>
        <time>2026-01-11T08:34:48Z</time>
      </trkpt>
      <trkpt lat="42.25302" lon="-0.33112">
        <ele>897.3</ele>
        <time>2026-01-11T08:35:20Z</time>
      </trkpt>
      <trkpt lat="42.25304" lon="-0.33113">
        <ele>898.45</ele>
        <time>2026-01-11T08:35:42Z</time>
      </trkpt>
      <trkpt lat="42.25303" lon="-0.33116">
        <ele>900.08</ele>
        <time>2026-01-11T08:36:05Z</time>
      </trkpt>
      <trkpt lat="42.25306" lon="-0.33115">
        <ele>901.03</ele>
        <time>2026-01-11T08:36:11Z</time>
      </trkpt>
      <trkpt lat="42.25316" lon="-0.33116">
        <ele>904.02</ele>
        <time>2026-01-11T08:36:23Z</time>
      </trkpt>
      <trkpt lat="42.25324" lon="-0.33119">
        <ele>907.29</ele>
        <time>2026-01-11T08:36:35Z</time>
      </trkpt>
      <trkpt lat="42.25319" lon="-0.33128">
        <ele>909.25</ele>
        <time>2026-01-11T08:36:45Z</time>
      </trkpt>
      <trkpt lat="42.25315" lon="-0.33133">
        <ele>909.95</ele>
        <time>2026-01-11T08:36:51Z</time>
      </trkpt>
      <trkpt lat="42.25301" lon="-0.33146">
        <ele>914.22</ele>
        <time>2026-01-11T08:37:06Z</time>
      </trkpt>
      <trkpt lat="42.25307" lon="-0.33154">
        <ele>917.36</ele>
        <time>2026-01-11T08:37:22Z</time>
      </trkpt>
      <trkpt lat="42.25317" lon="-0.33155">
        <ele>920.55</ele>
        <time>2026-01-11T08:37:36Z</time>
      </trkpt>
      <trkpt lat="42.25326" lon="-0.33153">
        <ele>924.21</ele>
        <time>2026-01-11T08:37:51Z</time>
      </trkpt>
      <trkpt lat="42.25334" lon="-0.33151">
        <ele>926.36</ele>
        <time>2026-01-11T08:37:59Z</time>
      </trkpt>
      <trkpt lat="42.25338" lon="-0.33164">
        <ele>929.37</ele>
        <time>2026-01-11T08:38:15Z</time>
      </trkpt>
      <trkpt lat="42.25336" lon="-0.33168">
        <ele>928.88</ele>
        <time>2026-01-11T08:38:41Z</time>
      </trkpt>
      <trkpt lat="42.25335" lon="-0.33178">
        <ele>932.29</ele>
        <time>2026-01-11T08:38:54Z</time>
      </trkpt>
      <trkpt lat="42.25337" lon="-0.33188">
        <ele>935.32</ele>
        <time>2026-01-11T08:39:09Z</time>
      </trkpt>
      <trkpt lat="42.25333" lon="-0.332">
        <ele>938.34</ele>
        <time>2026-01-11T08:39:21Z</time>
      </trkpt>
      <trkpt lat="42.25325" lon="-0.33209">
        <ele>941.4</ele>
        <time>2026-01-11T08:39:39Z</time>
      </trkpt>
      <trkpt lat="42.25323" lon="-0.33214">
        <ele>941.55</ele>
        <time>2026-01-11T08:39:43Z</time>
      </trkpt>
      <trkpt lat="42.25319" lon="-0.3323">
        <ele>945.3</ele>
        <time>2026-01-11T08:39:57Z</time>
      </trkpt>
      <trkpt lat="42.2532" lon="-0.33236">
        <ele>948.8</ele>
        <time>2026-01-11T08:40:15Z</time>
      </trkpt>
      <trkpt lat="42.2533" lon="-0.33242">
        <ele>952.57</ele>
        <time>2026-01-11T08:40:31Z</time>
      </trkpt>
      <trkpt lat="42.25343" lon="-0.33245">
        <ele>955.83</ele>
        <time>2026-01-11T08:40:44Z</time>
      </trkpt>
      <trkpt lat="42.25357" lon="-0.33243">
        <ele>957.67</ele>
        <time>2026-01-11T08:40:59Z</time>
      </trkpt>
      <trkpt lat="42.25367" lon="-0.33243">
        <ele>960.69</ele>
        <time>2026-01-11T08:41:10Z</time>
      </trkpt>
      <trkpt lat="42.25369" lon="-0.33244">
        <ele>961.45</ele>
        <time>2026-01-11T08:41:11Z</time>
      </trkpt>
      <trkpt lat="42.25386" lon="-0.33238">
        <ele>963.96</ele>
        <time>2026-01-11T08:41:27Z</time>
      </trkpt>
      <trkpt lat="42.25387" lon="-0.33237">
        <ele>964.63</ele>
        <time>2026-01-11T08:41:29Z</time>
      </trkpt>
      <trkpt lat="42.25399" lon="-0.33233">
        <ele>967.86</ele>
        <time>2026-01-11T08:41:44Z</time>
      </trkpt>
      <trkpt lat="42.25402" lon="-0.33233">
        <ele>968.33</ele>
        <time>2026-01-11T08:41:49Z</time>
      </trkpt>
      <trkpt lat="42.25406" lon="-0.3323">
        <ele>970.03</ele>
        <time>2026-01-11T08:41:56Z</time>
      </trkpt>
      <trkpt lat="42.25407" lon="-0.33228">
        <ele>970.63</ele>
        <time>2026-01-11T08:41:59Z</time>
      </trkpt>
      <trkpt lat="42.25409" lon="-0.33229">
        <ele>971.04</ele>
        <time>2026-01-11T08:42:01Z</time>
      </trkpt>
      <trkpt lat="42.25424" lon="-0.33234">
        <ele>974.22</ele>
        <time>2026-01-11T08:42:14Z</time>
      </trkpt>
      <trkpt lat="42.25434" lon="-0.33235">
        <ele>977.2</ele>
        <time>2026-01-11T08:42:28Z</time>
      </trkpt>
      <trkpt lat="42.25438" lon="-0.33236">
        <ele>978.05</ele>
        <time>2026-01-11T08:42:33Z</time>
      </trkpt>
      <trkpt lat="42.25439" lon="-0.33237">
        <ele>978.94</ele>
        <time>2026-01-11T08:42:35Z</time>
      </trkpt>
      <trkpt lat="42.25441" lon="-0.33236">
        <ele>979.1</ele>
        <time>2026-01-11T08:42:38Z</time>
      </trkpt>
      <trkpt lat="42.25444" lon="-0.33238">
        <ele>981.13</ele>
        <time>2026-01-11T08:42:44Z</time>
      </trkpt>
      <trkpt lat="42.25454" lon="-0.33244">
        <ele>984.13</ele>
        <time>2026-01-11T08:42:57Z</time>
      </trkpt>
      <trkpt lat="42.2546" lon="-0.33248">
        <ele>985.78</ele>
        <time>2026-01-11T08:43:05Z</time>
      </trkpt>
      <trkpt lat="42.25463" lon="-0.33258">
        <ele>988.83</ele>
        <time>2026-01-11T08:43:17Z</time>
      </trkpt>
      <trkpt lat="42.25472" lon="-0.33256">
        <ele>991.89</ele>
        <time>2026-01-11T08:43:30Z</time>
      </trkpt>
      <trkpt lat="42.25477" lon="-0.3326">
        <ele>993.3</ele>
        <time>2026-01-11T08:43:37Z</time>
      </trkpt>
      <trkpt lat="42.25486" lon="-0.33263">
        <ele>996.66</ele>
        <time>2026-01-11T08:43:49Z</time>
      </trkpt>
      <trkpt lat="42.25488" lon="-0.3326">
        <ele>996.46</ele>
        <time>2026-01-11T08:43:52Z</time>
      </trkpt>
      <trkpt lat="42.25493" lon="-0.33259">
        <ele>996.92</ele>
        <time>2026-01-11T08:43:57Z</time>
      </trkpt>
      <trkpt lat="42.25506" lon="-0.33263">
        <ele>1000.81</ele>
        <time>2026-01-11T08:44:16Z</time>
      </trkpt>
      <trkpt lat="42.25513" lon="-0.33261">
        <ele>1002.99</ele>
        <time>2026-01-11T08:44:29Z</time>
      </trkpt>
      <trkpt lat="42.25516" lon="-0.3326">
        <ele>1003.69</ele>
        <time>2026-01-11T08:44:33Z</time>
      </trkpt>
      <trkpt lat="42.25539" lon="-0.33257">
        <ele>1006.18</ele>
        <time>2026-01-11T08:44:50Z</time>
      </trkpt>
      <trkpt lat="42.25547" lon="-0.33239">
        <ele>1006.34</ele>
        <time>2026-01-11T08:45:05Z</time>
      </trkpt>
      <trkpt lat="42.25549" lon="-0.33242">
        <ele>1006.27</ele>
        <time>2026-01-11T08:45:08Z</time>
      </trkpt>
      <trkpt lat="42.2556" lon="-0.33231">
        <ele>1006.02</ele>
        <time>2026-01-11T08:45:19Z</time>
      </trkpt>
      <trkpt lat="42.25561" lon="-0.33225">
        <ele>1008.48</ele>
        <time>2026-01-11T08:45:21Z</time>
      </trkpt>
      <trkpt lat="42.25569" lon="-0.33233">
        <ele>1007.99</ele>
        <time>2026-01-11T08:45:28Z</time>
      </trkpt>
      <trkpt lat="42.25578" lon="-0.33219">
        <ele>1009.64</ele>
        <time>2026-01-11T08:45:36Z</time>
      </trkpt>
      <trkpt lat="42.25599" lon="-0.33217">
        <ele>1011.81</ele>
        <time>2026-01-11T08:45:51Z</time>
      </trkpt>
      <trkpt lat="42.25613" lon="-0.33204">
        <ele>1011.37</ele>
        <time>2026-01-11T08:45:54Z</time>
      </trkpt>
      <trkpt lat="42.25619" lon="-0.33197">
        <ele>1012.73</ele>
        <time>2026-01-11T08:46:06Z</time>
      </trkpt>
      <trkpt lat="42.25623" lon="-0.33197">
        <ele>1012.7</ele>
        <time>2026-01-11T08:46:11Z</time>
      </trkpt>
      <trkpt lat="42.25625" lon="-0.33194">
        <ele>1013.15</ele>
        <time>2026-01-11T08:46:31Z</time>
      </trkpt>
      <trkpt lat="42.25631" lon="-0.33184">
        <ele>1014.61</ele>
        <time>2026-01-11T08:46:39Z</time>
      </trkpt>
      <trkpt lat="42.25647" lon="-0.3317">
        <ele>1016.46</ele>
        <time>2026-01-11T08:46:48Z</time>
      </trkpt>
      <trkpt lat="42.25661" lon="-0.33174">
        <ele>1017.75</ele>
        <time>2026-01-11T08:46:50Z</time>
      </trkpt>
      <trkpt lat="42.25673" lon="-0.33177">
        <ele>1018.82</ele>
        <time>2026-01-11T08:47:01Z</time>
      </trkpt>
      <trkpt lat="42.25684" lon="-0.33179">
        <ele>1021.9</ele>
        <time>2026-01-11T08:47:07Z</time>
      </trkpt>
      <trkpt lat="42.25693" lon="-0.33183">
        <ele>1021.4</ele>
        <time>2026-01-11T08:47:08Z</time>
      </trkpt>
      <trkpt lat="42.25706" lon="-0.33186">
        <ele>1020.28</ele>
        <time>2026-01-11T08:47:09Z</time>
      </trkpt>
      <trkpt lat="42.25714" lon="-0.33188">
        <ele>1022.54</ele>
        <time>2026-01-11T08:47:13Z</time>
      </trkpt>
      <trkpt lat="42.25721" lon="-0.33197">
        <ele>1023.98</ele>
        <time>2026-01-11T08:47:23Z</time>
      </trkpt>
      <trkpt lat="42.2573" lon="-0.33201">
        <ele>1027.1</ele>
        <time>2026-01-11T08:47:37Z</time>
      </trkpt>
      <trkpt lat="42.25737" lon="-0.33201">
        <ele>1027.37</ele>
        <time>2026-01-11T08:47:38Z</time>
      </trkpt>
      <trkpt lat="42.25742" lon="-0.33191">
        <ele>1030.76</ele>
        <time>2026-01-11T08:47:52Z</time>
      </trkpt>
      <trkpt lat="42.25747" lon="-0.33177">
        <ele>1032.83</ele>
        <time>2026-01-11T08:47:59Z</time>
      </trkpt>
      <trkpt lat="42.25755" lon="-0.33177">
        <ele>1036</ele>
        <time>2026-01-11T08:48:09Z</time>
      </trkpt>
      <trkpt lat="42.25765" lon="-0.33158">
        <ele>1049.65</ele>
        <time>2026-01-11T08:48:58Z</time>
      </trkpt>
      <trkpt lat="42.25771" lon="-0.33162">
        <ele>1052.45</ele>
        <time>2026-01-11T08:49:10Z</time>
      </trkpt>
      <trkpt lat="42.25776" lon="-0.33166">
        <ele>1053.9</ele>
        <time>2026-01-11T08:49:15Z</time>
      </trkpt>
      <trkpt lat="42.25782" lon="-0.33166">
        <ele>1057.68</ele>
        <time>2026-01-11T08:50:01Z</time>
      </trkpt>
      <trkpt lat="42.25784" lon="-0.33164">
        <ele>1058.66</ele>
        <time>2026-01-11T08:50:04Z</time>
      </trkpt>
      <trkpt lat="42.25786" lon="-0.33164">
        <ele>1058.86</ele>
        <time>2026-01-11T08:50:06Z</time>
      </trkpt>
      <trkpt lat="42.25793" lon="-0.33163">
        <ele>1060.69</ele>
        <time>2026-01-11T08:50:13Z</time>
      </trkpt>
      <trkpt lat="42.25805" lon="-0.33163">
        <ele>1064.33</ele>
        <time>2026-01-11T08:50:24Z</time>
      </trkpt>
      <trkpt lat="42.25814" lon="-0.33164">
        <ele>1084.79</ele>
        <time>2026-01-11T08:52:57Z</time>
      </trkpt>
      <trkpt lat="42.25822" lon="-0.33163">
        <ele>1084.82</ele>
        <time>2026-01-11T08:52:59Z</time>
      </trkpt>
      <trkpt lat="42.25829" lon="-0.33161">
        <ele>1087.96</ele>
        <time>2026-01-11T08:53:12Z</time>
      </trkpt>
      <trkpt lat="42.25833" lon="-0.3316">
        <ele>1091.12</ele>
        <time>2026-01-11T08:53:26Z</time>
      </trkpt>
      <trkpt lat="42.25832" lon="-0.33149">
        <ele>1091.82</ele>
        <time>2026-01-11T08:53:28Z</time>
      </trkpt>
      <trkpt lat="42.25836" lon="-0.33142">
        <ele>1093.18</ele>
        <time>2026-01-11T08:53:36Z</time>
      </trkpt>
      <trkpt lat="42.2584" lon="-0.33135">
        <ele>1096.75</ele>
        <time>2026-01-11T08:53:48Z</time>
      </trkpt>
      <trkpt lat="42.25841" lon="-0.33128">
        <ele>1098.22</ele>
        <time>2026-01-11T08:54:08Z</time>
      </trkpt>
      <trkpt lat="42.25846" lon="-0.33127">
        <ele>1102.32</ele>
        <time>2026-01-11T08:54:58Z</time>
      </trkpt>
      <trkpt lat="42.25853" lon="-0.33131">
        <ele>1105.25</ele>
        <time>2026-01-11T08:55:14Z</time>
      </trkpt>
      <trkpt lat="42.25858" lon="-0.33133">
        <ele>1108.53</ele>
        <time>2026-01-11T08:55:26Z</time>
      </trkpt>
      <trkpt lat="42.25857" lon="-0.33133">
        <ele>1109.18</ele>
        <time>2026-01-11T08:55:28Z</time>
      </trkpt>
      <trkpt lat="42.25856" lon="-0.33125">
        <ele>1111.13</ele>
        <time>2026-01-11T08:55:38Z</time>
      </trkpt>
      <trkpt lat="42.25865" lon="-0.33113">
        <ele>1114.81</ele>
        <time>2026-01-11T08:55:56Z</time>
      </trkpt>
      <trkpt lat="42.2587" lon="-0.33116">
        <ele>1117.97</ele>
        <time>2026-01-11T08:56:09Z</time>
      </trkpt>
      <trkpt lat="42.25871" lon="-0.33106">
        <ele>1121.35</ele>
        <time>2026-01-11T08:56:22Z</time>
      </trkpt>
      <trkpt lat="42.25878" lon="-0.33099">
        <ele>1123.48</ele>
        <time>2026-01-11T08:56:38Z</time>
      </trkpt>
      <trkpt lat="42.25883" lon="-0.33102">
        <ele>1126.62</ele>
        <time>2026-01-11T08:56:46Z</time>
      </trkpt>
      <trkpt lat="42.25891" lon="-0.33101">
        <ele>1130.34</ele>
        <time>2026-01-11T08:57:03Z</time>
      </trkpt>
      <trkpt lat="42.25899" lon="-0.33099">
        <ele>1133.39</ele>
        <time>2026-01-11T08:57:21Z</time>
      </trkpt>
      <trkpt lat="42.25901" lon="-0.33098">
        <ele>1140.4</ele>
        <time>2026-01-11T08:57:57Z</time>
      </trkpt>
      <trkpt lat="42.25907" lon="-0.331">
        <ele>1142.96</ele>
        <time>2026-01-11T08:58:10Z</time>
      </trkpt>
      <trkpt lat="42.25911" lon="-0.33091">
        <ele>1146.17</ele>
        <time>2026-01-11T08:58:25Z</time>
      </trkpt>
      <trkpt lat="42.25917" lon="-0.33093">
        <ele>1149.46</ele>
        <time>2026-01-11T08:58:41Z</time>
      </trkpt>
      <trkpt lat="42.25922" lon="-0.33089">
        <ele>1150.38</ele>
        <time>2026-01-11T08:58:44Z</time>
      </trkpt>
      <trkpt lat="42.25927" lon="-0.33092">
        <ele>1155.25</ele>
        <time>2026-01-11T09:00:28Z</time>
      </trkpt>
      <trkpt lat="42.25935" lon="-0.33096">
        <ele>1157.4</ele>
        <time>2026-01-11T09:00:36Z</time>
      </trkpt>
      <trkpt lat="42.25941" lon="-0.33095">
        <ele>1160.48</ele>
        <time>2026-01-11T09:00:46Z</time>
      </trkpt>
      <trkpt lat="42.25946" lon="-0.33093">
        <ele>1159.83</ele>
        <time>2026-01-11T09:00:49Z</time>
      </trkpt>
      <trkpt lat="42.25949" lon="-0.33091">
        <ele>1161.05</ele>
        <time>2026-01-11T09:00:52Z</time>
      </trkpt>
      <trkpt lat="42.25952" lon="-0.33086">
        <ele>1164.1</ele>
        <time>2026-01-11T09:01:06Z</time>
      </trkpt>
      <trkpt lat="42.25957" lon="-0.33083">
        <ele>1167.48</ele>
        <time>2026-01-11T09:01:22Z</time>
      </trkpt>
      <trkpt lat="42.25961" lon="-0.33079">
        <ele>1167.58</ele>
        <time>2026-01-11T09:01:25Z</time>
      </trkpt>
      <trkpt lat="42.25964" lon="-0.3308">
        <ele>1168.86</ele>
        <time>2026-01-11T09:01:28Z</time>
      </trkpt>
      <trkpt lat="42.25965" lon="-0.33079">
        <ele>1171.99</ele>
        <time>2026-01-11T09:01:44Z</time>
      </trkpt>
      <trkpt lat="42.25968" lon="-0.3308">
        <ele>1175.04</ele>
        <time>2026-01-11T09:01:59Z</time>
      </trkpt>
      <trkpt lat="42.25971" lon="-0.33079">
        <ele>1178.18</ele>
        <time>2026-01-11T09:02:06Z</time>
      </trkpt>
      <trkpt lat="42.25976" lon="-0.33082">
        <ele>1181.46</ele>
        <time>2026-01-11T09:02:24Z</time>
      </trkpt>
      <trkpt lat="42.2598" lon="-0.33083">
        <ele>1183.72</ele>
        <time>2026-01-11T09:02:33Z</time>
      </trkpt>
      <trkpt lat="42.25982" lon="-0.33086">
        <ele>1185.7</ele>
        <time>2026-01-11T09:02:44Z</time>
      </trkpt>
      <trkpt lat="42.25983" lon="-0.33089">
        <ele>1187.62</ele>
        <time>2026-01-11T09:02:54Z</time>
      </trkpt>
      <trkpt lat="42.25983" lon="-0.33092">
        <ele>1188.38</ele>
        <time>2026-01-11T09:02:58Z</time>
      </trkpt>
      <trkpt lat="42.25988" lon="-0.33094">
        <ele>1190.7</ele>
        <time>2026-01-11T09:03:08Z</time>
      </trkpt>
      <trkpt lat="42.25987" lon="-0.33114">
        <ele>1190.43</ele>
        <time>2026-01-11T09:03:21Z</time>
      </trkpt>
      <trkpt lat="42.25985" lon="-0.33117">
        <ele>1191.63</ele>
        <time>2026-01-11T09:03:26Z</time>
      </trkpt>
      <trkpt lat="42.25981" lon="-0.33133">
        <ele>1189.86</ele>
        <time>2026-01-11T09:03:40Z</time>
      </trkpt>
      <trkpt lat="42.25979" lon="-0.33134">
        <ele>1190.06</ele>
        <time>2026-01-11T09:03:41Z</time>
      </trkpt>
      <trkpt lat="42.25974" lon="-0.33137">
        <ele>1187.81</ele>
        <time>2026-01-11T09:03:46Z</time>
      </trkpt>
      <trkpt lat="42.25969" lon="-0.33139">
        <ele>1186.44</ele>
        <time>2026-01-11T09:03:49Z</time>
      </trkpt>
      <trkpt lat="42.25965" lon="-0.33141">
        <ele>1185.71</ele>
        <time>2026-01-11T09:03:52Z</time>
      </trkpt>
      <trkpt lat="42.25948" lon="-0.3314">
        <ele>1185.83</ele>
        <time>2026-01-11T09:04:07Z</time>
      </trkpt>
      <trkpt lat="42.25948" lon="-0.33141">
        <ele>1185.82</ele>
        <time>2026-01-11T09:04:09Z</time>
      </trkpt>
      <trkpt lat="42.25947" lon="-0.33144">
        <ele>1182.99</ele>
        <time>2026-01-11T09:04:16Z</time>
      </trkpt>
      <trkpt lat="42.25948" lon="-0.33143">
        <ele>1184.78</ele>
        <time>2026-01-11T09:04:23Z</time>
      </trkpt>
      <trkpt lat="42.25948" lon="-0.33141">
        <ele>1185.04</ele>
        <time>2026-01-11T09:04:25Z</time>
      </trkpt>
      <trkpt lat="42.2595" lon="-0.3314">
        <ele>1184.16</ele>
        <time>2026-01-11T09:04:39Z</time>
      </trkpt>
      <trkpt lat="42.25954" lon="-0.33139">
        <ele>1184.86</ele>
        <time>2026-01-11T09:04:55Z</time>
      </trkpt>
      <trkpt lat="42.25957" lon="-0.33139">
        <ele>1184.57</ele>
        <time>2026-01-11T09:04:57Z</time>
      </trkpt>
      <trkpt lat="42.25963" lon="-0.33136">
        <ele>1185.04</ele>
        <time>2026-01-11T09:05:02Z</time>
      </trkpt>
      <trkpt lat="42.2597" lon="-0.33137">
        <ele>1187.07</ele>
        <time>2026-01-11T09:05:09Z</time>
      </trkpt>
      <trkpt lat="42.25978" lon="-0.3313">
        <ele>1189.91</ele>
        <time>2026-01-11T09:05:22Z</time>
      </trkpt>
      <trkpt lat="42.25986" lon="-0.33118">
        <ele>1189.59</ele>
        <time>2026-01-11T09:05:38Z</time>
      </trkpt>
      <trkpt lat="42.25986" lon="-0.33111">
        <ele>1188.31</ele>
        <time>2026-01-11T09:05:42Z</time>
      </trkpt>
      <trkpt lat="42.25986" lon="-0.33098">
        <ele>1186.89</ele>
        <time>2026-01-11T09:05:59Z</time>
      </trkpt>
      <trkpt lat="42.25984" lon="-0.331">
        <ele>1188</ele>
        <time>2026-01-11T09:06:20Z</time>
      </trkpt>
      <trkpt lat="42.25986" lon="-0.33109">
        <ele>1188.48</ele>
        <time>2026-01-11T09:06:39Z</time>
      </trkpt>
      <trkpt lat="42.25987" lon="-0.33096">
        <ele>1186.59</ele>
        <time>2026-01-11T09:06:57Z</time>
      </trkpt>
      <trkpt lat="42.25987" lon="-0.33095">
        <ele>1187.44</ele>
        <time>2026-01-11T09:07:24Z</time>
      </trkpt>
      <trkpt lat="42.2599" lon="-0.33096">
        <ele>1188.68</ele>
        <time>2026-01-11T09:07:37Z</time>
      </trkpt>
      <trkpt lat="42.25992" lon="-0.33091">
        <ele>1190.45</ele>
        <time>2026-01-11T09:07:47Z</time>
      </trkpt>
      <trkpt lat="42.25995" lon="-0.33088">
        <ele>1189.9</ele>
        <time>2026-01-11T09:07:54Z</time>
      </trkpt>
      <trkpt lat="42.26002" lon="-0.33088">
        <ele>1194.38</ele>
        <time>2026-01-11T09:08:14Z</time>
      </trkpt>
      <trkpt lat="42.26004" lon="-0.33088">
        <ele>1195.97</ele>
        <time>2026-01-11T09:08:31Z</time>
      </trkpt>
      <trkpt lat="42.26003" lon="-0.33081">
        <ele>1192.88</ele>
        <time>2026-01-11T09:08:55Z</time>
      </trkpt>
      <trkpt lat="42.25998" lon="-0.33077">
        <ele>1189.78</ele>
        <time>2026-01-11T09:09:16Z</time>
      </trkpt>
      <trkpt lat="42.25992" lon="-0.33077">
        <ele>1188.92</ele>
        <time>2026-01-11T09:09:47Z</time>
      </trkpt>
      <trkpt lat="42.25997" lon="-0.33072">
        <ele>1190.7</ele>
        <time>2026-01-11T09:10:06Z</time>
      </trkpt>
      <trkpt lat="42.25998" lon="-0.33071">
        <ele>1191.74</ele>
        <time>2026-01-11T09:10:09Z</time>
      </trkpt>
      <trkpt lat="42.26005" lon="-0.33063">
        <ele>1193.37</ele>
        <time>2026-01-11T09:10:23Z</time>
      </trkpt>
      <trkpt lat="42.26007" lon="-0.33056">
        <ele>1195.4</ele>
        <time>2026-01-11T09:10:41Z</time>
      </trkpt>
      <trkpt lat="42.2601" lon="-0.33052">
        <ele>1198.58</ele>
        <time>2026-01-11T09:11:01Z</time>
      </trkpt>
      <trkpt lat="42.2601" lon="-0.33052">
        <ele>1198.2</ele>
        <time>2026-01-11T09:11:02Z</time>
      </trkpt>
      <trkpt lat="42.26006" lon="-0.33045">
        <ele>1200.96</ele>
        <time>2026-01-11T09:11:14Z</time>
      </trkpt>
      <trkpt lat="42.26007" lon="-0.33035">
        <ele>1203.78</ele>
        <time>2026-01-11T09:11:33Z</time>
      </trkpt>
      <trkpt lat="42.26006" lon="-0.33033">
        <ele>1205.2</ele>
        <time>2026-01-11T09:11:39Z</time>
      </trkpt>
      <trkpt lat="42.26" lon="-0.33026">
        <ele>1207.13</ele>
        <time>2026-01-11T09:12:00Z</time>
      </trkpt>
      <trkpt lat="42.26003" lon="-0.33028">
        <ele>1206.56</ele>
        <time>2026-01-11T09:12:17Z</time>
      </trkpt>
      <trkpt lat="42.26007" lon="-0.33031">
        <ele>1206.1</ele>
        <time>2026-01-11T09:12:28Z</time>
      </trkpt>
      <trkpt lat="42.26001" lon="-0.33024">
        <ele>1208</ele>
        <time>2026-01-11T09:12:46Z</time>
      </trkpt>
      <trkpt lat="42.25999" lon="-0.33017">
        <ele>1211.06</ele>
        <time>2026-01-11T09:13:07Z</time>
      </trkpt>
      <trkpt lat="42.26" lon="-0.33013">
        <ele>1211.69</ele>
        <time>2026-01-11T09:13:29Z</time>
      </trkpt>
      <trkpt lat="42.26002" lon="-0.3301">
        <ele>1214.79</ele>
        <time>2026-01-11T09:13:48Z</time>
      </trkpt>
      <trkpt lat="42.26005" lon="-0.33004">
        <ele>1217.88</ele>
        <time>2026-01-11T09:14:07Z</time>
      </trkpt>
      <trkpt lat="42.26007" lon="-0.33002">
        <ele>1220.3</ele>
        <time>2026-01-11T09:14:26Z</time>
      </trkpt>
      <trkpt lat="42.26013" lon="-0.32999">
        <ele>1223.13</ele>
        <time>2026-01-11T09:14:47Z</time>
      </trkpt>
      <trkpt lat="42.26017" lon="-0.32996">
        <ele>1226.69</ele>
        <time>2026-01-11T09:14:59Z</time>
      </trkpt>
      <trkpt lat="42.26018" lon="-0.32996">
        <ele>1225.37</ele>
        <time>2026-01-11T09:15:02Z</time>
      </trkpt>
      <trkpt lat="42.26023" lon="-0.32994">
        <ele>1228.66</ele>
        <time>2026-01-11T09:15:22Z</time>
      </trkpt>
      <trkpt lat="42.26026" lon="-0.32991">
        <ele>1231.73</ele>
        <time>2026-01-11T09:15:38Z</time>
      </trkpt>
      <trkpt lat="42.2603" lon="-0.32988">
        <ele>1235.16</ele>
        <time>2026-01-11T09:15:56Z</time>
      </trkpt>
      <trkpt lat="42.26033" lon="-0.32985">
        <ele>1238.86</ele>
        <time>2026-01-11T09:16:14Z</time>
      </trkpt>
      <trkpt lat="42.26034" lon="-0.32986">
        <ele>1238.36</ele>
        <time>2026-01-11T09:16:37Z</time>
      </trkpt>
      <trkpt lat="42.26034" lon="-0.32986">
        <ele>1238.26</ele>
        <time>2026-01-11T09:16:42Z</time>
      </trkpt>
      <trkpt lat="42.26035" lon="-0.32984">
        <ele>1240.23</ele>
        <time>2026-01-11T09:17:07Z</time>
      </trkpt>
      <trkpt lat="42.26039" lon="-0.32977">
        <ele>1243.47</ele>
        <time>2026-01-11T09:17:25Z</time>
      </trkpt>
      <trkpt lat="42.26043" lon="-0.32973">
        <ele>1246.8</ele>
        <time>2026-01-11T09:17:39Z</time>
      </trkpt>
      <trkpt lat="42.26044" lon="-0.32972">
        <ele>1248</ele>
        <time>2026-01-11T09:17:57Z</time>
      </trkpt>
      <trkpt lat="42.26046" lon="-0.3297">
        <ele>1248.09</ele>
        <time>2026-01-11T09:18:19Z</time>
      </trkpt>
      <trkpt lat="42.26049" lon="-0.32965">
        <ele>1251.74</ele>
        <time>2026-01-11T09:18:32Z</time>
      </trkpt>
      <trkpt lat="42.26054" lon="-0.32963">
        <ele>1254.62</ele>
        <time>2026-01-11T09:18:53Z</time>
      </trkpt>
      <trkpt lat="42.26056" lon="-0.32959">
        <ele>1257.74</ele>
        <time>2026-01-11T09:19:09Z</time>
      </trkpt>
      <trkpt lat="42.26059" lon="-0.32952">
        <ele>1259.42</ele>
        <time>2026-01-11T09:19:28Z</time>
      </trkpt>
      <trkpt lat="42.26058" lon="-0.32951">
        <ele>1260.79</ele>
        <time>2026-01-11T09:19:31Z</time>
      </trkpt>
      <trkpt lat="42.26058" lon="-0.32945">
        <ele>1263.17</ele>
        <time>2026-01-11T09:19:53Z</time>
      </trkpt>
      <trkpt lat="42.26055" lon="-0.32944">
        <ele>1266.71</ele>
        <time>2026-01-11T09:20:02Z</time>
      </trkpt>
      <trkpt lat="42.26051" lon="-0.32942">
        <ele>1268.82</ele>
        <time>2026-01-11T09:20:21Z</time>
      </trkpt>
      <trkpt lat="42.26047" lon="-0.32942">
        <ele>1270.7</ele>
        <time>2026-01-11T09:20:43Z</time>
      </trkpt>
      <trkpt lat="42.26048" lon="-0.32937">
        <ele>1271.45</ele>
        <time>2026-01-11T09:21:06Z</time>
      </trkpt>
      <trkpt lat="42.26052" lon="-0.32936">
        <ele>1273.82</ele>
        <time>2026-01-11T09:21:33Z</time>
      </trkpt>
      <trkpt lat="42.26053" lon="-0.32935">
        <ele>1276.39</ele>
        <time>2026-01-11T09:21:57Z</time>
      </trkpt>
      <trkpt lat="42.26054" lon="-0.32931">
        <ele>1278.69</ele>
        <time>2026-01-11T09:22:10Z</time>
      </trkpt>
      <trkpt lat="42.26051" lon="-0.32929">
        <ele>1279.42</ele>
        <time>2026-01-11T09:22:37Z</time>
      </trkpt>
      <trkpt lat="42.26049" lon="-0.32924">
        <ele>1282.45</ele>
        <time>2026-01-11T09:22:55Z</time>
      </trkpt>
      <trkpt lat="42.26053" lon="-0.32921">
        <ele>1285.01</ele>
        <time>2026-01-11T09:23:16Z</time>
      </trkpt>
      <trkpt lat="42.26056" lon="-0.3292">
        <ele>1285.46</ele>
        <time>2026-01-11T09:23:35Z</time>
      </trkpt>
      <trkpt lat="42.26057" lon="-0.3292">
        <ele>1288.11</ele>
        <time>2026-01-11T09:23:54Z</time>
      </trkpt>
      <trkpt lat="42.26058" lon="-0.32918">
        <ele>1288.47</ele>
        <time>2026-01-11T09:24:03Z</time>
      </trkpt>
      <trkpt lat="42.2606" lon="-0.32918">
        <ele>1289.68</ele>
        <time>2026-01-11T09:24:28Z</time>
      </trkpt>
      <trkpt lat="42.26062" lon="-0.32922">
        <ele>1292.17</ele>
        <time>2026-01-11T09:24:50Z</time>
      </trkpt>
      <trkpt lat="42.26062" lon="-0.32917">
        <ele>1295.53</ele>
        <time>2026-01-11T09:25:03Z</time>
      </trkpt>
      <trkpt lat="42.26064" lon="-0.32916">
        <ele>1295.64</ele>
        <time>2026-01-11T09:25:21Z</time>
      </trkpt>
      <trkpt lat="42.26064" lon="-0.32914">
        <ele>1296.93</ele>
        <time>2026-01-11T09:25:44Z</time>
      </trkpt>
      <trkpt lat="42.26066" lon="-0.32912">
        <ele>1300.47</ele>
        <time>2026-01-11T09:25:52Z</time>
      </trkpt>
      <trkpt lat="42.26066" lon="-0.32906">
        <ele>1302.37</ele>
        <time>2026-01-11T09:26:11Z</time>
      </trkpt>
      <trkpt lat="42.26068" lon="-0.32902">
        <ele>1305.55</ele>
        <time>2026-01-11T09:26:27Z</time>
      </trkpt>
      <trkpt lat="42.26068" lon="-0.32901">
        <ele>1307.02</ele>
        <time>2026-01-11T09:26:48Z</time>
      </trkpt>
      <trkpt lat="42.2607" lon="-0.32897">
        <ele>1309.21</ele>
        <time>2026-01-11T09:26:56Z</time>
      </trkpt>
      <trkpt lat="42.26074" lon="-0.32891">
        <ele>1311.84</ele>
        <time>2026-01-11T09:27:18Z</time>
      </trkpt>
      <trkpt lat="42.26072" lon="-0.32893">
        <ele>1313.09</ele>
        <time>2026-01-11T09:27:42Z</time>
      </trkpt>
      <trkpt lat="42.26077" lon="-0.32886">
        <ele>1314.45</ele>
        <time>2026-01-11T09:27:59Z</time>
      </trkpt>
      <trkpt lat="42.26078" lon="-0.32883">
        <ele>1318.1</ele>
        <time>2026-01-11T09:28:13Z</time>
      </trkpt>
      <trkpt lat="42.26078" lon="-0.32882">
        <ele>1318.26</ele>
        <time>2026-01-11T09:28:14Z</time>
      </trkpt>
      <trkpt lat="42.26077" lon="-0.3288">
        <ele>1319.6</ele>
        <time>2026-01-11T09:28:26Z</time>
      </trkpt>
      <trkpt lat="42.26074" lon="-0.32877">
        <ele>1318.91</ele>
        <time>2026-01-11T09:28:30Z</time>
      </trkpt>
      <trkpt lat="42.2607" lon="-0.32873">
        <ele>1319.3</ele>
        <time>2026-01-11T09:28:35Z</time>
      </trkpt>
      <trkpt lat="42.26059" lon="-0.32865">
        <ele>1322.93</ele>
        <time>2026-01-11T09:28:53Z</time>
      </trkpt>
      <trkpt lat="42.26057" lon="-0.3286">
        <ele>1318.72</ele>
        <time>2026-01-11T09:29:10Z</time>
      </trkpt>
      <trkpt lat="42.26057" lon="-0.32859">
        <ele>1325.14</ele>
        <time>2026-01-11T09:29:11Z</time>
      </trkpt>
      <trkpt lat="42.26055" lon="-0.32855">
        <ele>1325.64</ele>
        <time>2026-01-11T09:29:32Z</time>
      </trkpt>
      <trkpt lat="42.26053" lon="-0.32854">
        <ele>1325.28</ele>
        <time>2026-01-11T09:29:52Z</time>
      </trkpt>
      <trkpt lat="42.26052" lon="-0.32853">
        <ele>1325.26</ele>
        <time>2026-01-11T09:30:09Z</time>
      </trkpt>
      <trkpt lat="42.26053" lon="-0.32846">
        <ele>1328.3</ele>
        <time>2026-01-11T09:30:29Z</time>
      </trkpt>
      <trkpt lat="42.26053" lon="-0.32843">
        <ele>1331.74</ele>
        <time>2026-01-11T09:30:43Z</time>
      </trkpt>
      <trkpt lat="42.26047" lon="-0.32832">
        <ele>1334.12</ele>
        <time>2026-01-11T09:31:05Z</time>
      </trkpt>
      <trkpt lat="42.26044" lon="-0.32827">
        <ele>1334.49</ele>
        <time>2026-01-11T09:31:24Z</time>
      </trkpt>
      <trkpt lat="42.26038" lon="-0.32824">
        <ele>1335.6</ele>
        <time>2026-01-11T09:31:47Z</time>
      </trkpt>
      <trkpt lat="42.26039" lon="-0.32818">
        <ele>1338.76</ele>
        <time>2026-01-11T09:32:03Z</time>
      </trkpt>
      <trkpt lat="42.26038" lon="-0.32815">
        <ele>1341.38</ele>
        <time>2026-01-11T09:32:25Z</time>
      </trkpt>
      <trkpt lat="42.26036" lon="-0.32814">
        <ele>1342.14</ele>
        <time>2026-01-11T09:32:46Z</time>
      </trkpt>
      <trkpt lat="42.26035" lon="-0.32809">
        <ele>1344.85</ele>
        <time>2026-01-11T09:33:07Z</time>
      </trkpt>
      <trkpt lat="42.26032" lon="-0.32806">
        <ele>1346.88</ele>
        <time>2026-01-11T09:33:27Z</time>
      </trkpt>
      <trkpt lat="42.26032" lon="-0.32805">
        <ele>1345.6</ele>
        <time>2026-01-11T09:33:29Z</time>
      </trkpt>
      <trkpt lat="42.26028" lon="-0.32802">
        <ele>1348.15</ele>
        <time>2026-01-11T09:33:58Z</time>
      </trkpt>
      <trkpt lat="42.26022" lon="-0.32798">
        <ele>1347.66</ele>
        <time>2026-01-11T09:34:17Z</time>
      </trkpt>
      <trkpt lat="42.26018" lon="-0.32791">
        <ele>1350.41</ele>
        <time>2026-01-11T09:34:35Z</time>
      </trkpt>
      <trkpt lat="42.26022" lon="-0.32785">
        <ele>1353.68</ele>
        <time>2026-01-11T09:34:46Z</time>
      </trkpt>
      <trkpt lat="42.26022" lon="-0.32785">
        <ele>1353.93</ele>
        <time>2026-01-11T09:34:47Z</time>
      </trkpt>
      <trkpt lat="42.26024" lon="-0.32779">
        <ele>1356.55</ele>
        <time>2026-01-11T09:35:06Z</time>
      </trkpt>
      <trkpt lat="42.26025" lon="-0.32778">
        <ele>1358.22</ele>
        <time>2026-01-11T09:35:11Z</time>
      </trkpt>
      <trkpt lat="42.26027" lon="-0.32777">
        <ele>1358.89</ele>
        <time>2026-01-11T09:35:30Z</time>
      </trkpt>
      <trkpt lat="42.26026" lon="-0.32778">
        <ele>1359.03</ele>
        <time>2026-01-11T09:35:54Z</time>
      </trkpt>
      <trkpt lat="42.26024" lon="-0.32779">
        <ele>1355.9</ele>
        <time>2026-01-11T09:36:07Z</time>
      </trkpt>
      <trkpt lat="42.26018" lon="-0.32777">
        <ele>1355.7</ele>
        <time>2026-01-11T09:36:25Z</time>
      </trkpt>
      <trkpt lat="42.26021" lon="-0.32775">
        <ele>1357.35</ele>
        <time>2026-01-11T09:36:47Z</time>
      </trkpt>
      <trkpt lat="42.26019" lon="-0.32771">
        <ele>1357.43</ele>
        <time>2026-01-11T09:37:02Z</time>
      </trkpt>
      <trkpt lat="42.26012" lon="-0.32769">
        <ele>1355.79</ele>
        <time>2026-01-11T09:37:22Z</time>
      </trkpt>
      <trkpt lat="42.26006" lon="-0.32767">
        <ele>1357.42</ele>
        <time>2026-01-11T09:37:43Z</time>
      </trkpt>
      <trkpt lat="42.26008" lon="-0.32763">
        <ele>1357.56</ele>
        <time>2026-01-11T09:37:59Z</time>
      </trkpt>
      <trkpt lat="42.26009" lon="-0.32761">
        <ele>1359.15</ele>
        <time>2026-01-11T09:38:04Z</time>
      </trkpt>
      <trkpt lat="42.26013" lon="-0.3276">
        <ele>1361.52</ele>
        <time>2026-01-11T09:38:24Z</time>
      </trkpt>
      <trkpt lat="42.26019" lon="-0.32762">
        <ele>1364.61</ele>
        <time>2026-01-11T09:38:41Z</time>
      </trkpt>
      <trkpt lat="42.26027" lon="-0.32759">
        <ele>1367.43</ele>
        <time>2026-01-11T09:39:01Z</time>
      </trkpt>
      <trkpt lat="42.26031" lon="-0.32759">
        <ele>1368.85</ele>
        <time>2026-01-11T09:39:25Z</time>
      </trkpt>
      <trkpt lat="42.26031" lon="-0.32755">
        <ele>1370.04</ele>
        <time>2026-01-11T09:39:36Z</time>
      </trkpt>
      <trkpt lat="42.26032" lon="-0.32753">
        <ele>1373.18</ele>
        <time>2026-01-11T09:39:49Z</time>
      </trkpt>
      <trkpt lat="42.26031" lon="-0.32749">
        <ele>1374.08</ele>
        <time>2026-01-11T09:40:06Z</time>
      </trkpt>
      <trkpt lat="42.26034" lon="-0.32748">
        <ele>1374.98</ele>
        <time>2026-01-11T09:40:22Z</time>
      </trkpt>
      <trkpt lat="42.26032" lon="-0.32744">
        <ele>1376.99</ele>
        <time>2026-01-11T09:40:41Z</time>
      </trkpt>
      <trkpt lat="42.26029" lon="-0.32741">
        <ele>1376.81</ele>
        <time>2026-01-11T09:41:02Z</time>
      </trkpt>
      <trkpt lat="42.26025" lon="-0.32741">
        <ele>1375.74</ele>
        <time>2026-01-11T09:41:24Z</time>
      </trkpt>
      <trkpt lat="42.26024" lon="-0.32739">
        <ele>1376.53</ele>
        <time>2026-01-11T09:41:45Z</time>
      </trkpt>
      <trkpt lat="42.26025" lon="-0.32736">
        <ele>1377.75</ele>
        <time>2026-01-11T09:41:51Z</time>
      </trkpt>
      <trkpt lat="42.26028" lon="-0.3273">
        <ele>1381.44</ele>
        <time>2026-01-11T09:42:06Z</time>
      </trkpt>
      <trkpt lat="42.26028" lon="-0.32725">
        <ele>1385.1</ele>
        <time>2026-01-11T09:42:20Z</time>
      </trkpt>
      <trkpt lat="42.26032" lon="-0.32719">
        <ele>1387.56</ele>
        <time>2026-01-11T09:42:42Z</time>
      </trkpt>
      <trkpt lat="42.26031" lon="-0.32715">
        <ele>1390.68</ele>
        <time>2026-01-11T09:42:55Z</time>
      </trkpt>
      <trkpt lat="42.2603" lon="-0.32711">
        <ele>1391.27</ele>
        <time>2026-01-11T09:43:14Z</time>
      </trkpt>
      <trkpt lat="42.26025" lon="-0.32709">
        <ele>1389.05</ele>
        <time>2026-01-11T09:43:36Z</time>
      </trkpt>
      <trkpt lat="42.26022" lon="-0.32708">
        <ele>1388.74</ele>
        <time>2026-01-11T09:43:51Z</time>
      </trkpt>
      <trkpt lat="42.26027" lon="-0.32707">
        <ele>1391.13</ele>
        <time>2026-01-11T09:44:06Z</time>
      </trkpt>
      <trkpt lat="42.26029" lon="-0.32707">
        <ele>1391.3</ele>
        <time>2026-01-11T09:44:24Z</time>
      </trkpt>
      <trkpt lat="42.2603" lon="-0.32705">
        <ele>1392.32</ele>
        <time>2026-01-11T09:44:55Z</time>
      </trkpt>
      <trkpt lat="42.26032" lon="-0.32701">
        <ele>1395.59</ele>
        <time>2026-01-11T09:45:06Z</time>
      </trkpt>
      <trkpt lat="42.26036" lon="-0.32696">
        <ele>1398.7</ele>
        <time>2026-01-11T09:45:17Z</time>
      </trkpt>
      <trkpt lat="42.26036" lon="-0.32688">
        <ele>1399.88</ele>
        <time>2026-01-11T09:45:34Z</time>
      </trkpt>
      <trkpt lat="42.26034" lon="-0.32677">
        <ele>1403.06</ele>
        <time>2026-01-11T09:45:47Z</time>
      </trkpt>
      <trkpt lat="42.26035" lon="-0.32672">
        <ele>1404.84</ele>
        <time>2026-01-11T09:45:55Z</time>
      </trkpt>
      <trkpt lat="42.26036" lon="-0.32665">
        <ele>1405.54</ele>
        <time>2026-01-11T09:46:14Z</time>
      </trkpt>
      <trkpt lat="42.26032" lon="-0.3266">
        <ele>1405.27</ele>
        <time>2026-01-11T09:46:33Z</time>
      </trkpt>
      <trkpt lat="42.26031" lon="-0.32655">
        <ele>1405.46</ele>
        <time>2026-01-11T09:46:59Z</time>
      </trkpt>
      <trkpt lat="42.26034" lon="-0.32648">
        <ele>1406.56</ele>
        <time>2026-01-11T09:47:17Z</time>
      </trkpt>
      <trkpt lat="42.26033" lon="-0.32639">
        <ele>1405.53</ele>
        <time>2026-01-11T09:47:37Z</time>
      </trkpt>
      <trkpt lat="42.26027" lon="-0.32639">
        <ele>1403.3</ele>
        <time>2026-01-11T09:47:54Z</time>
      </trkpt>
      <trkpt lat="42.26019" lon="-0.32641">
        <ele>1402.39</ele>
        <time>2026-01-11T09:48:06Z</time>
      </trkpt>
      <trkpt lat="42.26018" lon="-0.32647">
        <ele>1400.74</ele>
        <time>2026-01-11T09:48:21Z</time>
      </trkpt>
      <trkpt lat="42.26008" lon="-0.3264">
        <ele>1401.23</ele>
        <time>2026-01-11T09:48:36Z</time>
      </trkpt>
      <trkpt lat="42.26008" lon="-0.3264">
        <ele>1404.26</ele>
        <time>2026-01-11T09:48:49Z</time>
      </trkpt>
      <trkpt lat="42.26007" lon="-0.32639">
        <ele>1401.03</ele>
        <time>2026-01-11T09:48:53Z</time>
      </trkpt>
      <trkpt lat="42.26004" lon="-0.32626">
        <ele>1402.89</ele>
        <time>2026-01-11T09:49:12Z</time>
      </trkpt>
      <trkpt lat="42.26002" lon="-0.32623">
        <ele>1399.42</ele>
        <time>2026-01-11T09:49:21Z</time>
      </trkpt>
      <trkpt lat="42.26002" lon="-0.32622">
        <ele>1407</ele>
        <time>2026-01-11T09:49:22Z</time>
      </trkpt>
      <trkpt lat="42.26002" lon="-0.32622">
        <ele>1403.72</ele>
        <time>2026-01-11T09:49:23Z</time>
      </trkpt>
      <trkpt lat="42.26002" lon="-0.32619">
        <ele>1404.04</ele>
        <time>2026-01-11T09:49:43Z</time>
      </trkpt>
      <trkpt lat="42.26001" lon="-0.32614">
        <ele>1405.53</ele>
        <time>2026-01-11T09:50:03Z</time>
      </trkpt>
      <trkpt lat="42.26002" lon="-0.32608">
        <ele>1409.47</ele>
        <time>2026-01-11T09:50:18Z</time>
      </trkpt>
      <trkpt lat="42.26005" lon="-0.32606">
        <ele>1410.77</ele>
        <time>2026-01-11T09:50:25Z</time>
      </trkpt>
      <trkpt lat="42.26004" lon="-0.32603">
        <ele>1411.53</ele>
        <time>2026-01-11T09:50:44Z</time>
      </trkpt>
      <trkpt lat="42.26003" lon="-0.32603">
        <ele>1411.53</ele>
        <time>2026-01-11T09:50:59Z</time>
      </trkpt>
      <trkpt lat="42.26001" lon="-0.32599">
        <ele>1413.52</ele>
        <time>2026-01-11T09:51:16Z</time>
      </trkpt>
      <trkpt lat="42.26004" lon="-0.32594">
        <ele>1415.89</ele>
        <time>2026-01-11T09:51:33Z</time>
      </trkpt>
      <trkpt lat="42.26005" lon="-0.32587">
        <ele>1419.37</ele>
        <time>2026-01-11T09:51:42Z</time>
      </trkpt>
      <trkpt lat="42.26007" lon="-0.32586">
        <ele>1421.29</ele>
        <time>2026-01-11T09:51:47Z</time>
      </trkpt>
      <trkpt lat="42.26007" lon="-0.32584">
        <ele>1422.58</ele>
        <time>2026-01-11T09:52:06Z</time>
      </trkpt>
      <trkpt lat="42.26011" lon="-0.32581">
        <ele>1424.29</ele>
        <time>2026-01-11T09:52:14Z</time>
      </trkpt>
      <trkpt lat="42.26015" lon="-0.32573">
        <ele>1427.31</ele>
        <time>2026-01-11T09:52:28Z</time>
      </trkpt>
      <trkpt lat="42.26018" lon="-0.32571">
        <ele>1427.34</ele>
        <time>2026-01-11T09:52:49Z</time>
      </trkpt>
      <trkpt lat="42.26018" lon="-0.32569">
        <ele>1430.46</ele>
        <time>2026-01-11T09:52:56Z</time>
      </trkpt>
      <trkpt lat="42.26018" lon="-0.32564">
        <ele>1432.47</ele>
        <time>2026-01-11T09:53:19Z</time>
      </trkpt>
      <trkpt lat="42.26016" lon="-0.3256">
        <ele>1436.34</ele>
        <time>2026-01-11T09:53:30Z</time>
      </trkpt>
      <trkpt lat="42.26015" lon="-0.3256">
        <ele>1435.66</ele>
        <time>2026-01-11T09:53:31Z</time>
      </trkpt>
      <trkpt lat="42.2601" lon="-0.32553">
        <ele>1436.25</ele>
        <time>2026-01-11T09:53:50Z</time>
      </trkpt>
      <trkpt lat="42.26002" lon="-0.32542">
        <ele>1438.57</ele>
        <time>2026-01-11T09:54:11Z</time>
      </trkpt>
      <trkpt lat="42.25998" lon="-0.32537">
        <ele>1441.25</ele>
        <time>2026-01-11T09:54:30Z</time>
      </trkpt>
      <trkpt lat="42.25993" lon="-0.32535">
        <ele>1441.34</ele>
        <time>2026-01-11T09:54:40Z</time>
      </trkpt>
      <trkpt lat="42.25985" lon="-0.32527">
        <ele>1441.78</ele>
        <time>2026-01-11T09:54:56Z</time>
      </trkpt>
      <trkpt lat="42.25986" lon="-0.32521">
        <ele>1444.99</ele>
        <time>2026-01-11T09:55:06Z</time>
      </trkpt>
      <trkpt lat="42.25987" lon="-0.32518">
        <ele>1446.38</ele>
        <time>2026-01-11T09:55:11Z</time>
      </trkpt>
      <trkpt lat="42.25986" lon="-0.32513">
        <ele>1448</ele>
        <time>2026-01-11T09:55:35Z</time>
      </trkpt>
      <trkpt lat="42.25983" lon="-0.32505">
        <ele>1451.1</ele>
        <time>2026-01-11T09:55:54Z</time>
      </trkpt>
      <trkpt lat="42.25976" lon="-0.32497">
        <ele>1452.89</ele>
        <time>2026-01-11T09:56:10Z</time>
      </trkpt>
      <trkpt lat="42.25976" lon="-0.32487">
        <ele>1455.93</ele>
        <time>2026-01-11T09:56:26Z</time>
      </trkpt>
      <trkpt lat="42.25976" lon="-0.32479">
        <ele>1458.13</ele>
        <time>2026-01-11T09:56:43Z</time>
      </trkpt>
      <trkpt lat="42.25976" lon="-0.32477">
        <ele>1458.13</ele>
        <time>2026-01-11T09:56:53Z</time>
      </trkpt>
      <trkpt lat="42.25973" lon="-0.32471">
        <ele>1459.79</ele>
        <time>2026-01-11T09:57:06Z</time>
      </trkpt>
      <trkpt lat="42.25974" lon="-0.32464">
        <ele>1462.85</ele>
        <time>2026-01-11T09:57:22Z</time>
      </trkpt>
      <trkpt lat="42.25972" lon="-0.32455">
        <ele>1465.77</ele>
        <time>2026-01-11T09:57:34Z</time>
      </trkpt>
      <trkpt lat="42.25973" lon="-0.32454">
        <ele>1465.32</ele>
        <time>2026-01-11T09:57:48Z</time>
      </trkpt>
      <trkpt lat="42.25974" lon="-0.32453">
        <ele>1466.2</ele>
        <time>2026-01-11T09:57:51Z</time>
      </trkpt>
      <trkpt lat="42.25977" lon="-0.32453">
        <ele>1466.74</ele>
        <time>2026-01-11T09:57:53Z</time>
      </trkpt>
      <trkpt lat="42.25977" lon="-0.32448">
        <ele>1468.04</ele>
        <time>2026-01-11T09:57:59Z</time>
      </trkpt>
      <trkpt lat="42.2598" lon="-0.32446">
        <ele>1469.13</ele>
        <time>2026-01-11T09:58:04Z</time>
      </trkpt>
      <trkpt lat="42.25982" lon="-0.32439">
        <ele>1471.26</ele>
        <time>2026-01-11T09:58:11Z</time>
      </trkpt>
      <trkpt lat="42.25986" lon="-0.32437">
        <ele>1471.75</ele>
        <time>2026-01-11T09:58:18Z</time>
      </trkpt>
      <trkpt lat="42.25989" lon="-0.32431">
        <ele>1475.45</ele>
        <time>2026-01-11T09:58:29Z</time>
      </trkpt>
      <trkpt lat="42.25989" lon="-0.32427">
        <ele>1477.56</ele>
        <time>2026-01-11T09:58:43Z</time>
      </trkpt>
      <trkpt lat="42.25989" lon="-0.32416">
        <ele>1481.22</ele>
        <time>2026-01-11T09:58:59Z</time>
      </trkpt>
      <trkpt lat="42.25992" lon="-0.32405">
        <ele>1483.69</ele>
        <time>2026-01-11T09:59:14Z</time>
      </trkpt>
      <trkpt lat="42.25992" lon="-0.32404">
        <ele>1484.04</ele>
        <time>2026-01-11T09:59:36Z</time>
      </trkpt>
      <trkpt lat="42.25992" lon="-0.32404">
        <ele>1483.9</ele>
        <time>2026-01-11T09:59:53Z</time>
      </trkpt>
      <trkpt lat="42.25992" lon="-0.32405">
        <ele>1483.62</ele>
        <time>2026-01-11T10:00:21Z</time>
      </trkpt>
      <trkpt lat="42.25992" lon="-0.32405">
        <ele>1483.06</ele>
        <time>2026-01-11T10:00:45Z</time>
      </trkpt>
      <trkpt lat="42.25994" lon="-0.32405">
        <ele>1484.11</ele>
        <time>2026-01-11T10:01:41Z</time>
      </trkpt>
      <trkpt lat="42.25994" lon="-0.32405">
        <ele>1483.29</ele>
        <time>2026-01-11T10:02:03Z</time>
      </trkpt>
      <trkpt lat="42.25998" lon="-0.32407">
        <ele>1483.35</ele>
        <time>2026-01-11T10:02:06Z</time>
      </trkpt>
      <trkpt lat="42.26004" lon="-0.32409">
        <ele>1485.03</ele>
        <time>2026-01-11T10:02:10Z</time>
      </trkpt>
      <trkpt lat="42.2603" lon="-0.32421">
        <ele>1484.42</ele>
        <time>2026-01-11T10:02:26Z</time>
      </trkpt>
      <trkpt lat="42.26057" lon="-0.32438">
        <ele>1483.3</ele>
        <time>2026-01-11T10:02:43Z</time>
      </trkpt>
      <trkpt lat="42.26081" lon="-0.32449">
        <ele>1483.35</ele>
        <time>2026-01-11T10:02:58Z</time>
      </trkpt>
      <trkpt lat="42.26102" lon="-0.32455">
        <ele>1486.09</ele>
        <time>2026-01-11T10:03:12Z</time>
      </trkpt>
      <trkpt lat="42.26127" lon="-0.32467">
        <ele>1487.86</ele>
        <time>2026-01-11T10:03:29Z</time>
      </trkpt>
      <trkpt lat="42.26145" lon="-0.32492">
        <ele>1488.82</ele>
        <time>2026-01-11T10:03:45Z</time>
      </trkpt>
      <trkpt lat="42.26151" lon="-0.32499">
        <ele>1488.76</ele>
        <time>2026-01-11T10:03:50Z</time>
      </trkpt>
      <trkpt lat="42.26173" lon="-0.32516">
        <ele>1490.34</ele>
        <time>2026-01-11T10:04:07Z</time>
      </trkpt>
      <trkpt lat="42.26191" lon="-0.32544">
        <ele>1493.28</ele>
        <time>2026-01-11T10:04:25Z</time>
      </trkpt>
      <trkpt lat="42.26194" lon="-0.32549">
        <ele>1493.02</ele>
        <time>2026-01-11T10:04:28Z</time>
      </trkpt>
      <trkpt lat="42.26197" lon="-0.32556">
        <ele>1492.94</ele>
        <time>2026-01-11T10:04:32Z</time>
      </trkpt>
      <trkpt lat="42.26216" lon="-0.32581">
        <ele>1493.58</ele>
        <time>2026-01-11T10:04:49Z</time>
      </trkpt>
      <trkpt lat="42.26239" lon="-0.32607">
        <ele>1492.62</ele>
        <time>2026-01-11T10:05:07Z</time>
      </trkpt>
      <trkpt lat="42.26256" lon="-0.3263">
        <ele>1492.35</ele>
        <time>2026-01-11T10:05:22Z</time>
      </trkpt>
      <trkpt lat="42.26272" lon="-0.32647">
        <ele>1491.95</ele>
        <time>2026-01-11T10:05:35Z</time>
      </trkpt>
      <trkpt lat="42.26289" lon="-0.32669">
        <ele>1490.55</ele>
        <time>2026-01-11T10:05:49Z</time>
      </trkpt>
      <trkpt lat="42.26305" lon="-0.32687">
        <ele>1490.48</ele>
        <time>2026-01-11T10:06:02Z</time>
      </trkpt>
      <trkpt lat="42.26313" lon="-0.32702">
        <ele>1489.73</ele>
        <time>2026-01-11T10:06:10Z</time>
      </trkpt>
      <trkpt lat="42.2633" lon="-0.32731">
        <ele>1488.79</ele>
        <time>2026-01-11T10:06:26Z</time>
      </trkpt>
      <trkpt lat="42.26346" lon="-0.32769">
        <ele>1489.14</ele>
        <time>2026-01-11T10:06:45Z</time>
      </trkpt>
      <trkpt lat="42.26359" lon="-0.32797">
        <ele>1491.44</ele>
        <time>2026-01-11T10:07:01Z</time>
      </trkpt>
      <trkpt lat="42.26366" lon="-0.32812">
        <ele>1493.23</ele>
        <time>2026-01-11T10:07:10Z</time>
      </trkpt>
      <trkpt lat="42.26369" lon="-0.32815">
        <ele>1493.97</ele>
        <time>2026-01-11T10:07:12Z</time>
      </trkpt>
      <trkpt lat="42.2637" lon="-0.32822">
        <ele>1494.12</ele>
        <time>2026-01-11T10:07:16Z</time>
      </trkpt>
      <trkpt lat="42.26383" lon="-0.32852">
        <ele>1497.58</ele>
        <time>2026-01-11T10:07:34Z</time>
      </trkpt>
      <trkpt lat="42.26399" lon="-0.32882">
        <ele>1500.25</ele>
        <time>2026-01-11T10:07:53Z</time>
      </trkpt>
      <trkpt lat="42.264" lon="-0.32883">
        <ele>1500.41</ele>
        <time>2026-01-11T10:07:54Z</time>
      </trkpt>
      <trkpt lat="42.26403" lon="-0.3289">
        <ele>1501.55</ele>
        <time>2026-01-11T10:07:58Z</time>
      </trkpt>
      <trkpt lat="42.26408" lon="-0.32898">
        <ele>1500.97</ele>
        <time>2026-01-11T10:08:04Z</time>
      </trkpt>
      <trkpt lat="42.26412" lon="-0.32903">
        <ele>1503.19</ele>
        <time>2026-01-11T10:08:08Z</time>
      </trkpt>
      <trkpt lat="42.26428" lon="-0.32919">
        <ele>1506.22</ele>
        <time>2026-01-11T10:08:23Z</time>
      </trkpt>
      <trkpt lat="42.2644" lon="-0.32935">
        <ele>1509.28</ele>
        <time>2026-01-11T10:08:36Z</time>
      </trkpt>
      <trkpt lat="42.26462" lon="-0.32955">
        <ele>1511.43</ele>
        <time>2026-01-11T10:08:54Z</time>
      </trkpt>
      <trkpt lat="42.26476" lon="-0.32969">
        <ele>1514.43</ele>
        <time>2026-01-11T10:09:08Z</time>
      </trkpt>
      <trkpt lat="42.2648" lon="-0.3298">
        <ele>1515.94</ele>
        <time>2026-01-11T10:09:16Z</time>
      </trkpt>
      <trkpt lat="42.2649" lon="-0.32995">
        <ele>1518.77</ele>
        <time>2026-01-11T10:09:31Z</time>
      </trkpt>
      <trkpt lat="42.26494" lon="-0.32999">
        <ele>1519.3</ele>
        <time>2026-01-11T10:09:36Z</time>
      </trkpt>
      <trkpt lat="42.26503" lon="-0.33012">
        <ele>1524.09</ele>
        <time>2026-01-11T10:09:49Z</time>
      </trkpt>
      <trkpt lat="42.26504" lon="-0.33013">
        <ele>1523.61</ele>
        <time>2026-01-11T10:09:50Z</time>
      </trkpt>
      <trkpt lat="42.26509" lon="-0.33022">
        <ele>1526.46</ele>
        <time>2026-01-11T10:09:56Z</time>
      </trkpt>
      <trkpt lat="42.26518" lon="-0.33052">
        <ele>1529.67</ele>
        <time>2026-01-11T10:10:15Z</time>
      </trkpt>
      <trkpt lat="42.26518" lon="-0.33054">
        <ele>1527.24</ele>
        <time>2026-01-11T10:10:30Z</time>
      </trkpt>
      <trkpt lat="42.26518" lon="-0.33052">
        <ele>1529.8</ele>
        <time>2026-01-11T10:10:36Z</time>
      </trkpt>
      <trkpt lat="42.26518" lon="-0.33051">
        <ele>1528.77</ele>
        <time>2026-01-11T10:10:47Z</time>
      </trkpt>
      <trkpt lat="42.26519" lon="-0.33052">
        <ele>1528.74</ele>
        <time>2026-01-11T10:11:51Z</time>
      </trkpt>
      <trkpt lat="42.26519" lon="-0.33051">
        <ele>1530.16</ele>
        <time>2026-01-11T10:13:18Z</time>
      </trkpt>
      <trkpt lat="42.26519" lon="-0.33051">
        <ele>1529.8</ele>
        <time>2026-01-11T10:14:39Z</time>
      </trkpt>
      <trkpt lat="42.26519" lon="-0.33051">
        <ele>1529.58</ele>
        <time>2026-01-11T10:15:54Z</time>
      </trkpt>
      <trkpt lat="42.26519" lon="-0.33051">
        <ele>1530.32</ele>
        <time>2026-01-11T10:17:18Z</time>
      </trkpt>
      <trkpt lat="42.26519" lon="-0.33051">
        <ele>1529.93</ele>
        <time>2026-01-11T10:18:45Z</time>
      </trkpt>
      <trkpt lat="42.26519" lon="-0.33051">
        <ele>1530.12</ele>
        <time>2026-01-11T10:19:57Z</time>
      </trkpt>
      <trkpt lat="42.26518" lon="-0.3305">
        <ele>1530.81</ele>
        <time>2026-01-11T10:21:05Z</time>
      </trkpt>
      <trkpt lat="42.26518" lon="-0.3305">
        <ele>1531.52</ele>
        <time>2026-01-11T10:21:16Z</time>
      </trkpt>
      <trkpt lat="42.26515" lon="-0.33041">
        <ele>1530.17</ele>
        <time>2026-01-11T10:21:21Z</time>
      </trkpt>
      <trkpt lat="42.26512" lon="-0.33032">
        <ele>1528.15</ele>
        <time>2026-01-11T10:21:28Z</time>
      </trkpt>
      <trkpt lat="42.26512" lon="-0.33031">
        <ele>1529.85</ele>
        <time>2026-01-11T10:21:45Z</time>
      </trkpt>
      <trkpt lat="42.26509" lon="-0.33024">
        <ele>1528.43</ele>
        <time>2026-01-11T10:21:49Z</time>
      </trkpt>
      <trkpt lat="42.26508" lon="-0.33022">
        <ele>1528.19</ele>
        <time>2026-01-11T10:21:50Z</time>
      </trkpt>
      <trkpt lat="42.26505" lon="-0.33016">
        <ele>1526.93</ele>
        <time>2026-01-11T10:21:53Z</time>
      </trkpt>
      <trkpt lat="42.26498" lon="-0.33007">
        <ele>1524.61</ele>
        <time>2026-01-11T10:22:00Z</time>
      </trkpt>
      <trkpt lat="42.26495" lon="-0.33002">
        <ele>1523.78</ele>
        <time>2026-01-11T10:22:03Z</time>
      </trkpt>
      <trkpt lat="42.2649" lon="-0.32998">
        <ele>1521.41</ele>
        <time>2026-01-11T10:22:08Z</time>
      </trkpt>
      <trkpt lat="42.26481" lon="-0.32983">
        <ele>1518.63</ele>
        <time>2026-01-11T10:22:18Z</time>
      </trkpt>
      <trkpt lat="42.26479" lon="-0.32975">
        <ele>1517.06</ele>
        <time>2026-01-11T10:22:22Z</time>
      </trkpt>
      <trkpt lat="42.26463" lon="-0.3296">
        <ele>1513.48</ele>
        <time>2026-01-11T10:22:35Z</time>
      </trkpt>
      <trkpt lat="42.26443" lon="-0.32939">
        <ele>1511.43</ele>
        <time>2026-01-11T10:22:52Z</time>
      </trkpt>
      <trkpt lat="42.26442" lon="-0.32937">
        <ele>1510.39</ele>
        <time>2026-01-11T10:23:11Z</time>
      </trkpt>
      <trkpt lat="42.26442" lon="-0.32936">
        <ele>1510.44</ele>
        <time>2026-01-11T10:24:27Z</time>
      </trkpt>
      <trkpt lat="42.26442" lon="-0.32937">
        <ele>1511.38</ele>
        <time>2026-01-11T10:24:46Z</time>
      </trkpt>
      <trkpt lat="42.26441" lon="-0.32936">
        <ele>1511.16</ele>
        <time>2026-01-11T10:24:58Z</time>
      </trkpt>
      <trkpt lat="42.26434" lon="-0.3293">
        <ele>1510.25</ele>
        <time>2026-01-11T10:25:04Z</time>
      </trkpt>
      <trkpt lat="42.26418" lon="-0.32909">
        <ele>1506.54</ele>
        <time>2026-01-11T10:25:18Z</time>
      </trkpt>
      <trkpt lat="42.26401" lon="-0.32885">
        <ele>1504.07</ele>
        <time>2026-01-11T10:25:33Z</time>
      </trkpt>
      <trkpt lat="42.2639" lon="-0.32867">
        <ele>1500.94</ele>
        <time>2026-01-11T10:25:44Z</time>
      </trkpt>
      <trkpt lat="42.26374" lon="-0.32836">
        <ele>1498.4</ele>
        <time>2026-01-11T10:26:01Z</time>
      </trkpt>
      <trkpt lat="42.26371" lon="-0.32825">
        <ele>1497.45</ele>
        <time>2026-01-11T10:26:06Z</time>
      </trkpt>
      <trkpt lat="42.26369" lon="-0.32818">
        <ele>1496.11</ele>
        <time>2026-01-11T10:26:09Z</time>
      </trkpt>
      <trkpt lat="42.26368" lon="-0.32815">
        <ele>1496.59</ele>
        <time>2026-01-11T10:26:11Z</time>
      </trkpt>
      <trkpt lat="42.26363" lon="-0.32805">
        <ele>1494.93</ele>
        <time>2026-01-11T10:26:17Z</time>
      </trkpt>
      <trkpt lat="42.26348" lon="-0.32777">
        <ele>1492.16</ele>
        <time>2026-01-11T10:26:32Z</time>
      </trkpt>
      <trkpt lat="42.26339" lon="-0.32747">
        <ele>1492.27</ele>
        <time>2026-01-11T10:26:47Z</time>
      </trkpt>
      <trkpt lat="42.26322" lon="-0.32718">
        <ele>1492.81</ele>
        <time>2026-01-11T10:27:04Z</time>
      </trkpt>
      <trkpt lat="42.26306" lon="-0.32692">
        <ele>1493.77</ele>
        <time>2026-01-11T10:27:20Z</time>
      </trkpt>
      <trkpt lat="42.26305" lon="-0.3269">
        <ele>1493.63</ele>
        <time>2026-01-11T10:27:21Z</time>
      </trkpt>
      <trkpt lat="42.26295" lon="-0.32676">
        <ele>1495.31</ele>
        <time>2026-01-11T10:27:30Z</time>
      </trkpt>
      <trkpt lat="42.26277" lon="-0.32657">
        <ele>1494.2</ele>
        <time>2026-01-11T10:27:45Z</time>
      </trkpt>
      <trkpt lat="42.26272" lon="-0.32646">
        <ele>1494.98</ele>
        <time>2026-01-11T10:27:52Z</time>
      </trkpt>
      <trkpt lat="42.26253" lon="-0.3263">
        <ele>1497.11</ele>
        <time>2026-01-11T10:28:07Z</time>
      </trkpt>
      <trkpt lat="42.26239" lon="-0.32608">
        <ele>1498.05</ele>
        <time>2026-01-11T10:28:21Z</time>
      </trkpt>
      <trkpt lat="42.26223" lon="-0.3259">
        <ele>1498.71</ele>
        <time>2026-01-11T10:28:35Z</time>
      </trkpt>
      <trkpt lat="42.26202" lon="-0.32566">
        <ele>1497.83</ele>
        <time>2026-01-11T10:28:52Z</time>
      </trkpt>
      <trkpt lat="42.26187" lon="-0.32541">
        <ele>1497.03</ele>
        <time>2026-01-11T10:29:07Z</time>
      </trkpt>
      <trkpt lat="42.26166" lon="-0.32513">
        <ele>1494.63</ele>
        <time>2026-01-11T10:29:25Z</time>
      </trkpt>
      <trkpt lat="42.26146" lon="-0.32494">
        <ele>1492.57</ele>
        <time>2026-01-11T10:29:41Z</time>
      </trkpt>
      <trkpt lat="42.26127" lon="-0.32469">
        <ele>1491.84</ele>
        <time>2026-01-11T10:29:58Z</time>
      </trkpt>
      <trkpt lat="42.26126" lon="-0.32467">
        <ele>1492.23</ele>
        <time>2026-01-11T10:29:59Z</time>
      </trkpt>
      <trkpt lat="42.26097" lon="-0.32456">
        <ele>1489.95</ele>
        <time>2026-01-11T10:30:18Z</time>
      </trkpt>
      <trkpt lat="42.26091" lon="-0.32453">
        <ele>1490.35</ele>
        <time>2026-01-11T10:30:26Z</time>
      </trkpt>
      <trkpt lat="42.26084" lon="-0.32451">
        <ele>1488.57</ele>
        <time>2026-01-11T10:30:31Z</time>
      </trkpt>
      <trkpt lat="42.26069" lon="-0.32445">
        <ele>1489.05</ele>
        <time>2026-01-11T10:30:49Z</time>
      </trkpt>
      <trkpt lat="42.26059" lon="-0.32441">
        <ele>1489.07</ele>
        <time>2026-01-11T10:30:57Z</time>
      </trkpt>
      <trkpt lat="42.26043" lon="-0.3243">
        <ele>1489.08</ele>
        <time>2026-01-11T10:31:12Z</time>
      </trkpt>
      <trkpt lat="42.26043" lon="-0.32429">
        <ele>1488.95</ele>
        <time>2026-01-11T10:31:15Z</time>
      </trkpt>
      <trkpt lat="42.26038" lon="-0.32426">
        <ele>1489.17</ele>
        <time>2026-01-11T10:31:19Z</time>
      </trkpt>
      <trkpt lat="42.26009" lon="-0.32411">
        <ele>1489.64</ele>
        <time>2026-01-11T10:31:38Z</time>
      </trkpt>
      <trkpt lat="42.25987" lon="-0.324">
        <ele>1489.44</ele>
        <time>2026-01-11T10:31:53Z</time>
      </trkpt>
      <trkpt lat="42.25974" lon="-0.32388">
        <ele>1492.44</ele>
        <time>2026-01-11T10:32:05Z</time>
      </trkpt>
      <trkpt lat="42.25969" lon="-0.32386">
        <ele>1493.44</ele>
        <time>2026-01-11T10:32:10Z</time>
      </trkpt>
      <trkpt lat="42.25964" lon="-0.32382">
        <ele>1494.41</ele>
        <time>2026-01-11T10:32:15Z</time>
      </trkpt>
      <trkpt lat="42.25948" lon="-0.32366">
        <ele>1497.35</ele>
        <time>2026-01-11T10:32:32Z</time>
      </trkpt>
      <trkpt lat="42.25942" lon="-0.3236">
        <ele>1498.55</ele>
        <time>2026-01-11T10:32:38Z</time>
      </trkpt>
      <trkpt lat="42.25932" lon="-0.32353">
        <ele>1500.09</ele>
        <time>2026-01-11T10:32:47Z</time>
      </trkpt>
      <trkpt lat="42.25923" lon="-0.32339">
        <ele>1502.48</ele>
        <time>2026-01-11T10:33:03Z</time>
      </trkpt>
      <trkpt lat="42.25922" lon="-0.32335">
        <ele>1502.26</ele>
        <time>2026-01-11T10:33:28Z</time>
      </trkpt>
      <trkpt lat="42.25911" lon="-0.32327">
        <ele>1505.95</ele>
        <time>2026-01-11T10:33:38Z</time>
      </trkpt>
      <trkpt lat="42.25888" lon="-0.3231">
        <ele>1507.99</ele>
        <time>2026-01-11T10:33:57Z</time>
      </trkpt>
      <trkpt lat="42.25886" lon="-0.32309">
        <ele>1508.39</ele>
        <time>2026-01-11T10:34:06Z</time>
      </trkpt>
      <trkpt lat="42.2588" lon="-0.32306">
        <ele>1508.45</ele>
        <time>2026-01-11T10:34:11Z</time>
      </trkpt>
      <trkpt lat="42.25869" lon="-0.32299">
        <ele>1509.12</ele>
        <time>2026-01-11T10:34:19Z</time>
      </trkpt>
      <trkpt lat="42.25868" lon="-0.32294">
        <ele>1509.82</ele>
        <time>2026-01-11T10:34:38Z</time>
      </trkpt>
      <trkpt lat="42.25867" lon="-0.32294">
        <ele>1509.86</ele>
        <time>2026-01-11T10:35:25Z</time>
      </trkpt>
      <trkpt lat="42.25865" lon="-0.32294">
        <ele>1510.1</ele>
        <time>2026-01-11T10:35:27Z</time>
      </trkpt>
      <trkpt lat="42.2584" lon="-0.32282">
        <ele>1506.59</ele>
        <time>2026-01-11T10:35:43Z</time>
      </trkpt>
      <trkpt lat="42.25827" lon="-0.32271">
        <ele>1506.5</ele>
        <time>2026-01-11T10:35:53Z</time>
      </trkpt>
      <trkpt lat="42.25802" lon="-0.32259">
        <ele>1507.64</ele>
        <time>2026-01-11T10:36:11Z</time>
      </trkpt>
      <trkpt lat="42.25797" lon="-0.32254">
        <ele>1508.15</ele>
        <time>2026-01-11T10:36:16Z</time>
      </trkpt>
      <trkpt lat="42.25774" lon="-0.32243">
        <ele>1506.19</ele>
        <time>2026-01-11T10:36:32Z</time>
      </trkpt>
      <trkpt lat="42.25758" lon="-0.32236">
        <ele>1504.53</ele>
        <time>2026-01-11T10:36:45Z</time>
      </trkpt>
      <trkpt lat="42.25734" lon="-0.32223">
        <ele>1504.58</ele>
        <time>2026-01-11T10:37:01Z</time>
      </trkpt>
      <trkpt lat="42.2571" lon="-0.32206">
        <ele>1502.59</ele>
        <time>2026-01-11T10:37:18Z</time>
      </trkpt>
      <trkpt lat="42.25697" lon="-0.32197">
        <ele>1500.25</ele>
        <time>2026-01-11T10:37:33Z</time>
      </trkpt>
      <trkpt lat="42.25693" lon="-0.32195">
        <ele>1499.15</ele>
        <time>2026-01-11T10:37:41Z</time>
      </trkpt>
      <trkpt lat="42.25691" lon="-0.32194">
        <ele>1500.41</ele>
        <time>2026-01-11T10:37:43Z</time>
      </trkpt>
      <trkpt lat="42.25686" lon="-0.3219">
        <ele>1498.99</ele>
        <time>2026-01-11T10:37:56Z</time>
      </trkpt>
      <trkpt lat="42.25684" lon="-0.3219">
        <ele>1498.09</ele>
        <time>2026-01-11T10:38:05Z</time>
      </trkpt>
      <trkpt lat="42.25683" lon="-0.32186">
        <ele>1497.7</ele>
        <time>2026-01-11T10:38:09Z</time>
      </trkpt>
      <trkpt lat="42.25683" lon="-0.32182">
        <ele>1495.91</ele>
        <time>2026-01-11T10:38:12Z</time>
      </trkpt>
      <trkpt lat="42.25678" lon="-0.32177">
        <ele>1494.52</ele>
        <time>2026-01-11T10:38:17Z</time>
      </trkpt>
      <trkpt lat="42.25671" lon="-0.32178">
        <ele>1491.7</ele>
        <time>2026-01-11T10:38:23Z</time>
      </trkpt>
      <trkpt lat="42.2567" lon="-0.32172">
        <ele>1488.38</ele>
        <time>2026-01-11T10:38:37Z</time>
      </trkpt>
      <trkpt lat="42.25669" lon="-0.32171">
        <ele>1487.5</ele>
        <time>2026-01-11T10:38:39Z</time>
      </trkpt>
      <trkpt lat="42.25667" lon="-0.32165">
        <ele>1485.11</ele>
        <time>2026-01-11T10:38:46Z</time>
      </trkpt>
      <trkpt lat="42.25666" lon="-0.32163">
        <ele>1482.79</ele>
        <time>2026-01-11T10:39:03Z</time>
      </trkpt>
      <trkpt lat="42.25666" lon="-0.3216">
        <ele>1481.76</ele>
        <time>2026-01-11T10:39:25Z</time>
      </trkpt>
      <trkpt lat="42.25666" lon="-0.3216">
        <ele>1483.24</ele>
        <time>2026-01-11T10:39:45Z</time>
      </trkpt>
      <trkpt lat="42.25662" lon="-0.3216">
        <ele>1481.2</ele>
        <time>2026-01-11T10:40:06Z</time>
      </trkpt>
      <trkpt lat="42.25659" lon="-0.32154">
        <ele>1477.77</ele>
        <time>2026-01-11T10:40:18Z</time>
      </trkpt>
      <trkpt lat="42.2566" lon="-0.32148">
        <ele>1475.97</ele>
        <time>2026-01-11T10:40:35Z</time>
      </trkpt>
      <trkpt lat="42.2566" lon="-0.32145">
        <ele>1475.63</ele>
        <time>2026-01-11T10:40:37Z</time>
      </trkpt>
      <trkpt lat="42.25661" lon="-0.32143">
        <ele>1474.68</ele>
        <time>2026-01-11T10:40:39Z</time>
      </trkpt>
      <trkpt lat="42.25662" lon="-0.3214">
        <ele>1473.37</ele>
        <time>2026-01-11T10:40:42Z</time>
      </trkpt>
      <trkpt lat="42.2566" lon="-0.32138">
        <ele>1472.45</ele>
        <time>2026-01-11T10:40:45Z</time>
      </trkpt>
      <trkpt lat="42.25659" lon="-0.32136">
        <ele>1470.68</ele>
        <time>2026-01-11T10:40:49Z</time>
      </trkpt>
      <trkpt lat="42.25661" lon="-0.32127">
        <ele>1466.95</ele>
        <time>2026-01-11T10:40:58Z</time>
      </trkpt>
      <trkpt lat="42.2566" lon="-0.32128">
        <ele>1468.49</ele>
        <time>2026-01-11T10:41:14Z</time>
      </trkpt>
      <trkpt lat="42.25661" lon="-0.32126">
        <ele>1466.67</ele>
        <time>2026-01-11T10:41:46Z</time>
      </trkpt>
      <trkpt lat="42.25661" lon="-0.3212">
        <ele>1464.75</ele>
        <time>2026-01-11T10:41:55Z</time>
      </trkpt>
      <trkpt lat="42.25661" lon="-0.32114">
        <ele>1461.57</ele>
        <time>2026-01-11T10:42:01Z</time>
      </trkpt>
      <trkpt lat="42.25658" lon="-0.32109">
        <ele>1459.58</ele>
        <time>2026-01-11T10:42:06Z</time>
      </trkpt>
      <trkpt lat="42.2566" lon="-0.32105">
        <ele>1458.27</ele>
        <time>2026-01-11T10:42:09Z</time>
      </trkpt>
      <trkpt lat="42.25661" lon="-0.32102">
        <ele>1457.09</ele>
        <time>2026-01-11T10:42:12Z</time>
      </trkpt>
      <trkpt lat="42.25661" lon="-0.32098">
        <ele>1456.47</ele>
        <time>2026-01-11T10:42:15Z</time>
      </trkpt>
      <trkpt lat="42.25662" lon="-0.32094">
        <ele>1454.42</ele>
        <time>2026-01-11T10:42:19Z</time>
      </trkpt>
      <trkpt lat="42.25661" lon="-0.32087">
        <ele>1452.51</ele>
        <time>2026-01-11T10:42:25Z</time>
      </trkpt>
      <trkpt lat="42.25662" lon="-0.32083">
        <ele>1450.47</ele>
        <time>2026-01-11T10:42:29Z</time>
      </trkpt>
      <trkpt lat="42.25661" lon="-0.32069">
        <ele>1447.25</ele>
        <time>2026-01-11T10:42:41Z</time>
      </trkpt>
      <trkpt lat="42.2566" lon="-0.3206">
        <ele>1443.79</ele>
        <time>2026-01-11T10:42:50Z</time>
      </trkpt>
      <trkpt lat="42.25658" lon="-0.32058">
        <ele>1442.55</ele>
        <time>2026-01-11T10:42:53Z</time>
      </trkpt>
      <trkpt lat="42.25656" lon="-0.3205">
        <ele>1439.15</ele>
        <time>2026-01-11T10:43:03Z</time>
      </trkpt>
      <trkpt lat="42.25656" lon="-0.32047">
        <ele>1437.02</ele>
        <time>2026-01-11T10:43:07Z</time>
      </trkpt>
      <trkpt lat="42.25652" lon="-0.32042">
        <ele>1433.03</ele>
        <time>2026-01-11T10:43:17Z</time>
      </trkpt>
      <trkpt lat="42.25652" lon="-0.32032">
        <ele>1429.85</ele>
        <time>2026-01-11T10:43:28Z</time>
      </trkpt>
      <trkpt lat="42.2565" lon="-0.32025">
        <ele>1426.55</ele>
        <time>2026-01-11T10:43:36Z</time>
      </trkpt>
      <trkpt lat="42.25649" lon="-0.32016">
        <ele>1423.32</ele>
        <time>2026-01-11T10:43:44Z</time>
      </trkpt>
      <trkpt lat="42.25649" lon="-0.32014">
        <ele>1421.94</ele>
        <time>2026-01-11T10:43:48Z</time>
      </trkpt>
      <trkpt lat="42.25647" lon="-0.32008">
        <ele>1421.39</ele>
        <time>2026-01-11T10:44:00Z</time>
      </trkpt>
      <trkpt lat="42.25647" lon="-0.31999">
        <ele>1417.12</ele>
        <time>2026-01-11T10:44:10Z</time>
      </trkpt>
      <trkpt lat="42.25647" lon="-0.31998">
        <ele>1416.87</ele>
        <time>2026-01-11T10:44:11Z</time>
      </trkpt>
      <trkpt lat="42.25646" lon="-0.31996">
        <ele>1415.72</ele>
        <time>2026-01-11T10:44:15Z</time>
      </trkpt>
      <trkpt lat="42.25647" lon="-0.31988">
        <ele>1412.72</ele>
        <time>2026-01-11T10:44:25Z</time>
      </trkpt>
      <trkpt lat="42.25644" lon="-0.31983">
        <ele>1408.84</ele>
        <time>2026-01-11T10:44:36Z</time>
      </trkpt>
      <trkpt lat="42.25644" lon="-0.31979">
        <ele>1407.74</ele>
        <time>2026-01-11T10:44:41Z</time>
      </trkpt>
      <trkpt lat="42.25645" lon="-0.31973">
        <ele>1405.12</ele>
        <time>2026-01-11T10:44:47Z</time>
      </trkpt>
      <trkpt lat="42.25644" lon="-0.31967">
        <ele>1401.31</ele>
        <time>2026-01-11T10:44:57Z</time>
      </trkpt>
      <trkpt lat="42.25642" lon="-0.31958">
        <ele>1398.34</ele>
        <time>2026-01-11T10:45:09Z</time>
      </trkpt>
      <trkpt lat="42.25641" lon="-0.3195">
        <ele>1394.5</ele>
        <time>2026-01-11T10:45:19Z</time>
      </trkpt>
      <trkpt lat="42.25639" lon="-0.3194">
        <ele>1390.77</ele>
        <time>2026-01-11T10:45:31Z</time>
      </trkpt>
      <trkpt lat="42.25638" lon="-0.31931">
        <ele>1387.58</ele>
        <time>2026-01-11T10:45:40Z</time>
      </trkpt>
      <trkpt lat="42.25641" lon="-0.31922">
        <ele>1383.94</ele>
        <time>2026-01-11T10:45:50Z</time>
      </trkpt>
      <trkpt lat="42.25641" lon="-0.31921">
        <ele>1383.73</ele>
        <time>2026-01-11T10:45:51Z</time>
      </trkpt>
      <trkpt lat="42.25643" lon="-0.31911">
        <ele>1380.89</ele>
        <time>2026-01-11T10:46:11Z</time>
      </trkpt>
      <trkpt lat="42.25642" lon="-0.31908">
        <ele>1379.39</ele>
        <time>2026-01-11T10:46:14Z</time>
      </trkpt>
      <trkpt lat="42.25638" lon="-0.31906">
        <ele>1377.46</ele>
        <time>2026-01-11T10:46:19Z</time>
      </trkpt>
      <trkpt lat="42.25635" lon="-0.31899">
        <ele>1373.89</ele>
        <time>2026-01-11T10:46:29Z</time>
      </trkpt>
      <trkpt lat="42.25635" lon="-0.31897">
        <ele>1374.27</ele>
        <time>2026-01-11T10:46:30Z</time>
      </trkpt>
      <trkpt lat="42.25636" lon="-0.31893">
        <ele>1371.91</ele>
        <time>2026-01-11T10:46:34Z</time>
      </trkpt>
      <trkpt lat="42.25635" lon="-0.31885">
        <ele>1368.49</ele>
        <time>2026-01-11T10:46:45Z</time>
      </trkpt>
      <trkpt lat="42.25636" lon="-0.31875">
        <ele>1365.72</ele>
        <time>2026-01-11T10:46:55Z</time>
      </trkpt>
      <trkpt lat="42.25636" lon="-0.31872">
        <ele>1364.37</ele>
        <time>2026-01-11T10:46:58Z</time>
      </trkpt>
      <trkpt lat="42.25636" lon="-0.3187">
        <ele>1363.38</ele>
        <time>2026-01-11T10:47:00Z</time>
      </trkpt>
      <trkpt lat="42.25637" lon="-0.31857">
        <ele>1359.88</ele>
        <time>2026-01-11T10:47:12Z</time>
      </trkpt>
      <trkpt lat="42.25637" lon="-0.31846">
        <ele>1356.71</ele>
        <time>2026-01-11T10:47:20Z</time>
      </trkpt>
      <trkpt lat="42.25638" lon="-0.31839">
        <ele>1354.86</ele>
        <time>2026-01-11T10:47:39Z</time>
      </trkpt>
      <trkpt lat="42.2564" lon="-0.31839">
        <ele>1355.57</ele>
        <time>2026-01-11T10:47:47Z</time>
      </trkpt>
      <trkpt lat="42.25635" lon="-0.31835">
        <ele>1353.91</ele>
        <time>2026-01-11T10:47:58Z</time>
      </trkpt>
      <trkpt lat="42.25625" lon="-0.31829">
        <ele>1351.07</ele>
        <time>2026-01-11T10:48:10Z</time>
      </trkpt>
      <trkpt lat="42.2563" lon="-0.31816">
        <ele>1350.06</ele>
        <time>2026-01-11T10:48:24Z</time>
      </trkpt>
      <trkpt lat="42.25633" lon="-0.31805">
        <ele>1349.38</ele>
        <time>2026-01-11T10:48:33Z</time>
      </trkpt>
      <trkpt lat="42.25635" lon="-0.31794">
        <ele>1349.53</ele>
        <time>2026-01-11T10:48:40Z</time>
      </trkpt>
      <trkpt lat="42.25641" lon="-0.31768">
        <ele>1349.99</ele>
        <time>2026-01-11T10:48:54Z</time>
      </trkpt>
      <trkpt lat="42.25647" lon="-0.31755">
        <ele>1351.07</ele>
        <time>2026-01-11T10:49:05Z</time>
      </trkpt>
      <trkpt lat="42.25647" lon="-0.31751">
        <ele>1351.86</ele>
        <time>2026-01-11T10:49:08Z</time>
      </trkpt>
      <trkpt lat="42.25654" lon="-0.31733">
        <ele>1347.34</ele>
        <time>2026-01-11T10:49:21Z</time>
      </trkpt>
      <trkpt lat="42.25655" lon="-0.31731">
        <ele>1346.46</ele>
        <time>2026-01-11T10:49:23Z</time>
      </trkpt>
      <trkpt lat="42.25657" lon="-0.31719">
        <ele>1343.79</ele>
        <time>2026-01-11T10:49:37Z</time>
      </trkpt>
      <trkpt lat="42.25657" lon="-0.31709">
        <ele>1340.43</ele>
        <time>2026-01-11T10:49:46Z</time>
      </trkpt>
      <trkpt lat="42.25654" lon="-0.31707">
        <ele>1339.8</ele>
        <time>2026-01-11T10:49:50Z</time>
      </trkpt>
      <trkpt lat="42.25646" lon="-0.31691">
        <ele>1337.35</ele>
        <time>2026-01-11T10:50:10Z</time>
      </trkpt>
      <trkpt lat="42.25644" lon="-0.31681">
        <ele>1334.82</ele>
        <time>2026-01-11T10:50:19Z</time>
      </trkpt>
      <trkpt lat="42.25644" lon="-0.31675">
        <ele>1331.5</ele>
        <time>2026-01-11T10:50:25Z</time>
      </trkpt>
      <trkpt lat="42.25643" lon="-0.31669">
        <ele>1329.27</ele>
        <time>2026-01-11T10:50:31Z</time>
      </trkpt>
      <trkpt lat="42.25645" lon="-0.31659">
        <ele>1326.49</ele>
        <time>2026-01-11T10:50:39Z</time>
      </trkpt>
      <trkpt lat="42.25645" lon="-0.31658">
        <ele>1326.21</ele>
        <time>2026-01-11T10:50:40Z</time>
      </trkpt>
      <trkpt lat="42.25647" lon="-0.31649">
        <ele>1323.06</ele>
        <time>2026-01-11T10:50:47Z</time>
      </trkpt>
      <trkpt lat="42.2564" lon="-0.3164">
        <ele>1320.37</ele>
        <time>2026-01-11T10:50:56Z</time>
      </trkpt>
      <trkpt lat="42.25637" lon="-0.31637">
        <ele>1319.71</ele>
        <time>2026-01-11T10:50:58Z</time>
      </trkpt>
      <trkpt lat="42.25636" lon="-0.31637">
        <ele>1318.53</ele>
        <time>2026-01-11T10:50:59Z</time>
      </trkpt>
      <trkpt lat="42.25627" lon="-0.31633">
        <ele>1317.02</ele>
        <time>2026-01-11T10:51:05Z</time>
      </trkpt>
      <trkpt lat="42.25616" lon="-0.31621">
        <ele>1315.5</ele>
        <time>2026-01-11T10:51:21Z</time>
      </trkpt>
      <trkpt lat="42.25616" lon="-0.31618">
        <ele>1315.82</ele>
        <time>2026-01-11T10:51:54Z</time>
      </trkpt>
      <trkpt lat="42.25616" lon="-0.31608">
        <ele>1315.88</ele>
        <time>2026-01-11T10:52:08Z</time>
      </trkpt>
      <trkpt lat="42.25616" lon="-0.31608">
        <ele>1315.69</ele>
        <time>2026-01-11T10:52:14Z</time>
      </trkpt>
      <trkpt lat="42.25615" lon="-0.31609">
        <ele>1315.9</ele>
        <time>2026-01-11T10:52:17Z</time>
      </trkpt>
      <trkpt lat="42.25612" lon="-0.31616">
        <ele>1315.61</ele>
        <time>2026-01-11T10:52:32Z</time>
      </trkpt>
      <trkpt lat="42.25607" lon="-0.31616">
        <ele>1314.88</ele>
        <time>2026-01-11T10:52:35Z</time>
      </trkpt>
      <trkpt lat="42.25566" lon="-0.31641">
        <ele>1312.73</ele>
        <time>2026-01-11T10:52:58Z</time>
      </trkpt>
      <trkpt lat="42.25542" lon="-0.31663">
        <ele>1309.67</ele>
        <time>2026-01-11T10:53:13Z</time>
      </trkpt>
      <trkpt lat="42.25518" lon="-0.31692">
        <ele>1306.62</ele>
        <time>2026-01-11T10:53:29Z</time>
      </trkpt>
      <trkpt lat="42.25527" lon="-0.31741">
        <ele>1306.88</ele>
        <time>2026-01-11T10:53:47Z</time>
      </trkpt>
      <trkpt lat="42.25528" lon="-0.31793">
        <ele>1304.61</ele>
        <time>2026-01-11T10:54:06Z</time>
      </trkpt>
      <trkpt lat="42.25501" lon="-0.31826">
        <ele>1302.4</ele>
        <time>2026-01-11T10:54:23Z</time>
      </trkpt>
      <trkpt lat="42.25469" lon="-0.31861">
        <ele>1299.37</ele>
        <time>2026-01-11T10:54:43Z</time>
      </trkpt>
      <trkpt lat="42.25438" lon="-0.3188">
        <ele>1296.63</ele>
        <time>2026-01-11T10:55:00Z</time>
      </trkpt>
      <trkpt lat="42.25407" lon="-0.31899">
        <ele>1293.62</ele>
        <time>2026-01-11T10:55:16Z</time>
      </trkpt>
      <trkpt lat="42.25365" lon="-0.31912">
        <ele>1291.02</ele>
        <time>2026-01-11T10:55:36Z</time>
      </trkpt>
      <trkpt lat="42.25333" lon="-0.31919">
        <ele>1288.41</ele>
        <time>2026-01-11T10:55:51Z</time>
      </trkpt>
      <trkpt lat="42.2531" lon="-0.31923">
        <ele>1287.03</ele>
        <time>2026-01-11T10:56:06Z</time>
      </trkpt>
      <trkpt lat="42.25311" lon="-0.31922">
        <ele>1287.46</ele>
        <time>2026-01-11T10:56:24Z</time>
      </trkpt>
      <trkpt lat="42.25309" lon="-0.31924">
        <ele>1287.24</ele>
        <time>2026-01-11T10:56:43Z</time>
      </trkpt>
      <trkpt lat="42.25296" lon="-0.31927">
        <ele>1285.8</ele>
        <time>2026-01-11T10:56:51Z</time>
      </trkpt>
      <trkpt lat="42.25266" lon="-0.31932">
        <ele>1282.36</ele>
        <time>2026-01-11T10:57:06Z</time>
      </trkpt>
      <trkpt lat="42.25224" lon="-0.31937">
        <ele>1279.64</ele>
        <time>2026-01-11T10:57:26Z</time>
      </trkpt>
      <trkpt lat="42.25189" lon="-0.31942">
        <ele>1277.41</ele>
        <time>2026-01-11T10:57:44Z</time>
      </trkpt>
      <trkpt lat="42.25153" lon="-0.31941">
        <ele>1276.07</ele>
        <time>2026-01-11T10:58:01Z</time>
      </trkpt>
      <trkpt lat="42.25119" lon="-0.31943">
        <ele>1274.5</ele>
        <time>2026-01-11T10:58:19Z</time>
      </trkpt>
      <trkpt lat="42.25111" lon="-0.31942">
        <ele>1273.76</ele>
        <time>2026-01-11T10:58:36Z</time>
      </trkpt>
      <trkpt lat="42.25111" lon="-0.31941">
        <ele>1272.22</ele>
        <time>2026-01-11T10:58:44Z</time>
      </trkpt>
      <trkpt lat="42.25106" lon="-0.3194">
        <ele>1273.27</ele>
        <time>2026-01-11T10:58:50Z</time>
      </trkpt>
      <trkpt lat="42.25091" lon="-0.31942">
        <ele>1271.83</ele>
        <time>2026-01-11T10:59:00Z</time>
      </trkpt>
      <trkpt lat="42.25081" lon="-0.31942">
        <ele>1270.01</ele>
        <time>2026-01-11T10:59:06Z</time>
      </trkpt>
      <trkpt lat="42.25077" lon="-0.31937">
        <ele>1269.25</ele>
        <time>2026-01-11T10:59:10Z</time>
      </trkpt>
      <trkpt lat="42.2508" lon="-0.31926">
        <ele>1268.49</ele>
        <time>2026-01-11T10:59:20Z</time>
      </trkpt>
      <trkpt lat="42.25089" lon="-0.31925">
        <ele>1267.82</ele>
        <time>2026-01-11T10:59:26Z</time>
      </trkpt>
      <trkpt lat="42.25125" lon="-0.31922">
        <ele>1266.55</ele>
        <time>2026-01-11T10:59:47Z</time>
      </trkpt>
      <trkpt lat="42.25126" lon="-0.31922">
        <ele>1266.48</ele>
        <time>2026-01-11T10:59:48Z</time>
      </trkpt>
      <trkpt lat="42.25129" lon="-0.31922">
        <ele>1269.02</ele>
        <time>2026-01-11T10:59:50Z</time>
      </trkpt>
      <trkpt lat="42.25155" lon="-0.31918">
        <ele>1266.8</ele>
        <time>2026-01-11T11:00:04Z</time>
      </trkpt>
      <trkpt lat="42.25192" lon="-0.31909">
        <ele>1264.52</ele>
        <time>2026-01-11T11:00:22Z</time>
      </trkpt>
      <trkpt lat="42.25203" lon="-0.31903">
        <ele>1263.59</ele>
        <time>2026-01-11T11:00:36Z</time>
      </trkpt>
      <trkpt lat="42.25203" lon="-0.31903">
        <ele>1264.62</ele>
        <time>2026-01-11T11:00:43Z</time>
      </trkpt>
      <trkpt lat="42.25198" lon="-0.31901">
        <ele>1262.1</ele>
        <time>2026-01-11T11:00:46Z</time>
      </trkpt>
      <trkpt lat="42.25185" lon="-0.31903">
        <ele>1260.08</ele>
        <time>2026-01-11T11:00:58Z</time>
      </trkpt>
      <trkpt lat="42.2518" lon="-0.31902">
        <ele>1259.32</ele>
        <time>2026-01-11T11:01:02Z</time>
      </trkpt>
      <trkpt lat="42.25177" lon="-0.31901">
        <ele>1258.92</ele>
        <time>2026-01-11T11:01:06Z</time>
      </trkpt>
      <trkpt lat="42.25174" lon="-0.31899">
        <ele>1257.58</ele>
        <time>2026-01-11T11:01:09Z</time>
      </trkpt>
      <trkpt lat="42.25168" lon="-0.31898">
        <ele>1255.66</ele>
        <time>2026-01-11T11:01:14Z</time>
      </trkpt>
      <trkpt lat="42.25161" lon="-0.31898">
        <ele>1255.03</ele>
        <time>2026-01-11T11:01:19Z</time>
      </trkpt>
      <trkpt lat="42.25149" lon="-0.31896">
        <ele>1255.29</ele>
        <time>2026-01-11T11:01:27Z</time>
      </trkpt>
      <trkpt lat="42.25126" lon="-0.319">
        <ele>1252.81</ele>
        <time>2026-01-11T11:01:43Z</time>
      </trkpt>
      <trkpt lat="42.25117" lon="-0.31902">
        <ele>1253.42</ele>
        <time>2026-01-11T11:01:50Z</time>
      </trkpt>
      <trkpt lat="42.25107" lon="-0.31902">
        <ele>1252.81</ele>
        <time>2026-01-11T11:01:57Z</time>
      </trkpt>
      <trkpt lat="42.25103" lon="-0.31901">
        <ele>1252.45</ele>
        <time>2026-01-11T11:02:00Z</time>
      </trkpt>
      <trkpt lat="42.25097" lon="-0.31901">
        <ele>1252.56</ele>
        <time>2026-01-11T11:02:04Z</time>
      </trkpt>
      <trkpt lat="42.25091" lon="-0.31901">
        <ele>1252.3</ele>
        <time>2026-01-11T11:02:09Z</time>
      </trkpt>
      <trkpt lat="42.25082" lon="-0.31902">
        <ele>1251.54</ele>
        <time>2026-01-11T11:02:15Z</time>
      </trkpt>
      <trkpt lat="42.25073" lon="-0.31902">
        <ele>1250.44</ele>
        <time>2026-01-11T11:02:21Z</time>
      </trkpt>
      <trkpt lat="42.25063" lon="-0.31901">
        <ele>1248.75</ele>
        <time>2026-01-11T11:02:27Z</time>
      </trkpt>
      <trkpt lat="42.25061" lon="-0.319">
        <ele>1248.52</ele>
        <time>2026-01-11T11:02:28Z</time>
      </trkpt>
      <trkpt lat="42.25048" lon="-0.31894">
        <ele>1245.62</ele>
        <time>2026-01-11T11:02:36Z</time>
      </trkpt>
      <trkpt lat="42.25035" lon="-0.31888">
        <ele>1241.94</ele>
        <time>2026-01-11T11:02:45Z</time>
      </trkpt>
      <trkpt lat="42.2502" lon="-0.3188">
        <ele>1238.54</ele>
        <time>2026-01-11T11:02:55Z</time>
      </trkpt>
      <trkpt lat="42.25004" lon="-0.31871">
        <ele>1234.84</ele>
        <time>2026-01-11T11:03:06Z</time>
      </trkpt>
      <trkpt lat="42.24994" lon="-0.31866">
        <ele>1232.99</ele>
        <time>2026-01-11T11:03:13Z</time>
      </trkpt>
      <trkpt lat="42.24978" lon="-0.31857">
        <ele>1229.07</ele>
        <time>2026-01-11T11:03:24Z</time>
      </trkpt>
      <trkpt lat="42.2496" lon="-0.31849">
        <ele>1226.58</ele>
        <time>2026-01-11T11:03:39Z</time>
      </trkpt>
      <trkpt lat="42.24958" lon="-0.31847">
        <ele>1225.66</ele>
        <time>2026-01-11T11:03:42Z</time>
      </trkpt>
      <trkpt lat="42.24953" lon="-0.31839">
        <ele>1223.38</ele>
        <time>2026-01-11T11:03:54Z</time>
      </trkpt>
      <trkpt lat="42.24951" lon="-0.31838">
        <ele>1223.38</ele>
        <time>2026-01-11T11:04:00Z</time>
      </trkpt>
      <trkpt lat="42.24941" lon="-0.31836">
        <ele>1222.15</ele>
        <time>2026-01-11T11:04:07Z</time>
      </trkpt>
      <trkpt lat="42.24911" lon="-0.31829">
        <ele>1221.39</ele>
        <time>2026-01-11T11:04:22Z</time>
      </trkpt>
      <trkpt lat="42.24909" lon="-0.31825">
        <ele>1220.32</ele>
        <time>2026-01-11T11:04:36Z</time>
      </trkpt>
      <trkpt lat="42.24908" lon="-0.31825">
        <ele>1221.22</ele>
        <time>2026-01-11T11:04:56Z</time>
      </trkpt>
      <trkpt lat="42.24912" lon="-0.31825">
        <ele>1221.19</ele>
        <time>2026-01-11T11:05:22Z</time>
      </trkpt>
      <trkpt lat="42.24911" lon="-0.31823">
        <ele>1219.83</ele>
        <time>2026-01-11T11:05:25Z</time>
      </trkpt>
      <trkpt lat="42.24909" lon="-0.31821">
        <ele>1219.38</ele>
        <time>2026-01-11T11:05:28Z</time>
      </trkpt>
      <trkpt lat="42.24906" lon="-0.31819">
        <ele>1217.91</ele>
        <time>2026-01-11T11:05:31Z</time>
      </trkpt>
      <trkpt lat="42.24895" lon="-0.31815">
        <ele>1214.79</ele>
        <time>2026-01-11T11:05:41Z</time>
      </trkpt>
      <trkpt lat="42.24887" lon="-0.31811">
        <ele>1213.1</ele>
        <time>2026-01-11T11:05:47Z</time>
      </trkpt>
      <trkpt lat="42.24874" lon="-0.31805">
        <ele>1211.5</ele>
        <time>2026-01-11T11:06:03Z</time>
      </trkpt>
      <trkpt lat="42.24874" lon="-0.31802">
        <ele>1210.47</ele>
        <time>2026-01-11T11:06:27Z</time>
      </trkpt>
      <trkpt lat="42.24876" lon="-0.31802">
        <ele>1210.79</ele>
        <time>2026-01-11T11:07:00Z</time>
      </trkpt>
      <trkpt lat="42.24873" lon="-0.31803">
        <ele>1211.78</ele>
        <time>2026-01-11T11:07:28Z</time>
      </trkpt>
      <trkpt lat="42.24871" lon="-0.31803">
        <ele>1211.07</ele>
        <time>2026-01-11T11:07:39Z</time>
      </trkpt>
      <trkpt lat="42.24854" lon="-0.318">
        <ele>1208.65</ele>
        <time>2026-01-11T11:07:53Z</time>
      </trkpt>
      <trkpt lat="42.24839" lon="-0.31794">
        <ele>1205.57</ele>
        <time>2026-01-11T11:08:05Z</time>
      </trkpt>
      <trkpt lat="42.24836" lon="-0.31793">
        <ele>1205.29</ele>
        <time>2026-01-11T11:08:07Z</time>
      </trkpt>
      <trkpt lat="42.24836" lon="-0.31787">
        <ele>1204.73</ele>
        <time>2026-01-11T11:08:19Z</time>
      </trkpt>
      <trkpt lat="42.24836" lon="-0.31786">
        <ele>1204.35</ele>
        <time>2026-01-11T11:08:40Z</time>
      </trkpt>
      <trkpt lat="42.24828" lon="-0.31787">
        <ele>1204.49</ele>
        <time>2026-01-11T11:08:45Z</time>
      </trkpt>
      <trkpt lat="42.24818" lon="-0.31788">
        <ele>1205.75</ele>
        <time>2026-01-11T11:08:54Z</time>
      </trkpt>
      <trkpt lat="42.24811" lon="-0.31788">
        <ele>1206.19</ele>
        <time>2026-01-11T11:08:58Z</time>
      </trkpt>
      <trkpt lat="42.24783" lon="-0.31789">
        <ele>1208</ele>
        <time>2026-01-11T11:09:15Z</time>
      </trkpt>
      <trkpt lat="42.24778" lon="-0.31785">
        <ele>1207.8</ele>
        <time>2026-01-11T11:09:22Z</time>
      </trkpt>
      <trkpt lat="42.24805" lon="-0.31784">
        <ele>1206.43</ele>
        <time>2026-01-11T11:09:39Z</time>
      </trkpt>
      <trkpt lat="42.24829" lon="-0.31782">
        <ele>1203.36</ele>
        <time>2026-01-11T11:09:55Z</time>
      </trkpt>
      <trkpt lat="42.24829" lon="-0.31782">
        <ele>1207.18</ele>
        <time>2026-01-11T11:09:56Z</time>
      </trkpt>
      <trkpt lat="42.24828" lon="-0.31781">
        <ele>1205.09</ele>
        <time>2026-01-11T11:09:57Z</time>
      </trkpt>
      <trkpt lat="42.24827" lon="-0.3178">
        <ele>1204.96</ele>
        <time>2026-01-11T11:09:58Z</time>
      </trkpt>
      <trkpt lat="42.24826" lon="-0.31778">
        <ele>1203.25</ele>
        <time>2026-01-11T11:10:00Z</time>
      </trkpt>
      <trkpt lat="42.24822" lon="-0.31776">
        <ele>1201.63</ele>
        <time>2026-01-11T11:10:04Z</time>
      </trkpt>
      <trkpt lat="42.24814" lon="-0.31773">
        <ele>1198.54</ele>
        <time>2026-01-11T11:10:13Z</time>
      </trkpt>
      <trkpt lat="42.24797" lon="-0.31765">
        <ele>1194.77</ele>
        <time>2026-01-11T11:10:28Z</time>
      </trkpt>
      <trkpt lat="42.24783" lon="-0.31758">
        <ele>1191.47</ele>
        <time>2026-01-11T11:10:38Z</time>
      </trkpt>
      <trkpt lat="42.24779" lon="-0.31756">
        <ele>1190.68</ele>
        <time>2026-01-11T11:10:41Z</time>
      </trkpt>
      <trkpt lat="42.24774" lon="-0.31756">
        <ele>1190.72</ele>
        <time>2026-01-11T11:10:44Z</time>
      </trkpt>
      <trkpt lat="42.24773" lon="-0.31754">
        <ele>1190.81</ele>
        <time>2026-01-11T11:10:46Z</time>
      </trkpt>
      <trkpt lat="42.24768" lon="-0.31752">
        <ele>1189.14</ele>
        <time>2026-01-11T11:10:49Z</time>
      </trkpt>
      <trkpt lat="42.24759" lon="-0.31749">
        <ele>1187.8</ele>
        <time>2026-01-11T11:10:57Z</time>
      </trkpt>
      <trkpt lat="42.24752" lon="-0.31748">
        <ele>1186.88</ele>
        <time>2026-01-11T11:11:01Z</time>
      </trkpt>
      <trkpt lat="42.24728" lon="-0.31741">
        <ele>1183.74</ele>
        <time>2026-01-11T11:11:17Z</time>
      </trkpt>
      <trkpt lat="42.2471" lon="-0.31733">
        <ele>1180.24</ele>
        <time>2026-01-11T11:11:28Z</time>
      </trkpt>
      <trkpt lat="42.24708" lon="-0.31732">
        <ele>1180.15</ele>
        <time>2026-01-11T11:11:29Z</time>
      </trkpt>
      <trkpt lat="42.24703" lon="-0.3173">
        <ele>1178.88</ele>
        <time>2026-01-11T11:11:32Z</time>
      </trkpt>
      <trkpt lat="42.24686" lon="-0.31724">
        <ele>1175.81</ele>
        <time>2026-01-11T11:11:42Z</time>
      </trkpt>
      <trkpt lat="42.24667" lon="-0.31717">
        <ele>1172.12</ele>
        <time>2026-01-11T11:11:54Z</time>
      </trkpt>
      <trkpt lat="42.24651" lon="-0.31709">
        <ele>1168.88</ele>
        <time>2026-01-11T11:12:04Z</time>
      </trkpt>
      <trkpt lat="42.24633" lon="-0.31702">
        <ele>1165.63</ele>
        <time>2026-01-11T11:12:15Z</time>
      </trkpt>
      <trkpt lat="42.24619" lon="-0.31697">
        <ele>1162.71</ele>
        <time>2026-01-11T11:12:24Z</time>
      </trkpt>
      <trkpt lat="42.24602" lon="-0.3169">
        <ele>1160.04</ele>
        <time>2026-01-11T11:12:36Z</time>
      </trkpt>
      <trkpt lat="42.24584" lon="-0.31682">
        <ele>1157.54</ele>
        <time>2026-01-11T11:12:49Z</time>
      </trkpt>
      <trkpt lat="42.24565" lon="-0.31674">
        <ele>1154.25</ele>
        <time>2026-01-11T11:13:02Z</time>
      </trkpt>
      <trkpt lat="42.24552" lon="-0.31668">
        <ele>1152.34</ele>
        <time>2026-01-11T11:13:12Z</time>
      </trkpt>
      <trkpt lat="42.24533" lon="-0.31657">
        <ele>1149.09</ele>
        <time>2026-01-11T11:13:25Z</time>
      </trkpt>
      <trkpt lat="42.24522" lon="-0.3165">
        <ele>1145.98</ele>
        <time>2026-01-11T11:13:33Z</time>
      </trkpt>
      <trkpt lat="42.24507" lon="-0.31642">
        <ele>1142.94</ele>
        <time>2026-01-11T11:13:46Z</time>
      </trkpt>
      <trkpt lat="42.24505" lon="-0.3164">
        <ele>1141.96</ele>
        <time>2026-01-11T11:13:48Z</time>
      </trkpt>
      <trkpt lat="42.24492" lon="-0.3163">
        <ele>1138.85</ele>
        <time>2026-01-11T11:13:57Z</time>
      </trkpt>
      <trkpt lat="42.24476" lon="-0.31621">
        <ele>1137.11</ele>
        <time>2026-01-11T11:14:10Z</time>
      </trkpt>
      <trkpt lat="42.24477" lon="-0.31612">
        <ele>1136.38</ele>
        <time>2026-01-11T11:14:26Z</time>
      </trkpt>
      <trkpt lat="42.24478" lon="-0.31608">
        <ele>1136.58</ele>
        <time>2026-01-11T11:14:37Z</time>
      </trkpt>
      <trkpt lat="42.24475" lon="-0.31605">
        <ele>1135.76</ele>
        <time>2026-01-11T11:14:40Z</time>
      </trkpt>
      <trkpt lat="42.24471" lon="-0.31601">
        <ele>1134.91</ele>
        <time>2026-01-11T11:14:44Z</time>
      </trkpt>
      <trkpt lat="42.24463" lon="-0.31594">
        <ele>1134.24</ele>
        <time>2026-01-11T11:14:50Z</time>
      </trkpt>
      <trkpt lat="42.24462" lon="-0.31593">
        <ele>1133.99</ele>
        <time>2026-01-11T11:14:51Z</time>
      </trkpt>
      <trkpt lat="42.24451" lon="-0.31583">
        <ele>1130.06</ele>
        <time>2026-01-11T11:15:00Z</time>
      </trkpt>
      <trkpt lat="42.24439" lon="-0.31571">
        <ele>1127.01</ele>
        <time>2026-01-11T11:15:11Z</time>
      </trkpt>
      <trkpt lat="42.24429" lon="-0.31562">
        <ele>1124.68</ele>
        <time>2026-01-11T11:15:20Z</time>
      </trkpt>
      <trkpt lat="42.24425" lon="-0.31555">
        <ele>1124</ele>
        <time>2026-01-11T11:15:35Z</time>
      </trkpt>
      <trkpt lat="42.24425" lon="-0.31553">
        <ele>1122.49</ele>
        <time>2026-01-11T11:15:49Z</time>
      </trkpt>
      <trkpt lat="42.24422" lon="-0.31548">
        <ele>1123.38</ele>
        <time>2026-01-11T11:15:52Z</time>
      </trkpt>
      <trkpt lat="42.24411" lon="-0.31533">
        <ele>1119.91</ele>
        <time>2026-01-11T11:16:02Z</time>
      </trkpt>
      <trkpt lat="42.24395" lon="-0.31521">
        <ele>1116.8</ele>
        <time>2026-01-11T11:16:15Z</time>
      </trkpt>
      <trkpt lat="42.24385" lon="-0.31512">
        <ele>1113.72</ele>
        <time>2026-01-11T11:16:23Z</time>
      </trkpt>
      <trkpt lat="42.24376" lon="-0.315">
        <ele>1112.61</ele>
        <time>2026-01-11T11:16:37Z</time>
      </trkpt>
      <trkpt lat="42.24372" lon="-0.31495">
        <ele>1111.01</ele>
        <time>2026-01-11T11:16:41Z</time>
      </trkpt>
      <trkpt lat="42.24357" lon="-0.31479">
        <ele>1107.36</ele>
        <time>2026-01-11T11:16:53Z</time>
      </trkpt>
      <trkpt lat="42.24347" lon="-0.31466">
        <ele>1104.08</ele>
        <time>2026-01-11T11:17:06Z</time>
      </trkpt>
      <trkpt lat="42.24352" lon="-0.31462">
        <ele>1102.11</ele>
        <time>2026-01-11T11:17:12Z</time>
      </trkpt>
      <trkpt lat="42.24351" lon="-0.31459">
        <ele>1100.46</ele>
        <time>2026-01-11T11:17:15Z</time>
      </trkpt>
      <trkpt lat="42.24315" lon="-0.31435">
        <ele>1098.2</ele>
        <time>2026-01-11T11:17:35Z</time>
      </trkpt>
      <trkpt lat="42.24302" lon="-0.31423">
        <ele>1095.1</ele>
        <time>2026-01-11T11:17:43Z</time>
      </trkpt>
      <trkpt lat="42.24262" lon="-0.31401">
        <ele>1093.78</ele>
        <time>2026-01-11T11:18:04Z</time>
      </trkpt>
      <trkpt lat="42.24228" lon="-0.31377">
        <ele>1092.5</ele>
        <time>2026-01-11T11:18:24Z</time>
      </trkpt>
      <trkpt lat="42.24205" lon="-0.31344">
        <ele>1089.06</ele>
        <time>2026-01-11T11:18:41Z</time>
      </trkpt>
      <trkpt lat="42.24182" lon="-0.31307">
        <ele>1085.85</ele>
        <time>2026-01-11T11:18:59Z</time>
      </trkpt>
      <trkpt lat="42.24152" lon="-0.31273">
        <ele>1084.59</ele>
        <time>2026-01-11T11:19:19Z</time>
      </trkpt>
      <trkpt lat="42.24123" lon="-0.31254">
        <ele>1082.01</ele>
        <time>2026-01-11T11:19:36Z</time>
      </trkpt>
      <trkpt lat="42.24111" lon="-0.31281">
        <ele>1081.34</ele>
        <time>2026-01-11T11:19:51Z</time>
      </trkpt>
      <trkpt lat="42.24109" lon="-0.31285">
        <ele>1080.14</ele>
        <time>2026-01-11T11:20:00Z</time>
      </trkpt>
      <trkpt lat="42.24102" lon="-0.3131">
        <ele>1078.05</ele>
        <time>2026-01-11T11:20:12Z</time>
      </trkpt>
      <trkpt lat="42.24097" lon="-0.3131">
        <ele>1077.56</ele>
        <time>2026-01-11T11:20:16Z</time>
      </trkpt>
      <trkpt lat="42.24094" lon="-0.31305">
        <ele>1076.69</ele>
        <time>2026-01-11T11:20:19Z</time>
      </trkpt>
      <trkpt lat="42.24087" lon="-0.31291">
        <ele>1073.9</ele>
        <time>2026-01-11T11:20:27Z</time>
      </trkpt>
      <trkpt lat="42.24082" lon="-0.31277">
        <ele>1071.59</ele>
        <time>2026-01-11T11:20:34Z</time>
      </trkpt>
      <trkpt lat="42.24076" lon="-0.31259">
        <ele>1068.5</ele>
        <time>2026-01-11T11:20:42Z</time>
      </trkpt>
      <trkpt lat="42.24066" lon="-0.31237">
        <ele>1065.31</ele>
        <time>2026-01-11T11:20:53Z</time>
      </trkpt>
      <trkpt lat="42.24054" lon="-0.31214">
        <ele>1061.66</ele>
        <time>2026-01-11T11:21:04Z</time>
      </trkpt>
      <trkpt lat="42.24053" lon="-0.31212">
        <ele>1061.37</ele>
        <time>2026-01-11T11:21:05Z</time>
      </trkpt>
      <trkpt lat="42.24042" lon="-0.31192">
        <ele>1058.77</ele>
        <time>2026-01-11T11:21:15Z</time>
      </trkpt>
      <trkpt lat="42.24026" lon="-0.31175">
        <ele>1055.69</ele>
        <time>2026-01-11T11:21:26Z</time>
      </trkpt>
      <trkpt lat="42.24001" lon="-0.31161">
        <ele>1052.66</ele>
        <time>2026-01-11T11:21:41Z</time>
      </trkpt>
      <trkpt lat="42.23973" lon="-0.31168">
        <ele>1051.31</ele>
        <time>2026-01-11T11:22:01Z</time>
      </trkpt>
      <trkpt lat="42.23974" lon="-0.31168">
        <ele>1051.01</ele>
        <time>2026-01-11T11:22:16Z</time>
      </trkpt>
      <trkpt lat="42.23975" lon="-0.3117">
        <ele>1051.4</ele>
        <time>2026-01-11T11:22:37Z</time>
      </trkpt>
      <trkpt lat="42.23974" lon="-0.31169">
        <ele>1051.23</ele>
        <time>2026-01-11T11:22:46Z</time>
      </trkpt>
      <trkpt lat="42.23974" lon="-0.31161">
        <ele>1051.53</ele>
        <time>2026-01-11T11:23:01Z</time>
      </trkpt>
      <trkpt lat="42.23976" lon="-0.31166">
        <ele>1051.25</ele>
        <time>2026-01-11T11:23:05Z</time>
      </trkpt>
      <trkpt lat="42.23978" lon="-0.31173">
        <ele>1050.23</ele>
        <time>2026-01-11T11:23:09Z</time>
      </trkpt>
      <trkpt lat="42.23982" lon="-0.3123">
        <ele>1048.33</ele>
        <time>2026-01-11T11:23:31Z</time>
      </trkpt>
      <trkpt lat="42.23979" lon="-0.31272">
        <ele>1045.16</ele>
        <time>2026-01-11T11:23:47Z</time>
      </trkpt>
      <trkpt lat="42.2398" lon="-0.31315">
        <ele>1042.07</ele>
        <time>2026-01-11T11:24:03Z</time>
      </trkpt>
      <trkpt lat="42.23981" lon="-0.31334">
        <ele>1040.5</ele>
        <time>2026-01-11T11:24:10Z</time>
      </trkpt>
      <trkpt lat="42.23983" lon="-0.31376">
        <ele>1037.42</ele>
        <time>2026-01-11T11:24:26Z</time>
      </trkpt>
      <trkpt lat="42.23985" lon="-0.31404">
        <ele>1033.73</ele>
        <time>2026-01-11T11:24:37Z</time>
      </trkpt>
      <trkpt lat="42.23985" lon="-0.3141">
        <ele>1033.11</ele>
        <time>2026-01-11T11:24:39Z</time>
      </trkpt>
      <trkpt lat="42.23985" lon="-0.31423">
        <ele>1032.42</ele>
        <time>2026-01-11T11:24:44Z</time>
      </trkpt>
      <trkpt lat="42.23983" lon="-0.31447">
        <ele>1029.42</ele>
        <time>2026-01-11T11:24:53Z</time>
      </trkpt>
      <trkpt lat="42.23983" lon="-0.31449">
        <ele>1029.35</ele>
        <time>2026-01-11T11:24:54Z</time>
      </trkpt>
      <trkpt lat="42.23981" lon="-0.31478">
        <ele>1026.31</ele>
        <time>2026-01-11T11:25:05Z</time>
      </trkpt>
      <trkpt lat="42.23981" lon="-0.31485">
        <ele>1025.06</ele>
        <time>2026-01-11T11:25:08Z</time>
      </trkpt>
      <trkpt lat="42.23981" lon="-0.31511">
        <ele>1021.91</ele>
        <time>2026-01-11T11:25:18Z</time>
      </trkpt>
      <trkpt lat="42.23979" lon="-0.31538">
        <ele>1018.35</ele>
        <time>2026-01-11T11:25:29Z</time>
      </trkpt>
      <trkpt lat="42.23976" lon="-0.31568">
        <ele>1015.13</ele>
        <time>2026-01-11T11:25:41Z</time>
      </trkpt>
      <trkpt lat="42.23969" lon="-0.31599">
        <ele>1012</ele>
        <time>2026-01-11T11:25:54Z</time>
      </trkpt>
      <trkpt lat="42.23964" lon="-0.31634">
        <ele>1008.74</ele>
        <time>2026-01-11T11:26:08Z</time>
      </trkpt>
      <trkpt lat="42.23959" lon="-0.3167">
        <ele>1005.57</ele>
        <time>2026-01-11T11:26:22Z</time>
      </trkpt>
      <trkpt lat="42.23956" lon="-0.31689">
        <ele>1002.91</ele>
        <time>2026-01-11T11:26:29Z</time>
      </trkpt>
      <trkpt lat="42.23948" lon="-0.31725">
        <ele>999.83</ele>
        <time>2026-01-11T11:26:43Z</time>
      </trkpt>
      <trkpt lat="42.23947" lon="-0.3173">
        <ele>999.07</ele>
        <time>2026-01-11T11:26:45Z</time>
      </trkpt>
      <trkpt lat="42.23939" lon="-0.31758">
        <ele>995.9</ele>
        <time>2026-01-11T11:26:57Z</time>
      </trkpt>
      <trkpt lat="42.23928" lon="-0.3179">
        <ele>992.83</ele>
        <time>2026-01-11T11:27:11Z</time>
      </trkpt>
      <trkpt lat="42.23913" lon="-0.31815">
        <ele>989.72</ele>
        <time>2026-01-11T11:27:23Z</time>
      </trkpt>
      <trkpt lat="42.23893" lon="-0.3184">
        <ele>986.78</ele>
        <time>2026-01-11T11:27:37Z</time>
      </trkpt>
      <trkpt lat="42.23882" lon="-0.31857">
        <ele>984.22</ele>
        <time>2026-01-11T11:27:46Z</time>
      </trkpt>
      <trkpt lat="42.23865" lon="-0.3188">
        <ele>980.75</ele>
        <time>2026-01-11T11:27:59Z</time>
      </trkpt>
      <trkpt lat="42.23862" lon="-0.31883">
        <ele>979.99</ele>
        <time>2026-01-11T11:28:01Z</time>
      </trkpt>
      <trkpt lat="42.23853" lon="-0.31894">
        <ele>977.18</ele>
        <time>2026-01-11T11:28:08Z</time>
      </trkpt>
      <trkpt lat="42.23846" lon="-0.31907">
        <ele>974.07</ele>
        <time>2026-01-11T11:28:15Z</time>
      </trkpt>
      <trkpt lat="42.23839" lon="-0.31923">
        <ele>971.38</ele>
        <time>2026-01-11T11:28:23Z</time>
      </trkpt>
      <trkpt lat="42.23829" lon="-0.3194">
        <ele>968.26</ele>
        <time>2026-01-11T11:28:32Z</time>
      </trkpt>
      <trkpt lat="42.23821" lon="-0.31959">
        <ele>967.11</ele>
        <time>2026-01-11T11:28:48Z</time>
      </trkpt>
      <trkpt lat="42.2382" lon="-0.31958">
        <ele>967.2</ele>
        <time>2026-01-11T11:29:07Z</time>
      </trkpt>
      <trkpt lat="42.23818" lon="-0.3196">
        <ele>967.21</ele>
        <time>2026-01-11T11:29:29Z</time>
      </trkpt>
      <trkpt lat="42.23821" lon="-0.31961">
        <ele>966.4</ele>
        <time>2026-01-11T11:29:38Z</time>
      </trkpt>
      <trkpt lat="42.23823" lon="-0.31964">
        <ele>966.05</ele>
        <time>2026-01-11T11:29:40Z</time>
      </trkpt>
      <trkpt lat="42.23847" lon="-0.31979">
        <ele>966.05</ele>
        <time>2026-01-11T11:29:56Z</time>
      </trkpt>
      <trkpt lat="42.23877" lon="-0.31985">
        <ele>966.27</ele>
        <time>2026-01-11T11:30:12Z</time>
      </trkpt>
      <trkpt lat="42.23911" lon="-0.31991">
        <ele>968.15</ele>
        <time>2026-01-11T11:30:31Z</time>
      </trkpt>
      <trkpt lat="42.23937" lon="-0.31996">
        <ele>969.07</ele>
        <time>2026-01-11T11:30:46Z</time>
      </trkpt>
      <trkpt lat="42.23962" lon="-0.32008">
        <ele>970.49</ele>
        <time>2026-01-11T11:31:02Z</time>
      </trkpt>
      <trkpt lat="42.2399" lon="-0.32018">
        <ele>973.73</ele>
        <time>2026-01-11T11:31:21Z</time>
      </trkpt>
      <trkpt lat="42.24012" lon="-0.32028">
        <ele>977.18</ele>
        <time>2026-01-11T11:31:37Z</time>
      </trkpt>
      <trkpt lat="42.24027" lon="-0.32041">
        <ele>977.16</ele>
        <time>2026-01-11T11:31:52Z</time>
      </trkpt>
      <trkpt lat="42.24044" lon="-0.32064">
        <ele>977.62</ele>
        <time>2026-01-11T11:32:08Z</time>
      </trkpt>
      <trkpt lat="42.24056" lon="-0.32084">
        <ele>977.56</ele>
        <time>2026-01-11T11:32:22Z</time>
      </trkpt>
      <trkpt lat="42.24056" lon="-0.32091">
        <ele>976.91</ele>
        <time>2026-01-11T11:32:36Z</time>
      </trkpt>
      <trkpt lat="42.24055" lon="-0.32096">
        <ele>976.76</ele>
        <time>2026-01-11T11:32:39Z</time>
      </trkpt>
      <trkpt lat="42.24056" lon="-0.32106">
        <ele>975.41</ele>
        <time>2026-01-11T11:32:44Z</time>
      </trkpt>
      <trkpt lat="42.24072" lon="-0.32121">
        <ele>978.32</ele>
        <time>2026-01-11T11:32:58Z</time>
      </trkpt>
      <trkpt lat="42.24097" lon="-0.32162">
        <ele>977.85</ele>
        <time>2026-01-11T11:33:20Z</time>
      </trkpt>
      <trkpt lat="42.24114" lon="-0.32183">
        <ele>981.19</ele>
        <time>2026-01-11T11:33:35Z</time>
      </trkpt>
      <trkpt lat="42.24126" lon="-0.32211">
        <ele>982</ele>
        <time>2026-01-11T11:33:50Z</time>
      </trkpt>
      <trkpt lat="42.24145" lon="-0.32248">
        <ele>983.76</ele>
        <time>2026-01-11T11:34:10Z</time>
      </trkpt>
      <trkpt lat="42.2415" lon="-0.32257">
        <ele>984.74</ele>
        <time>2026-01-11T11:34:15Z</time>
      </trkpt>
      <trkpt lat="42.24168" lon="-0.32279">
        <ele>985.12</ele>
        <time>2026-01-11T11:34:30Z</time>
      </trkpt>
      <trkpt lat="42.24189" lon="-0.32294">
        <ele>988.66</ele>
        <time>2026-01-11T11:34:46Z</time>
      </trkpt>
      <trkpt lat="42.24198" lon="-0.32299">
        <ele>989.33</ele>
        <time>2026-01-11T11:34:52Z</time>
      </trkpt>
      <trkpt lat="42.24222" lon="-0.3232">
        <ele>989.5</ele>
        <time>2026-01-11T11:35:09Z</time>
      </trkpt>
      <trkpt lat="42.24224" lon="-0.32323">
        <ele>989.37</ele>
        <time>2026-01-11T11:35:11Z</time>
      </trkpt>
      <trkpt lat="42.24243" lon="-0.32344">
        <ele>991.97</ele>
        <time>2026-01-11T11:35:26Z</time>
      </trkpt>
      <trkpt lat="42.24264" lon="-0.32368">
        <ele>994.24</ele>
        <time>2026-01-11T11:35:43Z</time>
      </trkpt>
      <trkpt lat="42.24282" lon="-0.32386">
        <ele>996.54</ele>
        <time>2026-01-11T11:35:58Z</time>
      </trkpt>
      <trkpt lat="42.24294" lon="-0.32397">
        <ele>998.34</ele>
        <time>2026-01-11T11:36:11Z</time>
      </trkpt>
      <trkpt lat="42.24322" lon="-0.32413">
        <ele>1001.73</ele>
        <time>2026-01-11T11:36:31Z</time>
      </trkpt>
      <trkpt lat="42.24352" lon="-0.32426">
        <ele>1004.56</ele>
        <time>2026-01-11T11:36:48Z</time>
      </trkpt>
      <trkpt lat="42.24375" lon="-0.32435">
        <ele>1006.48</ele>
        <time>2026-01-11T11:37:03Z</time>
      </trkpt>
      <trkpt lat="42.24393" lon="-0.32442">
        <ele>1009.48</ele>
        <time>2026-01-11T11:37:16Z</time>
      </trkpt>
      <trkpt lat="42.24415" lon="-0.3245">
        <ele>1012.69</ele>
        <time>2026-01-11T11:37:31Z</time>
      </trkpt>
      <trkpt lat="42.24438" lon="-0.32456">
        <ele>1014.21</ele>
        <time>2026-01-11T11:37:47Z</time>
      </trkpt>
      <trkpt lat="42.24457" lon="-0.32464">
        <ele>1015.89</ele>
        <time>2026-01-11T11:38:02Z</time>
      </trkpt>
      <trkpt lat="42.24463" lon="-0.32472">
        <ele>1017.58</ele>
        <time>2026-01-11T11:38:09Z</time>
      </trkpt>
      <trkpt lat="42.24491" lon="-0.32495">
        <ele>1020.03</ele>
        <time>2026-01-11T11:38:30Z</time>
      </trkpt>
      <trkpt lat="42.2451" lon="-0.32517">
        <ele>1022.43</ele>
        <time>2026-01-11T11:38:45Z</time>
      </trkpt>
      <trkpt lat="42.24527" lon="-0.32535">
        <ele>1025.74</ele>
        <time>2026-01-11T11:38:58Z</time>
      </trkpt>
      <trkpt lat="42.24541" lon="-0.32553">
        <ele>1028.8</ele>
        <time>2026-01-11T11:39:15Z</time>
      </trkpt>
      <trkpt lat="42.24563" lon="-0.32564">
        <ele>1031.99</ele>
        <time>2026-01-11T11:39:32Z</time>
      </trkpt>
      <trkpt lat="42.24568" lon="-0.32567">
        <ele>1032.31</ele>
        <time>2026-01-11T11:39:36Z</time>
      </trkpt>
      <trkpt lat="42.24579" lon="-0.32573">
        <ele>1034.54</ele>
        <time>2026-01-11T11:39:45Z</time>
      </trkpt>
      <trkpt lat="42.24587" lon="-0.32581">
        <ele>1037.64</ele>
        <time>2026-01-11T11:39:54Z</time>
      </trkpt>
      <trkpt lat="42.24602" lon="-0.32585">
        <ele>1038.26</ele>
        <time>2026-01-11T11:40:03Z</time>
      </trkpt>
      <trkpt lat="42.24609" lon="-0.32589">
        <ele>1036.97</ele>
        <time>2026-01-11T11:40:06Z</time>
      </trkpt>
      <trkpt lat="42.24632" lon="-0.32594">
        <ele>1036.24</ele>
        <time>2026-01-11T11:40:21Z</time>
      </trkpt>
      <trkpt lat="42.24638" lon="-0.32595">
        <ele>1036.63</ele>
        <time>2026-01-11T11:40:25Z</time>
      </trkpt>
      <trkpt lat="42.24664" lon="-0.32598">
        <ele>1035.09</ele>
        <time>2026-01-11T11:40:41Z</time>
      </trkpt>
      <trkpt lat="42.24689" lon="-0.326">
        <ele>1034.07</ele>
        <time>2026-01-11T11:40:56Z</time>
      </trkpt>
      <trkpt lat="42.24708" lon="-0.32612">
        <ele>1033.69</ele>
        <time>2026-01-11T11:41:09Z</time>
      </trkpt>
      <trkpt lat="42.24734" lon="-0.32626">
        <ele>1030.28</ele>
        <time>2026-01-11T11:41:25Z</time>
      </trkpt>
      <trkpt lat="42.24736" lon="-0.32627">
        <ele>1034.69</ele>
        <time>2026-01-11T11:41:26Z</time>
      </trkpt>
      <trkpt lat="42.24751" lon="-0.32637">
        <ele>1034.06</ele>
        <time>2026-01-11T11:41:36Z</time>
      </trkpt>
      <trkpt lat="42.24761" lon="-0.32642">
        <ele>1033.38</ele>
        <time>2026-01-11T11:41:43Z</time>
      </trkpt>
      <trkpt lat="42.24764" lon="-0.32643">
        <ele>1032.65</ele>
        <time>2026-01-11T11:41:45Z</time>
      </trkpt>
      <trkpt lat="42.24766" lon="-0.32644">
        <ele>1032.09</ele>
        <time>2026-01-11T11:41:46Z</time>
      </trkpt>
      <trkpt lat="42.24772" lon="-0.32647">
        <ele>1032.27</ele>
        <time>2026-01-11T11:41:50Z</time>
      </trkpt>
      <trkpt lat="42.24794" lon="-0.32662">
        <ele>1031.74</ele>
        <time>2026-01-11T11:42:05Z</time>
      </trkpt>
      <trkpt lat="42.24813" lon="-0.32683">
        <ele>1031</ele>
        <time>2026-01-11T11:42:20Z</time>
      </trkpt>
      <trkpt lat="42.2484" lon="-0.32706">
        <ele>1029.72</ele>
        <time>2026-01-11T11:42:37Z</time>
      </trkpt>
      <trkpt lat="42.24846" lon="-0.3271">
        <ele>1029.63</ele>
        <time>2026-01-11T11:42:50Z</time>
      </trkpt>
      <trkpt lat="42.2485" lon="-0.32713">
        <ele>1028.65</ele>
        <time>2026-01-11T11:43:13Z</time>
      </trkpt>
      <trkpt lat="42.24854" lon="-0.32716">
        <ele>1029.22</ele>
        <time>2026-01-11T11:43:16Z</time>
      </trkpt>
      <trkpt lat="42.24861" lon="-0.32721">
        <ele>1028.24</ele>
        <time>2026-01-11T11:43:21Z</time>
      </trkpt>
      <trkpt lat="42.24882" lon="-0.32741">
        <ele>1027.43</ele>
        <time>2026-01-11T11:43:36Z</time>
      </trkpt>
      <trkpt lat="42.24899" lon="-0.32754">
        <ele>1027.74</ele>
        <time>2026-01-11T11:43:48Z</time>
      </trkpt>
      <trkpt lat="42.2491" lon="-0.3277">
        <ele>1026.24</ele>
        <time>2026-01-11T11:43:58Z</time>
      </trkpt>
      <trkpt lat="42.24911" lon="-0.32775">
        <ele>1028.31</ele>
        <time>2026-01-11T11:44:01Z</time>
      </trkpt>
      <trkpt lat="42.24914" lon="-0.32781">
        <ele>1026.61</ele>
        <time>2026-01-11T11:44:04Z</time>
      </trkpt>
      <trkpt lat="42.24919" lon="-0.32791">
        <ele>1025.87</ele>
        <time>2026-01-11T11:44:09Z</time>
      </trkpt>
      <trkpt lat="42.2493" lon="-0.32819">
        <ele>1026.11</ele>
        <time>2026-01-11T11:44:22Z</time>
      </trkpt>
      <trkpt lat="42.24935" lon="-0.32824">
        <ele>1025.73</ele>
        <time>2026-01-11T11:44:36Z</time>
      </trkpt>
      <trkpt lat="42.24935" lon="-0.32822">
        <ele>1025.39</ele>
        <time>2026-01-11T11:45:10Z</time>
      </trkpt>
      <trkpt lat="42.24935" lon="-0.32822">
        <ele>1025.26</ele>
        <time>2026-01-11T11:45:37Z</time>
      </trkpt>
      <trkpt lat="42.24938" lon="-0.32822">
        <ele>1025</ele>
        <time>2026-01-11T11:45:52Z</time>
      </trkpt>
      <trkpt lat="42.2495" lon="-0.32809">
        <ele>1020.86</ele>
        <time>2026-01-11T11:46:02Z</time>
      </trkpt>
      <trkpt lat="42.24952" lon="-0.32805">
        <ele>1018.61</ele>
        <time>2026-01-11T11:46:13Z</time>
      </trkpt>
      <trkpt lat="42.2495" lon="-0.32809">
        <ele>1018.9</ele>
        <time>2026-01-11T11:46:43Z</time>
      </trkpt>
      <trkpt lat="42.24951" lon="-0.32806">
        <ele>1019.1</ele>
        <time>2026-01-11T11:46:56Z</time>
      </trkpt>
      <trkpt lat="42.24954" lon="-0.32803">
        <ele>1017.76</ele>
        <time>2026-01-11T11:47:00Z</time>
      </trkpt>
      <trkpt lat="42.24958" lon="-0.32802">
        <ele>1017.19</ele>
        <time>2026-01-11T11:47:02Z</time>
      </trkpt>
      <trkpt lat="42.24967" lon="-0.32799">
        <ele>1012.97</ele>
        <time>2026-01-11T11:47:09Z</time>
      </trkpt>
      <trkpt lat="42.24967" lon="-0.32798">
        <ele>1012.68</ele>
        <time>2026-01-11T11:47:10Z</time>
      </trkpt>
      <trkpt lat="42.24972" lon="-0.32795">
        <ele>1010.26</ele>
        <time>2026-01-11T11:47:15Z</time>
      </trkpt>
      <trkpt lat="42.24976" lon="-0.32795">
        <ele>1008.47</ele>
        <time>2026-01-11T11:47:19Z</time>
      </trkpt>
      <trkpt lat="42.2498" lon="-0.32796">
        <ele>1006.75</ele>
        <time>2026-01-11T11:47:22Z</time>
      </trkpt>
      <trkpt lat="42.24983" lon="-0.32798">
        <ele>1005.07</ele>
        <time>2026-01-11T11:47:26Z</time>
      </trkpt>
      <trkpt lat="42.2499" lon="-0.32805">
        <ele>1001.92</ele>
        <time>2026-01-11T11:47:44Z</time>
      </trkpt>
      <trkpt lat="42.24993" lon="-0.3281">
        <ele>998.68</ele>
        <time>2026-01-11T11:47:50Z</time>
      </trkpt>
      <trkpt lat="42.24995" lon="-0.32815">
        <ele>996.53</ele>
        <time>2026-01-11T11:47:53Z</time>
      </trkpt>
      <trkpt lat="42.25" lon="-0.3282">
        <ele>994.54</ele>
        <time>2026-01-11T11:47:59Z</time>
      </trkpt>
      <trkpt lat="42.25006" lon="-0.32825">
        <ele>991.38</ele>
        <time>2026-01-11T11:48:08Z</time>
      </trkpt>
      <trkpt lat="42.25012" lon="-0.32828">
        <ele>989.93</ele>
        <time>2026-01-11T11:48:12Z</time>
      </trkpt>
      <trkpt lat="42.25022" lon="-0.32833">
        <ele>986.87</ele>
        <time>2026-01-11T11:48:19Z</time>
      </trkpt>
      <trkpt lat="42.25033" lon="-0.32841">
        <ele>983.68</ele>
        <time>2026-01-11T11:48:26Z</time>
      </trkpt>
      <trkpt lat="42.25041" lon="-0.32848">
        <ele>980.45</ele>
        <time>2026-01-11T11:48:33Z</time>
      </trkpt>
      <trkpt lat="42.25048" lon="-0.32852">
        <ele>979.66</ele>
        <time>2026-01-11T11:48:37Z</time>
      </trkpt>
      <trkpt lat="42.2505" lon="-0.32856">
        <ele>978.27</ele>
        <time>2026-01-11T11:48:40Z</time>
      </trkpt>
      <trkpt lat="42.25058" lon="-0.32866">
        <ele>974.98</ele>
        <time>2026-01-11T11:48:46Z</time>
      </trkpt>
      <trkpt lat="42.25061" lon="-0.32869">
        <ele>974.25</ele>
        <time>2026-01-11T11:48:48Z</time>
      </trkpt>
      <trkpt lat="42.25063" lon="-0.32871">
        <ele>973.57</ele>
        <time>2026-01-11T11:48:50Z</time>
      </trkpt>
      <trkpt lat="42.25064" lon="-0.32872">
        <ele>972.46</ele>
        <time>2026-01-11T11:48:52Z</time>
      </trkpt>
      <trkpt lat="42.25069" lon="-0.32877">
        <ele>970.75</ele>
        <time>2026-01-11T11:48:56Z</time>
      </trkpt>
      <trkpt lat="42.25077" lon="-0.32884">
        <ele>967.1</ele>
        <time>2026-01-11T11:49:03Z</time>
      </trkpt>
      <trkpt lat="42.25078" lon="-0.32886">
        <ele>967.22</ele>
        <time>2026-01-11T11:49:04Z</time>
      </trkpt>
      <trkpt lat="42.25084" lon="-0.32896">
        <ele>964</ele>
        <time>2026-01-11T11:49:11Z</time>
      </trkpt>
      <trkpt lat="42.25091" lon="-0.32904">
        <ele>960.83</ele>
        <time>2026-01-11T11:49:16Z</time>
      </trkpt>
      <trkpt lat="42.25092" lon="-0.32906">
        <ele>960.52</ele>
        <time>2026-01-11T11:49:17Z</time>
      </trkpt>
      <trkpt lat="42.25095" lon="-0.3291">
        <ele>958.74</ele>
        <time>2026-01-11T11:49:20Z</time>
      </trkpt>
      <trkpt lat="42.251" lon="-0.32915">
        <ele>956.98</ele>
        <time>2026-01-11T11:49:24Z</time>
      </trkpt>
      <trkpt lat="42.25103" lon="-0.32917">
        <ele>955.59</ele>
        <time>2026-01-11T11:49:27Z</time>
      </trkpt>
      <trkpt lat="42.25112" lon="-0.32923">
        <ele>955.51</ele>
        <time>2026-01-11T11:49:55Z</time>
      </trkpt>
      <trkpt lat="42.25115" lon="-0.32929">
        <ele>952.22</ele>
        <time>2026-01-11T11:50:04Z</time>
      </trkpt>
      <trkpt lat="42.25117" lon="-0.32932">
        <ele>951.15</ele>
        <time>2026-01-11T11:50:06Z</time>
      </trkpt>
      <trkpt lat="42.25125" lon="-0.3294">
        <ele>948.45</ele>
        <time>2026-01-11T11:50:12Z</time>
      </trkpt>
      <trkpt lat="42.25132" lon="-0.32946">
        <ele>944.28</ele>
        <time>2026-01-11T11:50:19Z</time>
      </trkpt>
      <trkpt lat="42.25134" lon="-0.32948">
        <ele>943.72</ele>
        <time>2026-01-11T11:50:21Z</time>
      </trkpt>
      <trkpt lat="42.25138" lon="-0.32954">
        <ele>940.43</ele>
        <time>2026-01-11T11:50:27Z</time>
      </trkpt>
      <trkpt lat="42.25144" lon="-0.32961">
        <ele>936.93</ele>
        <time>2026-01-11T11:50:33Z</time>
      </trkpt>
      <trkpt lat="42.25148" lon="-0.32966">
        <ele>933.66</ele>
        <time>2026-01-11T11:50:44Z</time>
      </trkpt>
      <trkpt lat="42.25151" lon="-0.32969">
        <ele>934.31</ele>
        <time>2026-01-11T11:50:48Z</time>
      </trkpt>
      <trkpt lat="42.25155" lon="-0.32973">
        <ele>932.53</ele>
        <time>2026-01-11T11:50:51Z</time>
      </trkpt>
      <trkpt lat="42.25162" lon="-0.32981">
        <ele>928.89</ele>
        <time>2026-01-11T11:50:57Z</time>
      </trkpt>
      <trkpt lat="42.25164" lon="-0.32983">
        <ele>927.52</ele>
        <time>2026-01-11T11:50:59Z</time>
      </trkpt>
      <trkpt lat="42.25167" lon="-0.32987">
        <ele>926.44</ele>
        <time>2026-01-11T11:51:01Z</time>
      </trkpt>
      <trkpt lat="42.2517" lon="-0.32996">
        <ele>923.21</ele>
        <time>2026-01-11T11:51:08Z</time>
      </trkpt>
      <trkpt lat="42.25174" lon="-0.33001">
        <ele>920.17</ele>
        <time>2026-01-11T11:51:13Z</time>
      </trkpt>
      <trkpt lat="42.25174" lon="-0.33002">
        <ele>920.15</ele>
        <time>2026-01-11T11:51:14Z</time>
      </trkpt>
      <trkpt lat="42.25176" lon="-0.33004">
        <ele>918.96</ele>
        <time>2026-01-11T11:51:16Z</time>
      </trkpt>
      <trkpt lat="42.25182" lon="-0.33012">
        <ele>915.45</ele>
        <time>2026-01-11T11:51:23Z</time>
      </trkpt>
      <trkpt lat="42.25183" lon="-0.33016">
        <ele>914.02</ele>
        <time>2026-01-11T11:51:26Z</time>
      </trkpt>
      <trkpt lat="42.25185" lon="-0.33025">
        <ele>911.53</ele>
        <time>2026-01-11T11:51:31Z</time>
      </trkpt>
      <trkpt lat="42.25188" lon="-0.33033">
        <ele>908.09</ele>
        <time>2026-01-11T11:51:38Z</time>
      </trkpt>
      <trkpt lat="42.25192" lon="-0.33038">
        <ele>905.59</ele>
        <time>2026-01-11T11:51:45Z</time>
      </trkpt>
      <trkpt lat="42.25193" lon="-0.33041">
        <ele>904.32</ele>
        <time>2026-01-11T11:51:47Z</time>
      </trkpt>
      <trkpt lat="42.25196" lon="-0.33043">
        <ele>902.85</ele>
        <time>2026-01-11T11:51:50Z</time>
      </trkpt>
      <trkpt lat="42.25197" lon="-0.33046">
        <ele>901.35</ele>
        <time>2026-01-11T11:51:52Z</time>
      </trkpt>
      <trkpt lat="42.25201" lon="-0.33053">
        <ele>899.57</ele>
        <time>2026-01-11T11:51:57Z</time>
      </trkpt>
      <trkpt lat="42.25203" lon="-0.33063">
        <ele>896.21</ele>
        <time>2026-01-11T11:52:05Z</time>
      </trkpt>
      <trkpt lat="42.25205" lon="-0.33069">
        <ele>894.23</ele>
        <time>2026-01-11T11:52:11Z</time>
      </trkpt>
      <trkpt lat="42.25207" lon="-0.33074">
        <ele>892.47</ele>
        <time>2026-01-11T11:52:16Z</time>
      </trkpt>
      <trkpt lat="42.2521" lon="-0.33077">
        <ele>891.19</ele>
        <time>2026-01-11T11:52:20Z</time>
      </trkpt>
      <trkpt lat="42.25223" lon="-0.33082">
        <ele>891.19</ele>
        <time>2026-01-11T11:52:26Z</time>
      </trkpt>
      <trkpt lat="42.25238" lon="-0.33077">
        <ele>892.1</ele>
        <time>2026-01-11T11:52:36Z</time>
      </trkpt>
      <trkpt lat="42.2525" lon="-0.33087">
        <ele>891.09</ele>
        <time>2026-01-11T11:52:50Z</time>
      </trkpt>
      <trkpt lat="42.25255" lon="-0.33091">
        <ele>890.04</ele>
        <time>2026-01-11T11:52:54Z</time>
      </trkpt>
      <trkpt lat="42.25263" lon="-0.33093">
        <ele>888.47</ele>
        <time>2026-01-11T11:52:59Z</time>
      </trkpt>
      <trkpt lat="42.25265" lon="-0.33096">
        <ele>888.09</ele>
        <time>2026-01-11T11:53:01Z</time>
      </trkpt>
      <trkpt lat="42.25265" lon="-0.33108">
        <ele>887.17</ele>
        <time>2026-01-11T11:53:19Z</time>
      </trkpt>
      <trkpt lat="42.25262" lon="-0.33111">
        <ele>885.65</ele>
        <time>2026-01-11T11:53:34Z</time>
      </trkpt>
      <trkpt lat="42.25255" lon="-0.33117">
        <ele>883.69</ele>
        <time>2026-01-11T11:53:43Z</time>
      </trkpt>
      <trkpt lat="42.25253" lon="-0.3312">
        <ele>883.69</ele>
        <time>2026-01-11T11:53:46Z</time>
      </trkpt>
      <trkpt lat="42.25241" lon="-0.33128">
        <ele>880.64</ele>
        <time>2026-01-11T11:54:00Z</time>
      </trkpt>
      <trkpt lat="42.25236" lon="-0.33132">
        <ele>879.99</ele>
        <time>2026-01-11T11:54:04Z</time>
      </trkpt>
      <trkpt lat="42.25228" lon="-0.33146">
        <ele>880.27</ele>
        <time>2026-01-11T11:54:18Z</time>
      </trkpt>
      <trkpt lat="42.25213" lon="-0.33175">
        <ele>877.06</ele>
        <time>2026-01-11T11:54:34Z</time>
      </trkpt>
      <trkpt lat="42.25212" lon="-0.33187">
        <ele>875.5</ele>
        <time>2026-01-11T11:54:38Z</time>
      </trkpt>
      <trkpt lat="42.25211" lon="-0.33207">
        <ele>873.04</ele>
        <time>2026-01-11T11:54:48Z</time>
      </trkpt>
      <trkpt lat="42.25227" lon="-0.33225">
        <ele>870.93</ele>
        <time>2026-01-11T11:54:54Z</time>
      </trkpt>
      <trkpt lat="42.2523" lon="-0.33241">
        <ele>868.17</ele>
        <time>2026-01-11T11:55:02Z</time>
      </trkpt>
      <trkpt lat="42.25242" lon="-0.33262">
        <ele>864.8</ele>
        <time>2026-01-11T11:55:14Z</time>
      </trkpt>
      <trkpt lat="42.25241" lon="-0.33264">
        <ele>861.94</ele>
        <time>2026-01-11T11:55:22Z</time>
      </trkpt>
      <trkpt lat="42.2524" lon="-0.33269">
        <ele>859.56</ele>
        <time>2026-01-11T11:55:30Z</time>
      </trkpt>
      <trkpt lat="42.25239" lon="-0.33275">
        <ele>858.37</ele>
        <time>2026-01-11T11:55:34Z</time>
      </trkpt>
      <trkpt lat="42.25238" lon="-0.33279">
        <ele>854.67</ele>
        <time>2026-01-11T11:55:40Z</time>
      </trkpt>
      <trkpt lat="42.25236" lon="-0.33284">
        <ele>852.03</ele>
        <time>2026-01-11T11:55:55Z</time>
      </trkpt>
      <trkpt lat="42.25231" lon="-0.33292">
        <ele>851.63</ele>
        <time>2026-01-11T11:55:59Z</time>
      </trkpt>
      <trkpt lat="42.25219" lon="-0.33305">
        <ele>850.04</ele>
        <time>2026-01-11T11:56:06Z</time>
      </trkpt>
      <trkpt lat="42.25204" lon="-0.33315">
        <ele>849.09</ele>
        <time>2026-01-11T11:56:19Z</time>
      </trkpt>
      <trkpt lat="42.25198" lon="-0.33328">
        <ele>846.52</ele>
        <time>2026-01-11T11:56:34Z</time>
      </trkpt>
      <trkpt lat="42.25195" lon="-0.33333">
        <ele>845.43</ele>
        <time>2026-01-11T11:56:38Z</time>
      </trkpt>
      <trkpt lat="42.2519" lon="-0.33344">
        <ele>846.82</ele>
        <time>2026-01-11T11:56:46Z</time>
      </trkpt>
      <trkpt lat="42.25186" lon="-0.33351">
        <ele>845.2</ele>
        <time>2026-01-11T11:56:51Z</time>
      </trkpt>
      <trkpt lat="42.25183" lon="-0.33357">
        <ele>844.76</ele>
        <time>2026-01-11T11:56:54Z</time>
      </trkpt>
      <trkpt lat="42.25181" lon="-0.33363">
        <ele>844.17</ele>
        <time>2026-01-11T11:56:57Z</time>
      </trkpt>
      <trkpt lat="42.25173" lon="-0.3337">
        <ele>841.51</ele>
        <time>2026-01-11T11:57:03Z</time>
      </trkpt>
      <trkpt lat="42.25166" lon="-0.33376">
        <ele>840.26</ele>
        <time>2026-01-11T11:57:08Z</time>
      </trkpt>
      <trkpt lat="42.25162" lon="-0.33377">
        <ele>838.31</ele>
        <time>2026-01-11T11:57:11Z</time>
      </trkpt>
      <trkpt lat="42.25154" lon="-0.33382">
        <ele>836.3</ele>
        <time>2026-01-11T11:57:19Z</time>
      </trkpt>
      <trkpt lat="42.25142" lon="-0.33393">
        <ele>833.14</ele>
        <time>2026-01-11T11:57:30Z</time>
      </trkpt>
      <trkpt lat="42.25136" lon="-0.33404">
        <ele>831.18</ele>
        <time>2026-01-11T11:57:38Z</time>
      </trkpt>
      <trkpt lat="42.25116" lon="-0.3344">
        <ele>828.51</ele>
        <time>2026-01-11T11:57:57Z</time>
      </trkpt>
      <trkpt lat="42.25113" lon="-0.33444">
        <ele>827.82</ele>
        <time>2026-01-11T11:57:59Z</time>
      </trkpt>
      <trkpt lat="42.25107" lon="-0.33453">
        <ele>826.53</ele>
        <time>2026-01-11T11:58:04Z</time>
      </trkpt>
      <trkpt lat="42.25104" lon="-0.33458">
        <ele>825.6</ele>
        <time>2026-01-11T11:58:07Z</time>
      </trkpt>
      <trkpt lat="42.25093" lon="-0.33471">
        <ele>825.43</ele>
        <time>2026-01-11T11:58:16Z</time>
      </trkpt>
      <trkpt lat="42.25088" lon="-0.33474">
        <ele>823.21</ele>
        <time>2026-01-11T11:58:20Z</time>
      </trkpt>
      <trkpt lat="42.25071" lon="-0.33474">
        <ele>822.1</ele>
        <time>2026-01-11T11:58:33Z</time>
      </trkpt>
      <trkpt lat="42.25063" lon="-0.33473">
        <ele>821.08</ele>
        <time>2026-01-11T11:58:38Z</time>
      </trkpt>
      <trkpt lat="42.25053" lon="-0.3347">
        <ele>820.37</ele>
        <time>2026-01-11T11:58:44Z</time>
      </trkpt>
      <trkpt lat="42.25038" lon="-0.33465">
        <ele>818.41</ele>
        <time>2026-01-11T11:58:53Z</time>
      </trkpt>
      <trkpt lat="42.25027" lon="-0.33463">
        <ele>815.99</ele>
        <time>2026-01-11T11:59:03Z</time>
      </trkpt>
      <trkpt lat="42.25019" lon="-0.33464">
        <ele>814.95</ele>
        <time>2026-01-11T11:59:08Z</time>
      </trkpt>
      <trkpt lat="42.25016" lon="-0.33467">
        <ele>814.46</ele>
        <time>2026-01-11T11:59:12Z</time>
      </trkpt>
      <trkpt lat="42.25012" lon="-0.33472">
        <ele>813.77</ele>
        <time>2026-01-11T11:59:16Z</time>
      </trkpt>
      <trkpt lat="42.25009" lon="-0.33475">
        <ele>814.24</ele>
        <time>2026-01-11T11:59:19Z</time>
      </trkpt>
      <trkpt lat="42.24998" lon="-0.33485">
        <ele>812.97</ele>
        <time>2026-01-11T11:59:27Z</time>
      </trkpt>
      <trkpt lat="42.24983" lon="-0.33492">
        <ele>811.5</ele>
        <time>2026-01-11T11:59:37Z</time>
      </trkpt>
      <trkpt lat="42.24967" lon="-0.33499">
        <ele>807.84</ele>
        <time>2026-01-11T11:59:48Z</time>
      </trkpt>
      <trkpt lat="42.24957" lon="-0.33509">
        <ele>805.77</ele>
        <time>2026-01-11T11:59:56Z</time>
      </trkpt>
      <trkpt lat="42.2495" lon="-0.33501">
        <ele>804.45</ele>
        <time>2026-01-11T12:00:00Z</time>
      </trkpt>
      <trkpt lat="42.24948" lon="-0.33502">
        <ele>804.25</ele>
        <time>2026-01-11T12:00:02Z</time>
      </trkpt>
      <trkpt lat="42.24943" lon="-0.33504">
        <ele>804.18</ele>
        <time>2026-01-11T12:00:06Z</time>
      </trkpt>
      <trkpt lat="42.2494" lon="-0.33514">
        <ele>803.72</ele>
        <time>2026-01-11T12:00:15Z</time>
      </trkpt>
      <trkpt lat="42.24941" lon="-0.3352">
        <ele>804.27</ele>
        <time>2026-01-11T12:00:18Z</time>
      </trkpt>
      <trkpt lat="42.24935" lon="-0.33537">
        <ele>800.24</ele>
        <time>2026-01-11T12:00:29Z</time>
      </trkpt>
      <trkpt lat="42.24933" lon="-0.33539">
        <ele>800.26</ele>
        <time>2026-01-11T12:00:31Z</time>
      </trkpt>
      <trkpt lat="42.24934" lon="-0.33545">
        <ele>798.28</ele>
        <time>2026-01-11T12:00:34Z</time>
      </trkpt>
      <trkpt lat="42.24934" lon="-0.33554">
        <ele>797.14</ele>
        <time>2026-01-11T12:00:38Z</time>
      </trkpt>
      <trkpt lat="42.24934" lon="-0.3356">
        <ele>795.49</ele>
        <time>2026-01-11T12:00:43Z</time>
      </trkpt>
      <trkpt lat="42.24941" lon="-0.33575">
        <ele>794.3</ele>
        <time>2026-01-11T12:00:53Z</time>
      </trkpt>
      <trkpt lat="42.24945" lon="-0.33582">
        <ele>794.03</ele>
        <time>2026-01-11T12:00:55Z</time>
      </trkpt>
      <trkpt lat="42.24952" lon="-0.33603">
        <ele>793.34</ele>
        <time>2026-01-11T12:01:05Z</time>
      </trkpt>
      <trkpt lat="42.24954" lon="-0.33626">
        <ele>790.56</ele>
        <time>2026-01-11T12:01:25Z</time>
      </trkpt>
      <trkpt lat="42.24963" lon="-0.33642">
        <ele>789.18</ele>
        <time>2026-01-11T12:01:35Z</time>
      </trkpt>
      <trkpt lat="42.24955" lon="-0.33676">
        <ele>786.93</ele>
        <time>2026-01-11T12:01:53Z</time>
      </trkpt>
      <trkpt lat="42.24949" lon="-0.33692">
        <ele>786.67</ele>
        <time>2026-01-11T12:02:02Z</time>
      </trkpt>
      <trkpt lat="42.24948" lon="-0.33694">
        <ele>786.42</ele>
        <time>2026-01-11T12:02:04Z</time>
      </trkpt>
      <trkpt lat="42.24924" lon="-0.33727">
        <ele>783.99</ele>
        <time>2026-01-11T12:02:27Z</time>
      </trkpt>
      <trkpt lat="42.24917" lon="-0.33729">
        <ele>784.13</ele>
        <time>2026-01-11T12:02:34Z</time>
      </trkpt>
      <trkpt lat="42.2491" lon="-0.33724">
        <ele>783.11</ele>
        <time>2026-01-11T12:02:39Z</time>
      </trkpt>
      <trkpt lat="42.24898" lon="-0.33699">
        <ele>781.96</ele>
        <time>2026-01-11T12:02:52Z</time>
      </trkpt>
      <trkpt lat="42.24896" lon="-0.33681">
        <ele>781.91</ele>
        <time>2026-01-11T12:02:56Z</time>
      </trkpt>
      <trkpt lat="42.24895" lon="-0.33658">
        <ele>781.1</ele>
        <time>2026-01-11T12:03:04Z</time>
      </trkpt>
      <trkpt lat="42.24879" lon="-0.33648">
        <ele>779.83</ele>
        <time>2026-01-11T12:03:17Z</time>
      </trkpt>
      <trkpt lat="42.24869" lon="-0.33645">
        <ele>778.66</ele>
        <time>2026-01-11T12:03:23Z</time>
      </trkpt>
      <trkpt lat="42.24863" lon="-0.33645">
        <ele>778.49</ele>
        <time>2026-01-11T12:03:27Z</time>
      </trkpt>
      <trkpt lat="42.24858" lon="-0.33645">
        <ele>778.64</ele>
        <time>2026-01-11T12:03:30Z</time>
      </trkpt>
      <trkpt lat="42.24839" lon="-0.33645">
        <ele>777.27</ele>
        <time>2026-01-11T12:03:44Z</time>
      </trkpt>
      <trkpt lat="42.24817" lon="-0.33642">
        <ele>776.61</ele>
        <time>2026-01-11T12:03:59Z</time>
      </trkpt>
      <trkpt lat="42.24812" lon="-0.33642">
        <ele>776.4</ele>
        <time>2026-01-11T12:04:02Z</time>
      </trkpt>
      <trkpt lat="42.24795" lon="-0.33627">
        <ele>776.27</ele>
        <time>2026-01-11T12:04:10Z</time>
      </trkpt>
      <trkpt lat="42.24786" lon="-0.33615">
        <ele>775.14</ele>
        <time>2026-01-11T12:04:15Z</time>
      </trkpt>
      <trkpt lat="42.24776" lon="-0.33613">
        <ele>775.75</ele>
        <time>2026-01-11T12:04:21Z</time>
      </trkpt>
      <trkpt lat="42.2477" lon="-0.33615">
        <ele>774.72</ele>
        <time>2026-01-11T12:04:25Z</time>
      </trkpt>
      <trkpt lat="42.24762" lon="-0.33625">
        <ele>774.77</ele>
        <time>2026-01-11T12:04:32Z</time>
      </trkpt>
      <trkpt lat="42.24756" lon="-0.33651">
        <ele>774.28</ele>
        <time>2026-01-11T12:04:46Z</time>
      </trkpt>
      <trkpt lat="42.24756" lon="-0.33674">
        <ele>773.18</ele>
        <time>2026-01-11T12:04:59Z</time>
      </trkpt>
      <trkpt lat="42.24753" lon="-0.33679">
        <ele>772.27</ele>
        <time>2026-01-11T12:05:03Z</time>
      </trkpt>
      <trkpt lat="42.24755" lon="-0.33687">
        <ele>772.73</ele>
        <time>2026-01-11T12:05:06Z</time>
      </trkpt>
      <trkpt lat="42.24755" lon="-0.33699">
        <ele>772.27</ele>
        <time>2026-01-11T12:05:12Z</time>
      </trkpt>
      <trkpt lat="42.24754" lon="-0.33702">
        <ele>772.39</ele>
        <time>2026-01-11T12:05:14Z</time>
      </trkpt>
      <trkpt lat="42.24754" lon="-0.33705">
        <ele>772.15</ele>
        <time>2026-01-11T12:05:16Z</time>
      </trkpt>
      <trkpt lat="42.24755" lon="-0.3371">
        <ele>771.21</ele>
        <time>2026-01-11T12:05:20Z</time>
      </trkpt>
      <trkpt lat="42.24756" lon="-0.33721">
        <ele>771.64</ele>
        <time>2026-01-11T12:05:26Z</time>
      </trkpt>
      <trkpt lat="42.24758" lon="-0.3373">
        <ele>771.24</ele>
        <time>2026-01-11T12:05:30Z</time>
      </trkpt>
      <trkpt lat="42.24758" lon="-0.33739">
        <ele>771.13</ele>
        <time>2026-01-11T12:05:34Z</time>
      </trkpt>
      <trkpt lat="42.24758" lon="-0.3375">
        <ele>770.5</ele>
        <time>2026-01-11T12:05:38Z</time>
      </trkpt>
      <trkpt lat="42.24749" lon="-0.33775">
        <ele>768.87</ele>
        <time>2026-01-11T12:05:52Z</time>
      </trkpt>
      <trkpt lat="42.24748" lon="-0.33777">
        <ele>768.97</ele>
        <time>2026-01-11T12:05:53Z</time>
      </trkpt>
      <trkpt lat="42.24751" lon="-0.3379">
        <ele>769.21</ele>
        <time>2026-01-11T12:06:00Z</time>
      </trkpt>
      <trkpt lat="42.24748" lon="-0.33798">
        <ele>768.28</ele>
        <time>2026-01-11T12:06:06Z</time>
      </trkpt>
      <trkpt lat="42.24745" lon="-0.33803">
        <ele>767.76</ele>
        <time>2026-01-11T12:06:10Z</time>
      </trkpt>
      <trkpt lat="42.24744" lon="-0.33808">
        <ele>767.4</ele>
        <time>2026-01-11T12:06:13Z</time>
      </trkpt>
      <trkpt lat="42.2474" lon="-0.33823">
        <ele>766.59</ele>
        <time>2026-01-11T12:06:21Z</time>
      </trkpt>
      <trkpt lat="42.24736" lon="-0.33846">
        <ele>766.69</ele>
        <time>2026-01-11T12:06:33Z</time>
      </trkpt>
      <trkpt lat="42.24736" lon="-0.33851">
        <ele>766.23</ele>
        <time>2026-01-11T12:06:35Z</time>
      </trkpt>
      <trkpt lat="42.24716" lon="-0.33877">
        <ele>765.09</ele>
        <time>2026-01-11T12:06:51Z</time>
      </trkpt>
      <trkpt lat="42.24715" lon="-0.33878">
        <ele>765.2</ele>
        <time>2026-01-11T12:06:53Z</time>
      </trkpt>
      <trkpt lat="42.24707" lon="-0.33881">
        <ele>764.61</ele>
        <time>2026-01-11T12:06:59Z</time>
      </trkpt>
      <trkpt lat="42.24694" lon="-0.33895">
        <ele>763.51</ele>
        <time>2026-01-11T12:07:10Z</time>
      </trkpt>
      <trkpt lat="42.24676" lon="-0.33912">
        <ele>763.15</ele>
        <time>2026-01-11T12:07:22Z</time>
      </trkpt>
      <trkpt lat="42.24667" lon="-0.33925">
        <ele>762.09</ele>
        <time>2026-01-11T12:07:32Z</time>
      </trkpt>
      <trkpt lat="42.24648" lon="-0.3392">
        <ele>760.62</ele>
        <time>2026-01-11T12:07:47Z</time>
      </trkpt>
      <trkpt lat="42.24626" lon="-0.33898">
        <ele>759.81</ele>
        <time>2026-01-11T12:08:04Z</time>
      </trkpt>
      <trkpt lat="42.24608" lon="-0.33869">
        <ele>758.96</ele>
        <time>2026-01-11T12:08:19Z</time>
      </trkpt>
      <trkpt lat="42.24593" lon="-0.3387">
        <ele>758.28</ele>
        <time>2026-01-11T12:08:29Z</time>
      </trkpt>
      <trkpt lat="42.24593" lon="-0.33871">
        <ele>758.07</ele>
        <time>2026-01-11T12:08:30Z</time>
      </trkpt>
      <trkpt lat="42.24586" lon="-0.33875">
        <ele>758.22</ele>
        <time>2026-01-11T12:08:35Z</time>
      </trkpt>
      <trkpt lat="42.24567" lon="-0.33885">
        <ele>757.02</ele>
        <time>2026-01-11T12:08:47Z</time>
      </trkpt>
      <trkpt lat="42.24555" lon="-0.33891">
        <ele>756.22</ele>
        <time>2026-01-11T12:08:59Z</time>
      </trkpt>
      <trkpt lat="42.2455" lon="-0.33893">
        <ele>756.38</ele>
        <time>2026-01-11T12:09:03Z</time>
      </trkpt>
      <trkpt lat="42.2454" lon="-0.33899">
        <ele>756.19</ele>
        <time>2026-01-11T12:09:10Z</time>
      </trkpt>
      <trkpt lat="42.24533" lon="-0.33897">
        <ele>755.71</ele>
        <time>2026-01-11T12:09:13Z</time>
      </trkpt>
      <trkpt lat="42.24524" lon="-0.33905">
        <ele>755.26</ele>
        <time>2026-01-11T12:09:21Z</time>
      </trkpt>
      <trkpt lat="42.24504" lon="-0.3389">
        <ele>754.13</ele>
        <time>2026-01-11T12:09:38Z</time>
      </trkpt>
      <trkpt lat="42.245" lon="-0.33881">
        <ele>753.68</ele>
        <time>2026-01-11T12:09:42Z</time>
      </trkpt>
      <trkpt lat="42.24491" lon="-0.33882">
        <ele>753.81</ele>
        <time>2026-01-11T12:09:48Z</time>
      </trkpt>
      <trkpt lat="42.24484" lon="-0.33885">
        <ele>752.72</ele>
        <time>2026-01-11T12:09:52Z</time>
      </trkpt>
      <trkpt lat="42.24465" lon="-0.33883">
        <ele>752.22</ele>
        <time>2026-01-11T12:10:04Z</time>
      </trkpt>
      <trkpt lat="42.24453" lon="-0.33885">
        <ele>752.32</ele>
        <time>2026-01-11T12:10:13Z</time>
      </trkpt>
      <trkpt lat="42.24445" lon="-0.33886">
        <ele>750.48</ele>
        <time>2026-01-11T12:10:19Z</time>
      </trkpt>
      <trkpt lat="42.24442" lon="-0.33883">
        <ele>750.06</ele>
        <time>2026-01-11T12:10:23Z</time>
      </trkpt>
      <trkpt lat="42.24422" lon="-0.33877">
        <ele>749.65</ele>
        <time>2026-01-11T12:10:37Z</time>
      </trkpt>
      <trkpt lat="42.2442" lon="-0.33876">
        <ele>749.42</ele>
        <time>2026-01-11T12:10:38Z</time>
      </trkpt>
      <trkpt lat="42.24398" lon="-0.33881">
        <ele>748.46</ele>
        <time>2026-01-11T12:10:53Z</time>
      </trkpt>
      <trkpt lat="42.24392" lon="-0.33888">
        <ele>748.63</ele>
        <time>2026-01-11T12:10:58Z</time>
      </trkpt>
      <trkpt lat="42.2438" lon="-0.33894">
        <ele>747.79</ele>
        <time>2026-01-11T12:11:06Z</time>
      </trkpt>
      <trkpt lat="42.24379" lon="-0.33895">
        <ele>747.32</ele>
        <time>2026-01-11T12:11:07Z</time>
      </trkpt>
      <trkpt lat="42.24364" lon="-0.33903">
        <ele>745.32</ele>
        <time>2026-01-11T12:11:19Z</time>
      </trkpt>
      <trkpt lat="42.24361" lon="-0.33906">
        <ele>746.42</ele>
        <time>2026-01-11T12:11:22Z</time>
      </trkpt>
      <trkpt lat="42.24359" lon="-0.33911">
        <ele>745.74</ele>
        <time>2026-01-11T12:11:25Z</time>
      </trkpt>
      <trkpt lat="42.24356" lon="-0.33915">
        <ele>745.27</ele>
        <time>2026-01-11T12:11:28Z</time>
      </trkpt>
      <trkpt lat="42.24335" lon="-0.33923">
        <ele>744.49</ele>
        <time>2026-01-11T12:11:43Z</time>
      </trkpt>
      <trkpt lat="42.24334" lon="-0.33924">
        <ele>743.29</ele>
        <time>2026-01-11T12:11:44Z</time>
      </trkpt>
      <trkpt lat="42.24325" lon="-0.33931">
        <ele>743.32</ele>
        <time>2026-01-11T12:11:53Z</time>
      </trkpt>
      <trkpt lat="42.2432" lon="-0.33937">
        <ele>743.03</ele>
        <time>2026-01-11T12:11:58Z</time>
      </trkpt>
      <trkpt lat="42.24311" lon="-0.33945">
        <ele>742.17</ele>
        <time>2026-01-11T12:12:05Z</time>
      </trkpt>
      <trkpt lat="42.24308" lon="-0.33957">
        <ele>741.14</ele>
        <time>2026-01-11T12:12:11Z</time>
      </trkpt>
      <trkpt lat="42.24306" lon="-0.33963">
        <ele>740.84</ele>
        <time>2026-01-11T12:12:15Z</time>
      </trkpt>
      <trkpt lat="42.24305" lon="-0.33966">
        <ele>739.35</ele>
        <time>2026-01-11T12:12:20Z</time>
      </trkpt>
      <trkpt lat="42.24305" lon="-0.3398">
        <ele>738.17</ele>
        <time>2026-01-11T12:12:29Z</time>
      </trkpt>
      <trkpt lat="42.24299" lon="-0.33994">
        <ele>737.4</ele>
        <time>2026-01-11T12:12:42Z</time>
      </trkpt>
      <trkpt lat="42.24301" lon="-0.33998">
        <ele>737.36</ele>
        <time>2026-01-11T12:12:45Z</time>
      </trkpt>
      <trkpt lat="42.24301" lon="-0.3401">
        <ele>735.85</ele>
        <time>2026-01-11T12:12:54Z</time>
      </trkpt>
      <trkpt lat="42.24307" lon="-0.34025">
        <ele>735.42</ele>
        <time>2026-01-11T12:13:03Z</time>
      </trkpt>
      <trkpt lat="42.2431" lon="-0.34046">
        <ele>733.89</ele>
        <time>2026-01-11T12:13:14Z</time>
      </trkpt>
      <trkpt lat="42.24312" lon="-0.34051">
        <ele>734.19</ele>
        <time>2026-01-11T12:13:17Z</time>
      </trkpt>
      <trkpt lat="42.24314" lon="-0.34061">
        <ele>733.97</ele>
        <time>2026-01-11T12:13:22Z</time>
      </trkpt>
      <trkpt lat="42.24321" lon="-0.34088">
        <ele>732.55</ele>
        <time>2026-01-11T12:13:35Z</time>
      </trkpt>
      <trkpt lat="42.24324" lon="-0.34093">
        <ele>732.88</ele>
        <time>2026-01-11T12:13:38Z</time>
      </trkpt>
      <trkpt lat="42.24322" lon="-0.34112">
        <ele>732.05</ele>
        <time>2026-01-11T12:13:47Z</time>
      </trkpt>
      <trkpt lat="42.2432" lon="-0.34117">
        <ele>731.91</ele>
        <time>2026-01-11T12:13:50Z</time>
      </trkpt>
      <trkpt lat="42.24307" lon="-0.34141">
        <ele>729.49</ele>
        <time>2026-01-11T12:14:05Z</time>
      </trkpt>
      <trkpt lat="42.24292" lon="-0.34148">
        <ele>728.57</ele>
        <time>2026-01-11T12:14:20Z</time>
      </trkpt>
      <trkpt lat="42.24292" lon="-0.34149">
        <ele>727.41</ele>
        <time>2026-01-11T12:14:22Z</time>
      </trkpt>
      <trkpt lat="42.24289" lon="-0.34159">
        <ele>726.11</ele>
        <time>2026-01-11T12:14:32Z</time>
      </trkpt>
      <trkpt lat="42.24271" lon="-0.34169">
        <ele>724.79</ele>
        <time>2026-01-11T12:14:46Z</time>
      </trkpt>
      <trkpt lat="42.24266" lon="-0.34173">
        <ele>723.71</ele>
        <time>2026-01-11T12:14:53Z</time>
      </trkpt>
      <trkpt lat="42.24263" lon="-0.34176">
        <ele>723.49</ele>
        <time>2026-01-11T12:14:56Z</time>
      </trkpt>
      <trkpt lat="42.24261" lon="-0.34178">
        <ele>723.81</ele>
        <time>2026-01-11T12:14:58Z</time>
      </trkpt>
      <trkpt lat="42.24254" lon="-0.34182">
        <ele>722.32</ele>
        <time>2026-01-11T12:15:06Z</time>
      </trkpt>
      <trkpt lat="42.24248" lon="-0.34187">
        <ele>722.03</ele>
        <time>2026-01-11T12:15:12Z</time>
      </trkpt>
      <trkpt lat="42.24246" lon="-0.34189">
        <ele>721.79</ele>
        <time>2026-01-11T12:15:14Z</time>
      </trkpt>
      <trkpt lat="42.24243" lon="-0.3419">
        <ele>721.13</ele>
        <time>2026-01-11T12:15:16Z</time>
      </trkpt>
      <trkpt lat="42.24234" lon="-0.34201">
        <ele>720.03</ele>
        <time>2026-01-11T12:15:28Z</time>
      </trkpt>
      <trkpt lat="42.24227" lon="-0.34215">
        <ele>719.42</ele>
        <time>2026-01-11T12:15:39Z</time>
      </trkpt>
      <trkpt lat="42.24227" lon="-0.34217">
        <ele>718.88</ele>
        <time>2026-01-11T12:15:40Z</time>
      </trkpt>
      <trkpt lat="42.24225" lon="-0.34229">
        <ele>717.83</ele>
        <time>2026-01-11T12:15:55Z</time>
      </trkpt>
      <trkpt lat="42.24225" lon="-0.34246">
        <ele>715.81</ele>
        <time>2026-01-11T12:16:11Z</time>
      </trkpt>
      <trkpt lat="42.24225" lon="-0.34255">
        <ele>714.36</ele>
        <time>2026-01-11T12:16:19Z</time>
      </trkpt>
      <trkpt lat="42.24225" lon="-0.34268">
        <ele>714.73</ele>
        <time>2026-01-11T12:16:37Z</time>
      </trkpt>
      <trkpt lat="42.24224" lon="-0.3427">
        <ele>715.24</ele>
        <time>2026-01-11T12:16:38Z</time>
      </trkpt>
      <trkpt lat="42.24223" lon="-0.3428">
        <ele>714.01</ele>
        <time>2026-01-11T12:16:44Z</time>
      </trkpt>
      <trkpt lat="42.24225" lon="-0.34292">
        <ele>713.48</ele>
        <time>2026-01-11T12:16:52Z</time>
      </trkpt>
      <trkpt lat="42.24224" lon="-0.34306">
        <ele>713.09</ele>
        <time>2026-01-11T12:16:59Z</time>
      </trkpt>
      <trkpt lat="42.24223" lon="-0.34317">
        <ele>712.49</ele>
        <time>2026-01-11T12:17:05Z</time>
      </trkpt>
      <trkpt lat="42.24222" lon="-0.34324">
        <ele>712.41</ele>
        <time>2026-01-11T12:17:09Z</time>
      </trkpt>
      <trkpt lat="42.2422" lon="-0.34327">
        <ele>712.41</ele>
        <time>2026-01-11T12:17:11Z</time>
      </trkpt>
      <trkpt lat="42.24218" lon="-0.34334">
        <ele>711.23</ele>
        <time>2026-01-11T12:17:16Z</time>
      </trkpt>
      <trkpt lat="42.24207" lon="-0.34353">
        <ele>710.53</ele>
        <time>2026-01-11T12:17:29Z</time>
      </trkpt>
      <trkpt lat="42.24203" lon="-0.34357">
        <ele>710.38</ele>
        <time>2026-01-11T12:17:32Z</time>
      </trkpt>
      <trkpt lat="42.24197" lon="-0.34373">
        <ele>709.23</ele>
        <time>2026-01-11T12:17:42Z</time>
      </trkpt>
      <trkpt lat="42.24193" lon="-0.34393">
        <ele>708.81</ele>
        <time>2026-01-11T12:17:55Z</time>
      </trkpt>
      <trkpt lat="42.24185" lon="-0.3442">
        <ele>707.02</ele>
        <time>2026-01-11T12:18:09Z</time>
      </trkpt>
      <trkpt lat="42.24181" lon="-0.34426">
        <ele>707.27</ele>
        <time>2026-01-11T12:18:12Z</time>
      </trkpt>
      <trkpt lat="42.24166" lon="-0.34429">
        <ele>706.54</ele>
        <time>2026-01-11T12:18:24Z</time>
      </trkpt>
      <trkpt lat="42.24163" lon="-0.34434">
        <ele>706.02</ele>
        <time>2026-01-11T12:18:28Z</time>
      </trkpt>
      <trkpt lat="42.2416" lon="-0.34438">
        <ele>705.28</ele>
        <time>2026-01-11T12:18:31Z</time>
      </trkpt>
      <trkpt lat="42.24136" lon="-0.34446">
        <ele>704.49</ele>
        <time>2026-01-11T12:18:48Z</time>
      </trkpt>
      <trkpt lat="42.24123" lon="-0.34453">
        <ele>702.54</ele>
        <time>2026-01-11T12:19:01Z</time>
      </trkpt>
      <trkpt lat="42.24117" lon="-0.34454">
        <ele>703.16</ele>
        <time>2026-01-11T12:19:06Z</time>
      </trkpt>
      <trkpt lat="42.24113" lon="-0.34457">
        <ele>703.06</ele>
        <time>2026-01-11T12:19:10Z</time>
      </trkpt>
      <trkpt lat="42.24106" lon="-0.34462">
        <ele>703.21</ele>
        <time>2026-01-11T12:19:20Z</time>
      </trkpt>
      <trkpt lat="42.241" lon="-0.34464">
        <ele>701.73</ele>
        <time>2026-01-11T12:19:24Z</time>
      </trkpt>
      <trkpt lat="42.24096" lon="-0.34466">
        <ele>701.21</ele>
        <time>2026-01-11T12:19:27Z</time>
      </trkpt>
      <trkpt lat="42.24094" lon="-0.34467">
        <ele>700.99</ele>
        <time>2026-01-11T12:19:29Z</time>
      </trkpt>
      <trkpt lat="42.24082" lon="-0.34463">
        <ele>699.92</ele>
        <time>2026-01-11T12:19:37Z</time>
      </trkpt>
      <trkpt lat="42.24074" lon="-0.34467">
        <ele>698.26</ele>
        <time>2026-01-11T12:19:48Z</time>
      </trkpt>
      <trkpt lat="42.24069" lon="-0.34472">
        <ele>697.13</ele>
        <time>2026-01-11T12:19:53Z</time>
      </trkpt>
      <trkpt lat="42.24068" lon="-0.34476">
        <ele>696.64</ele>
        <time>2026-01-11T12:20:09Z</time>
      </trkpt>
      <trkpt lat="42.24066" lon="-0.34479">
        <ele>696.17</ele>
        <time>2026-01-11T12:20:15Z</time>
      </trkpt>
      <trkpt lat="42.24061" lon="-0.34494">
        <ele>694.2</ele>
        <time>2026-01-11T12:20:30Z</time>
      </trkpt>
      <trkpt lat="42.24055" lon="-0.34513">
        <ele>694.06</ele>
        <time>2026-01-11T12:20:45Z</time>
      </trkpt>
      <trkpt lat="42.24056" lon="-0.34516">
        <ele>695.34</ele>
        <time>2026-01-11T12:20:48Z</time>
      </trkpt>
      <trkpt lat="42.24057" lon="-0.34521">
        <ele>695.07</ele>
        <time>2026-01-11T12:21:09Z</time>
      </trkpt>
      <trkpt lat="42.24056" lon="-0.3452">
        <ele>695.27</ele>
        <time>2026-01-11T12:21:16Z</time>
      </trkpt>
      <trkpt lat="42.24056" lon="-0.34512">
        <ele>693.97</ele>
        <time>2026-01-11T12:21:21Z</time>
      </trkpt>
      <trkpt lat="42.24061" lon="-0.34497">
        <ele>694.27</ele>
        <time>2026-01-11T12:21:35Z</time>
      </trkpt>
      <trkpt lat="42.24065" lon="-0.34486">
        <ele>696.08</ele>
        <time>2026-01-11T12:21:51Z</time>
      </trkpt>
      <trkpt lat="42.24067" lon="-0.34484">
        <ele>696.51</ele>
        <time>2026-01-11T12:21:53Z</time>
      </trkpt>
      <trkpt lat="42.24077" lon="-0.34474">
        <ele>699.34</ele>
        <time>2026-01-11T12:22:03Z</time>
      </trkpt>
      <trkpt lat="42.24084" lon="-0.3447">
        <ele>700.76</ele>
        <time>2026-01-11T12:22:09Z</time>
      </trkpt>
      <trkpt lat="42.24089" lon="-0.3447">
        <ele>700.43</ele>
        <time>2026-01-11T12:22:12Z</time>
      </trkpt>
      <trkpt lat="42.24091" lon="-0.3447">
        <ele>701.8</ele>
        <time>2026-01-11T12:22:14Z</time>
      </trkpt>
      <trkpt lat="42.24095" lon="-0.34468">
        <ele>701.91</ele>
        <time>2026-01-11T12:22:17Z</time>
      </trkpt>
      <trkpt lat="42.24112" lon="-0.34464">
        <ele>703.73</ele>
        <time>2026-01-11T12:22:30Z</time>
      </trkpt>
      <trkpt lat="42.24129" lon="-0.34455">
        <ele>704.18</ele>
        <time>2026-01-11T12:22:49Z</time>
      </trkpt>
      <trkpt lat="42.2414" lon="-0.34449">
        <ele>705.46</ele>
        <time>2026-01-11T12:22:59Z</time>
      </trkpt>
      <trkpt lat="42.24156" lon="-0.34443">
        <ele>705.42</ele>
        <time>2026-01-11T12:23:12Z</time>
      </trkpt>
      <trkpt lat="42.2416" lon="-0.34441">
        <ele>705.52</ele>
        <time>2026-01-11T12:23:16Z</time>
      </trkpt>
      <trkpt lat="42.24164" lon="-0.34435">
        <ele>706.95</ele>
        <time>2026-01-11T12:23:21Z</time>
      </trkpt>
      <trkpt lat="42.2417" lon="-0.34432">
        <ele>707.81</ele>
        <time>2026-01-11T12:23:27Z</time>
      </trkpt>
      <trkpt lat="42.24179" lon="-0.34428">
        <ele>707.66</ele>
        <time>2026-01-11T12:23:34Z</time>
      </trkpt>
      <trkpt lat="42.24188" lon="-0.34421">
        <ele>708.7</ele>
        <time>2026-01-11T12:23:46Z</time>
      </trkpt>
      <trkpt lat="42.24189" lon="-0.34413">
        <ele>710.01</ele>
        <time>2026-01-11T12:24:01Z</time>
      </trkpt>
      <trkpt lat="42.24188" lon="-0.3441">
        <ele>709.7</ele>
        <time>2026-01-11T12:24:20Z</time>
      </trkpt>
      <trkpt lat="42.24193" lon="-0.34396">
        <ele>709.92</ele>
        <time>2026-01-11T12:24:29Z</time>
      </trkpt>
      <trkpt lat="42.24193" lon="-0.34392">
        <ele>710.51</ele>
        <time>2026-01-11T12:24:32Z</time>
      </trkpt>
      <trkpt lat="42.24194" lon="-0.34386">
        <ele>710.51</ele>
        <time>2026-01-11T12:24:36Z</time>
      </trkpt>
      <trkpt lat="42.24195" lon="-0.34364">
        <ele>711.64</ele>
        <time>2026-01-11T12:24:48Z</time>
      </trkpt>
      <trkpt lat="42.24206" lon="-0.34351">
        <ele>712</ele>
        <time>2026-01-11T12:24:58Z</time>
      </trkpt>
      <trkpt lat="42.24211" lon="-0.34335">
        <ele>713</ele>
        <time>2026-01-11T12:25:07Z</time>
      </trkpt>
      <trkpt lat="42.24218" lon="-0.34322">
        <ele>713.69</ele>
        <time>2026-01-11T12:25:15Z</time>
      </trkpt>
      <trkpt lat="42.24219" lon="-0.34319">
        <ele>713.3</ele>
        <time>2026-01-11T12:25:17Z</time>
      </trkpt>
      <trkpt lat="42.24221" lon="-0.3431">
        <ele>713.93</ele>
        <time>2026-01-11T12:25:22Z</time>
      </trkpt>
      <trkpt lat="42.24222" lon="-0.34287">
        <ele>715.17</ele>
        <time>2026-01-11T12:25:36Z</time>
      </trkpt>
      <trkpt lat="42.24222" lon="-0.34276">
        <ele>715.45</ele>
        <time>2026-01-11T12:25:43Z</time>
      </trkpt>
      <trkpt lat="42.24225" lon="-0.3427">
        <ele>717.34</ele>
        <time>2026-01-11T12:25:48Z</time>
      </trkpt>
      <trkpt lat="42.24224" lon="-0.34265">
        <ele>717.3</ele>
        <time>2026-01-11T12:25:52Z</time>
      </trkpt>
      <trkpt lat="42.24224" lon="-0.34256">
        <ele>717.11</ele>
        <time>2026-01-11T12:26:04Z</time>
      </trkpt>
      <trkpt lat="42.24224" lon="-0.34247">
        <ele>717.99</ele>
        <time>2026-01-11T12:26:14Z</time>
      </trkpt>
      <trkpt lat="42.24225" lon="-0.34227">
        <ele>720.5</ele>
        <time>2026-01-11T12:26:33Z</time>
      </trkpt>
      <trkpt lat="42.24225" lon="-0.34224">
        <ele>721.02</ele>
        <time>2026-01-11T12:26:35Z</time>
      </trkpt>
      <trkpt lat="42.24232" lon="-0.34206">
        <ele>721.87</ele>
        <time>2026-01-11T12:26:48Z</time>
      </trkpt>
      <trkpt lat="42.24239" lon="-0.34192">
        <ele>724.15</ele>
        <time>2026-01-11T12:27:06Z</time>
      </trkpt>
      <trkpt lat="42.24244" lon="-0.34192">
        <ele>723.38</ele>
        <time>2026-01-11T12:27:20Z</time>
      </trkpt>
      <trkpt lat="42.24254" lon="-0.34182">
        <ele>724.7</ele>
        <time>2026-01-11T12:27:34Z</time>
      </trkpt>
      <trkpt lat="42.24256" lon="-0.34179">
        <ele>724.73</ele>
        <time>2026-01-11T12:27:37Z</time>
      </trkpt>
      <trkpt lat="42.24266" lon="-0.34172">
        <ele>726.04</ele>
        <time>2026-01-11T12:27:48Z</time>
      </trkpt>
      <trkpt lat="42.24268" lon="-0.34171">
        <ele>726.25</ele>
        <time>2026-01-11T12:27:50Z</time>
      </trkpt>
      <trkpt lat="42.24277" lon="-0.34164">
        <ele>726.64</ele>
        <time>2026-01-11T12:28:00Z</time>
      </trkpt>
      <trkpt lat="42.24279" lon="-0.34162">
        <ele>729.15</ele>
        <time>2026-01-11T12:28:06Z</time>
      </trkpt>
      <trkpt lat="42.24287" lon="-0.34153">
        <ele>728.13</ele>
        <time>2026-01-11T12:28:23Z</time>
      </trkpt>
      <trkpt lat="42.24297" lon="-0.34144">
        <ele>731.58</ele>
        <time>2026-01-11T12:28:38Z</time>
      </trkpt>
      <trkpt lat="42.24298" lon="-0.34143">
        <ele>731.45</ele>
        <time>2026-01-11T12:28:39Z</time>
      </trkpt>
      <trkpt lat="42.24303" lon="-0.34138">
        <ele>732.93</ele>
        <time>2026-01-11T12:28:49Z</time>
      </trkpt>
      <trkpt lat="42.24298" lon="-0.34133">
        <ele>736.05</ele>
        <time>2026-01-11T12:29:05Z</time>
      </trkpt>
      <trkpt lat="42.24293" lon="-0.34136">
        <ele>737.33</ele>
        <time>2026-01-11T12:29:10Z</time>
      </trkpt>
      <trkpt lat="42.24283" lon="-0.34148">
        <ele>736.23</ele>
        <time>2026-01-11T12:29:18Z</time>
      </trkpt>
      <trkpt lat="42.24274" lon="-0.34153">
        <ele>736.9</ele>
        <time>2026-01-11T12:29:24Z</time>
      </trkpt>
      <trkpt lat="42.24254" lon="-0.34163">
        <ele>737.08</ele>
        <time>2026-01-11T12:29:38Z</time>
      </trkpt>
      <trkpt lat="42.24245" lon="-0.34164">
        <ele>738.58</ele>
        <time>2026-01-11T12:29:45Z</time>
      </trkpt>
      <trkpt lat="42.24231" lon="-0.34164">
        <ele>739.82</ele>
        <time>2026-01-11T12:29:56Z</time>
      </trkpt>
      <trkpt lat="42.24223" lon="-0.34174">
        <ele>741.48</ele>
        <time>2026-01-11T12:30:05Z</time>
      </trkpt>
      <trkpt lat="42.2421" lon="-0.34191">
        <ele>742.88</ele>
        <time>2026-01-11T12:30:17Z</time>
      </trkpt>
      <trkpt lat="42.24194" lon="-0.34225">
        <ele>742.67</ele>
        <time>2026-01-11T12:30:35Z</time>
      </trkpt>
      <trkpt lat="42.24189" lon="-0.34251">
        <ele>745.85</ele>
        <time>2026-01-11T12:30:48Z</time>
      </trkpt>
      <trkpt lat="42.24187" lon="-0.34259">
        <ele>746.4</ele>
        <time>2026-01-11T12:30:53Z</time>
      </trkpt>
      <trkpt lat="42.24179" lon="-0.34281">
        <ele>749.05</ele>
        <time>2026-01-11T12:31:06Z</time>
      </trkpt>
      <trkpt lat="42.24178" lon="-0.34283">
        <ele>748.5</ele>
        <time>2026-01-11T12:31:07Z</time>
      </trkpt>
      <trkpt lat="42.24162" lon="-0.34307">
        <ele>750.77</ele>
        <time>2026-01-11T12:31:23Z</time>
      </trkpt>
      <trkpt lat="42.24157" lon="-0.34316">
        <ele>751.51</ele>
        <time>2026-01-11T12:31:28Z</time>
      </trkpt>
      <trkpt lat="42.24134" lon="-0.34332">
        <ele>752.92</ele>
        <time>2026-01-11T12:31:45Z</time>
      </trkpt>
      <trkpt lat="42.24101" lon="-0.34334">
        <ele>753.42</ele>
        <time>2026-01-11T12:32:05Z</time>
      </trkpt>
      <trkpt lat="42.24077" lon="-0.34355">
        <ele>752.66</ele>
        <time>2026-01-11T12:32:23Z</time>
      </trkpt>
      <trkpt lat="42.24061" lon="-0.34375">
        <ele>749.64</ele>
        <time>2026-01-11T12:32:36Z</time>
      </trkpt>
      <trkpt lat="42.24038" lon="-0.34389">
        <ele>752.17</ele>
        <time>2026-01-11T12:32:51Z</time>
      </trkpt>
      <trkpt lat="42.24015" lon="-0.34405">
        <ele>753.97</ele>
        <time>2026-01-11T12:33:07Z</time>
      </trkpt>
      <trkpt lat="42.24001" lon="-0.34426">
        <ele>754.44</ele>
        <time>2026-01-11T12:33:24Z</time>
      </trkpt>
      <trkpt lat="42.24003" lon="-0.34428">
        <ele>754.93</ele>
        <time>2026-01-11T12:33:50Z</time>
      </trkpt>
      <trkpt lat="42.23987" lon="-0.34454">
        <ele>755.33</ele>
        <time>2026-01-11T12:34:06Z</time>
      </trkpt>
      <trkpt lat="42.23961" lon="-0.34488">
        <ele>753.91</ele>
        <time>2026-01-11T12:34:26Z</time>
      </trkpt>
      <trkpt lat="42.23938" lon="-0.34508">
        <ele>752.7</ele>
        <time>2026-01-11T12:34:41Z</time>
      </trkpt>
      <trkpt lat="42.23918" lon="-0.34532">
        <ele>753.44</ele>
        <time>2026-01-11T12:34:57Z</time>
      </trkpt>
      <trkpt lat="42.23905" lon="-0.34567">
        <ele>751.24</ele>
        <time>2026-01-11T12:35:15Z</time>
      </trkpt>
      <trkpt lat="42.23897" lon="-0.34609">
        <ele>751.42</ele>
        <time>2026-01-11T12:35:35Z</time>
      </trkpt>
      <trkpt lat="42.23896" lon="-0.34613">
        <ele>752.11</ele>
        <time>2026-01-11T12:35:38Z</time>
      </trkpt>
      <trkpt lat="42.23887" lon="-0.34624">
        <ele>754.44</ele>
        <time>2026-01-11T12:35:49Z</time>
      </trkpt>
      <trkpt lat="42.23885" lon="-0.34625">
        <ele>755.92</ele>
        <time>2026-01-11T12:35:51Z</time>
      </trkpt>
      <trkpt lat="42.23865" lon="-0.34622">
        <ele>756.55</ele>
        <time>2026-01-11T12:36:08Z</time>
      </trkpt>
    </trkseg>
  </trk>
</gpx>